Provisional Data: East Fork First Fork Sinnemahoning Creek near Logue, PA


Please select a monitoring station.
Please select start date.
Please select start date.

Toggle Unit: C/F Toggle Unit: C/F
Sample Time Temperature (C) Temperature (F) Specific Conductivity (mS/cm) pH   Turbidity (NTU+) DO (mg/L)
12/23/2022 12:00:00 AM 2.11 35.798 0.04 6.96 2.81 12.99
12/23/2022 12:15:00 AM 2.13 35.834 0.039 6.96 3.62 12.97
12/23/2022 12:30:00 AM 2.15 35.87 0.039 6.95 3.52 12.96
12/23/2022 12:45:00 AM 2.17 35.906 0.039 6.96 4.01 12.93
12/23/2022 1:00:00 AM 2.19 35.942 0.039 6.95 4.26 12.92
12/23/2022 1:15:00 AM 2.21 35.978 0.04 6.94 5.2 12.92
12/23/2022 1:30:00 AM 2.22 35.996 0.04 6.94 6.08 12.91
12/23/2022 1:45:00 AM 2.23 36.014 0.04 6.94 5.5 12.89
12/23/2022 2:00:00 AM 2.25 36.05 0.04 6.94 4.54 12.89
12/23/2022 2:15:00 AM 2.26 36.068 0.04 6.94 5.66 12.88
12/23/2022 2:30:00 AM 2.27 36.086 0.04 6.93 5.23 12.86
12/23/2022 2:45:00 AM 2.28 36.104 0.041 6.94 5.16 12.85
12/23/2022 3:00:00 AM 2.29 36.122 0.041 6.94 5.78 12.85
12/23/2022 3:15:00 AM 2.3 36.14 0.041 6.94 7.16 12.84
12/23/2022 3:30:00 AM 2.32 36.176 0.041 6.94 11.6 12.83
12/23/2022 3:45:00 AM 2.33 36.194 0.042 6.93 4.63 12.83
12/23/2022 4:00:00 AM 2.34 36.212 0.041 6.94 4.38 12.82
12/23/2022 4:15:00 AM 2.35 36.23 0.041 6.93 4.88 12.81
12/23/2022 4:30:00 AM 2.38 36.284 0.041 6.94 5.85 12.8
12/23/2022 4:45:00 AM 2.4 36.32 0.041 6.94 4.46 12.78
12/23/2022 5:00:00 AM 2.43 36.374 0.041 6.93 5.26 12.77
12/23/2022 5:15:00 AM 2.46 36.428 0.041 6.94 5.12 12.76
12/23/2022 5:30:00 AM 2.51 36.518 0.041 6.94 5.17 12.74
12/23/2022 5:45:00 AM 2.55 36.59 0.041 6.93 4.89 12.72
12/23/2022 6:00:00 AM 2.59 36.662 0.041 6.93 5.23 12.7
12/23/2022 6:15:00 AM 2.64 36.752 0.042 6.93 4.93 12.68
12/23/2022 6:30:00 AM 2.68 36.824 0.042 6.93 4.89 12.66
12/23/2022 6:45:00 AM 2.72 36.896 0.042 6.93 4.4 12.64
12/23/2022 7:00:00 AM 2.77 36.986 0.043 6.93 4.63 12.62
12/23/2022 7:15:00 AM 2.81 37.058 0.043 6.93 4.42 12.6
12/23/2022 7:30:00 AM 2.85 37.13 0.044 6.93 4.4 12.57
12/23/2022 7:45:00 AM 2.89 37.202 0.044 6.93 3.96 12.56
12/23/2022 8:00:00 AM 2.94 37.292 0.045 6.92 4.24 12.54
12/23/2022 8:15:00 AM 2.98 37.364 0.045 6.93 4.38 12.54
12/23/2022 8:30:00 AM 3.02 37.436 0.045 6.92 4.47 12.53
12/23/2022 8:45:00 AM 3.03 37.454 0.045 6.93 4.38 12.52
12/23/2022 9:00:00 AM 3.03 37.454 0.045 6.94 4.91 12.52
12/23/2022 9:15:00 AM 3.01 37.418 0.044 6.94 5.16 12.53
12/23/2022 9:30:00 AM 3 37.4 0.044 6.94 4.81 12.58
12/23/2022 9:45:00 AM 2.98 37.364 0.044 6.95 4.91 12.6
12/23/2022 10:00:00 AM 2.93 37.274 0.043 6.95 5.01 12.64
12/23/2022 10:15:00 AM 2.87 37.166 0.043 6.95 5.09 12.68
12/23/2022 10:30:00 AM 2.79 37.022 0.043 6.95 5.22 12.74
12/23/2022 10:45:00 AM 2.73 36.914 0.043 6.95 5.23 12.77
12/23/2022 11:00:00 AM 2.62 36.716 0.043 6.95 5.41 12.81
12/23/2022 11:15:00 AM 2.53 36.554 0.043 6.95 5.3 12.84
12/23/2022 11:30:00 AM 2.42 36.356 0.043 6.95 5.2 12.88
12/23/2022 11:45:00 AM 2.32 36.176 0.042 6.95 5.37 12.93
12/23/2022 12:00:00 PM 2.23 36.014 0.042 6.95 5.4 12.97
12/23/2022 12:15:00 PM 2.16 35.888 0.042 6.94 5.08 13.01
12/23/2022 12:30:00 PM 2.07 35.726 0.042 6.94 5.27 13.05
12/23/2022 12:45:00 PM 2.01 35.618 0.042 6.94 5.11 13.09
12/23/2022 1:00:00 PM 1.91 35.438 0.041 6.94 4.95 13.12
12/23/2022 1:15:00 PM 1.83 35.294 0.041 6.94 5.26 13.16
12/23/2022 1:30:00 PM 1.76 35.168 0.041 6.93 5.78 13.21
12/23/2022 1:45:00 PM 1.72 35.096 0.041 6.93 5.48 13.23
12/23/2022 2:00:00 PM 1.64 34.952 0.041 6.93 4.85 13.27
12/23/2022 2:15:00 PM 1.55 34.79 0.041 6.92 4.84 13.29
12/23/2022 2:30:00 PM 1.48 34.664 0.041 6.9 4.75 13.31
12/23/2022 2:45:00 PM 1.38 34.484 0.041 6.88 4.67 13.35
12/23/2022 3:00:00 PM 1.29 34.322 0.039 6.87 5.06 13.37
12/23/2022 3:15:00 PM 1.19 34.142 0.041 6.86 6.48 13.4
12/23/2022 3:30:00 PM 1.08 33.944 0.041 6.85 15.41 13.44
12/23/2022 3:45:00 PM 0.99 33.782 0.041 6.85 14.08 13.47
12/23/2022 4:00:00 PM 0.9 33.62 0.041 6.85 15.58 13.49
12/23/2022 4:15:00 PM 0.82 33.476 0.041 6.83 15.45 13.5
12/23/2022 4:30:00 PM 0.73 33.314 0.041 6.83 44.7 13.52
12/23/2022 4:45:00 PM 0.63 33.134 0.041 6.81 10.97 13.54
12/23/2022 5:00:00 PM 0.53 32.954 0.041 6.8 6.64 13.57
12/23/2022 5:15:00 PM 0.49 32.882 0.041 6.8 4.52 13.59
12/23/2022 5:30:00 PM 0.43 32.774 0.041 6.8 4.47 13.61
12/23/2022 5:45:00 PM 0.39 32.702 0.041 6.79 5.02 13.62
12/23/2022 6:00:00 PM 0.35 32.63 0.041 6.81 5.32 13.65
12/23/2022 6:15:00 PM 0.32 32.576 0.041 6.81 4.78 13.66
12/23/2022 6:30:00 PM 0.3 32.54 0.041 6.81 4.39 13.67
12/23/2022 6:45:00 PM 0.29 32.522 0.041 6.81 4.45 13.67
12/23/2022 7:00:00 PM 0.26 32.468 0.041 6.81 4.39 13.69
12/23/2022 7:15:00 PM 0.25 32.45 0.041 6.82 4.29 13.69
12/23/2022 7:30:00 PM 0.23 32.414 0.041 6.81 4.26 13.7
12/23/2022 7:45:00 PM 0.22 32.396 0.041 6.81 4.33 13.7
12/23/2022 8:00:00 PM 0.2 32.36 0.041 6.82 4.06 13.72
12/23/2022 8:15:00 PM 0.19 32.342 0.041 6.82 4.08 13.73
12/23/2022 8:30:00 PM 0.19 32.342 0.041 6.82 3.96 13.72
12/23/2022 8:45:00 PM 0.18 32.324 0.041 6.82 4.03 13.73
12/23/2022 9:00:00 PM 0.17 32.306 0.041 6.82 4.11 13.75
12/23/2022 9:15:00 PM 0.15 32.27 0.041 6.83 3.9 13.74
12/23/2022 9:30:00 PM 0.15 32.27 0.041 6.83 3.87 13.75
12/23/2022 9:45:00 PM 0.14 32.252 0.041 6.83 4.04 13.74
12/23/2022 10:00:00 PM 0.16 32.288 0.041 6.83 3.81 13.74
12/23/2022 10:15:00 PM 0.15 32.27 0.041 6.83 3.86 13.75
12/23/2022 10:30:00 PM 0.15 32.27 0.041 6.83 3.8 13.74
12/23/2022 10:45:00 PM 0.15 32.27 0.041 6.83 3.79 13.75
12/23/2022 11:00:00 PM 0.17 32.306 0.041 6.83 3.77 13.74
12/23/2022 11:15:00 PM 0.17 32.306 0.041 6.83 3.73 13.76
12/23/2022 11:30:00 PM 0.19 32.342 0.041 6.83 3.8 13.76
12/23/2022 11:45:00 PM 0.2 32.36 0.041 6.83 3.67 13.75
12/24/2022 12:00:00 AM 0.21 32.378 0.041 6.83 3.75 13.75
12/24/2022 12:15:00 AM 0.22 32.396 0.041 6.83 3.8 13.74
12/24/2022 12:30:00 AM 0.21 32.378 0.041 6.83 3.55 13.74
12/24/2022 12:45:00 AM 0.22 32.396 0.041 6.83 3.77 13.75
12/24/2022 1:00:00 AM 0.21 32.378 0.041 6.83 4.09 13.74
12/24/2022 1:15:00 AM 0.2 32.36 0.04 6.83 3.68 13.75
12/24/2022 1:30:00 AM 0.22 32.396 0.04 6.83 3.55 13.74
12/24/2022 1:45:00 AM 0.21 32.378 0.04 6.84 3.66 13.74
12/24/2022 2:00:00 AM 0.23 32.414 0.04 6.82 3.66 13.75
12/24/2022 2:15:00 AM 0.25 32.45 0.04 6.83 3.62 13.75
12/24/2022 2:30:00 AM 0.26 32.468 0.04 6.83 4.84 13.73
12/24/2022 2:45:00 AM 0.26 32.468 0.04 6.84 3.6 13.74
12/24/2022 3:00:00 AM 0.26 32.468 0.04 6.83 3.5 13.74
12/24/2022 3:15:00 AM 0.27 32.486 0.04 6.83 3.36 13.75
12/24/2022 3:30:00 AM 0.28 32.504 0.04 6.83 3.57 13.75
12/24/2022 3:45:00 AM 0.28 32.504 0.04 6.83 3.56 13.74
12/24/2022 4:00:00 AM 0.28 32.504 0.04 6.83 3.4 13.74
12/24/2022 4:15:00 AM 0.3 32.54 0.04 6.83 3.42 13.75
12/24/2022 4:30:00 AM 0.31 32.558 0.04 6.83 3.48 13.73
12/24/2022 4:45:00 AM 0.32 32.576 0.04 6.82 3.33 13.73
12/24/2022 5:00:00 AM 0.32 32.576 0.04 6.83 3.31 13.74
12/24/2022 5:15:00 AM 0.34 32.612 0.04 6.83 3.41 13.74
12/24/2022 5:30:00 AM 0.34 32.612 0.04 6.83 3.49 13.72
12/24/2022 5:45:00 AM 0.36 32.648 0.04 6.83 3.48 13.72
12/24/2022 6:00:00 AM 0.36 32.648 0.039 6.83 3.39 13.74
12/24/2022 6:15:00 AM 0.35 32.63 0.039 6.83 3.31 13.74
12/24/2022 6:30:00 AM 0.37 32.666 0.039 6.83 3.38 13.74
12/24/2022 6:45:00 AM 0.37 32.666 0.039 6.83 3.43 13.74
12/24/2022 7:00:00 AM 0.38 32.684 0.039 6.82 3.51 13.73
12/24/2022 7:15:00 AM 0.39 32.702 0.039 6.82 3.41 13.74
12/24/2022 7:30:00 AM 0.38 32.684 0.039 6.82 3.34 13.73
12/24/2022 7:45:00 AM 0.39 32.702 0.039 6.83 3.36 13.74
12/24/2022 8:00:00 AM 0.38 32.684 0.039 6.82 3.2 13.74
12/24/2022 8:15:00 AM 0.39 32.702 0.039 6.83 3.27 13.76
12/24/2022 8:30:00 AM 0.39 32.702 0.039 6.83 3.25 13.79
12/24/2022 8:45:00 AM 0.41 32.738 0.039 6.84 3.27 13.8
12/24/2022 9:00:00 AM 0.43 32.774 0.039 6.84 3.52 13.83
12/24/2022 9:15:00 AM 0.46 32.828 0.039 6.85 3.23 13.84
12/24/2022 9:30:00 AM 0.47 32.846 0.039 6.84 3.24 13.83
12/24/2022 9:45:00 AM 0.48 32.864 0.039 6.85 3.23 13.85
12/24/2022 10:00:00 AM 0.5 32.9 0.039 6.86 3.37 13.85
12/24/2022 10:15:00 AM 0.51 32.918 0.039 6.86 3.28 13.86
12/24/2022 10:30:00 AM 0.54 32.972 0.038 6.85 3.23 13.85
12/24/2022 10:45:00 AM 0.57 33.026 0.038 6.86 3.29 13.85
12/24/2022 11:00:00 AM 0.57 33.026 0.038 6.87 3.23 13.85
12/24/2022 11:15:00 AM 0.59 33.062 0.038 6.87 3.46 13.85
12/24/2022 11:30:00 AM 0.61 33.098 0.038 6.87 3.19 13.84
12/24/2022 11:45:00 AM 0.62 33.116 0.038 6.87 3.17 13.84
12/24/2022 12:00:00 PM 0.62 33.116 0.038 6.87 3.25 13.84
12/24/2022 12:15:00 PM 0.63 33.134 0.038 6.86 3.23 13.84
12/24/2022 12:30:00 PM 0.62 33.116 0.038 6.86 3.35 13.83
12/24/2022 12:45:00 PM 0.63 33.134 0.038 6.87 3.26 13.84
12/24/2022 1:00:00 PM 0.62 33.116 0.038 6.87 3.34 13.84
12/24/2022 1:15:00 PM 0.63 33.134 0.038 6.86 3.33 13.84
12/24/2022 1:30:00 PM 0.64 33.152 0.038 6.87 3.43 13.83
12/24/2022 1:45:00 PM 0.66 33.188 0.038 6.87 3.38 13.82
12/24/2022 2:00:00 PM 0.66 33.188 0.038 6.87 3.25 13.82
12/24/2022 2:15:00 PM 0.67 33.206 0.038 6.86 3.3 13.81
12/24/2022 2:30:00 PM 0.67 33.206 0.038 6.87 3.48 13.81
12/24/2022 2:45:00 PM 0.66 33.188 0.038 6.86 3.29 13.81
12/24/2022 3:00:00 PM 0.64 33.152 0.038 6.86 3.29 13.82
12/24/2022 3:15:00 PM 0.63 33.134 0.038 6.87 3.38 13.81
12/24/2022 3:30:00 PM 0.65 33.17 0.038 6.86 3.37 13.81
12/24/2022 3:45:00 PM 0.63 33.134 0.038 6.86 3.3 13.8
12/24/2022 4:00:00 PM 0.62 33.116 0.038 6.86 3.57 13.8
12/24/2022 4:15:00 PM 0.61 33.098 0.038 6.85 3.44 13.78
12/24/2022 4:30:00 PM 0.59 33.062 0.038 6.84 3.38 13.76
12/24/2022 4:45:00 PM 0.58 33.044 0.038 6.84 3.34 13.75
12/24/2022 5:00:00 PM 0.59 33.062 0.038 6.84 7.91 13.73
12/24/2022 5:15:00 PM 0.58 33.044 0.038 6.84 7.46 13.72
12/24/2022 5:30:00 PM 0.57 33.026 0.038 6.84 6.67 13.71
12/24/2022 5:45:00 PM 0.57 33.026 0.038 6.84 6.75 13.71
12/24/2022 6:00:00 PM 0.57 33.026 0.038 6.84 7.5 13.71
12/24/2022 6:15:00 PM 0.57 33.026 0.037 6.84 12.8 13.7
12/24/2022 6:30:00 PM 0.58 33.044 0.037 6.83 16.76 13.7
12/24/2022 6:45:00 PM 0.58 33.044 0.037 6.83 9.53 13.71
12/24/2022 7:00:00 PM 0.58 33.044 0.037 6.82 4.36 13.7
12/24/2022 7:15:00 PM 0.59 33.062 0.037 6.83 4.29 13.7
12/24/2022 7:30:00 PM 0.58 33.044 0.037 6.83 9.07 13.7
12/24/2022 7:45:00 PM 0.58 33.044 0.037 6.83 9.27 13.7
12/24/2022 8:00:00 PM 0.57 33.026 0.037 6.83 9.66 13.7
12/24/2022 8:15:00 PM 0.57 33.026 0.037 6.83 8.46 13.7
12/24/2022 8:30:00 PM 0.57 33.026 0.037 6.82 10.35 13.71
12/24/2022 8:45:00 PM 0.56 33.008 0.037 6.82 9.8 13.71
12/24/2022 9:00:00 PM 0.57 33.026 0.037 6.82 10.32 13.71
12/24/2022 9:15:00 PM 0.58 33.044 0.037 6.82 10.14 13.71
12/24/2022 9:30:00 PM 0.59 33.062 0.037 6.81 8.37 13.7
12/24/2022 9:45:00 PM 0.61 33.098 0.037 6.8 8.29 13.69
12/24/2022 10:00:00 PM 0.61 33.098 0.037 6.82 5.9 13.69
12/24/2022 10:15:00 PM 0.61 33.098 0.037 6.82 7.17 13.7
12/24/2022 10:30:00 PM 0.61 33.098 0.037 6.81 8.5 13.7
12/24/2022 10:45:00 PM 0.62 33.116 0.037 6.8 4.72 13.69
12/24/2022 11:00:00 PM 0.63 33.134 0.037 6.82 5.32 13.69
12/24/2022 11:15:00 PM 0.63 33.134 0.037 6.82 6.75 13.68
12/24/2022 11:30:00 PM 0.64 33.152 0.037 6.82 6.69 13.68
12/24/2022 11:45:00 PM 0.64 33.152 0.037 6.82 6.77 13.68
12/25/2022 12:00:00 AM 0.65 33.17 0.037 6.81 10.04 13.68
12/25/2022 12:15:00 AM 0.66 33.188 0.037 6.81 3.42 13.67
12/25/2022 12:30:00 AM 0.66 33.188 0.037 6.82 5.96 13.67
12/25/2022 12:45:00 AM 0.67 33.206 0.037 6.82 7.33 13.67
12/25/2022 1:00:00 AM 0.67 33.206 0.037 6.8 10.99 13.66
12/25/2022 1:15:00 AM 0.67 33.206 0.037 6.8 3.82 13.66
12/25/2022 1:30:00 AM 0.68 33.224 0.037 6.82 3.59 13.66
12/25/2022 1:45:00 AM 0.69 33.242 0.037 6.82 5.92 13.65
12/25/2022 2:00:00 AM 0.7 33.26 0.037 6.81 7.13 13.65
12/25/2022 2:15:00 AM 0.71 33.278 0.037 6.81 9.74 13.65
12/25/2022 2:30:00 AM 0.7 33.26 0.037 6.81 9.8 13.65
12/25/2022 2:45:00 AM 0.7 33.26 0.037 6.81 3.19 13.64
12/25/2022 3:00:00 AM 0.7 33.26 0.037 6.82 5.12 13.65
12/25/2022 3:15:00 AM 0.71 33.278 0.037 6.82 12.85 13.64
12/25/2022 3:30:00 AM 0.7 33.26 0.037 6.82 14.47 13.65
12/25/2022 3:45:00 AM 0.68 33.224 0.037 6.82 12.56 13.65
12/25/2022 4:00:00 AM 0.64 33.152 0.037 6.82 17.79 13.65
12/25/2022 4:15:00 AM 0.6 33.08 0.037 6.81 11.5 13.66
12/25/2022 4:30:00 AM 0.61 33.098 0.037 6.81 4.42 13.67
12/25/2022 4:45:00 AM 0.64 33.152 0.037 6.83 6.67 13.66
12/25/2022 5:00:00 AM 0.66 33.188 0.037 6.83 8.62 13.65
12/25/2022 5:15:00 AM 0.69 33.242 0.037 6.81 24.73 13.64
12/25/2022 5:30:00 AM 0.7 33.26 0.037 6.82 11.74 13.63
12/25/2022 5:45:00 AM 0.7 33.26 0.037 6.82 11.53 13.63
12/25/2022 6:00:00 AM 0.71 33.278 0.037 6.81 4.68 13.63
12/25/2022 6:15:00 AM 0.73 33.314 0.037 6.82 4.47 13.63
12/25/2022 6:30:00 AM 0.75 33.35 0.037 6.82 5.12 13.62
12/25/2022 6:45:00 AM 0.76 33.368 0.037 6.83 4.81 13.62
12/25/2022 7:00:00 AM 0.78 33.404 0.037 6.82 3.94 13.61
12/25/2022 7:15:00 AM 0.8 33.44 0.037 6.83 3.71 13.61
12/25/2022 7:30:00 AM 0.8 33.44 0.037 6.81 3.8 13.61
12/25/2022 7:45:00 AM 0.83 33.494 0.037 6.82 3.78 13.61
12/25/2022 8:00:00 AM 0.87 33.566 0.037 6.81 3.66 13.6
12/25/2022 8:15:00 AM 0.92 33.656 0.037 6.81 3.43 13.6
12/25/2022 8:30:00 AM 0.95 33.71 0.037 6.82 3.37 13.6
12/25/2022 8:45:00 AM 0.99 33.782 0.037 6.82 3.28 13.62
12/25/2022 9:00:00 AM 1.02 33.836 0.037 6.84 3.13 13.63
12/25/2022 9:15:00 AM 1.04 33.872 0.037 6.85 3.19 13.64
12/25/2022 9:30:00 AM 1.07 33.926 0.037 6.85 3.14 13.65
12/25/2022 9:45:00 AM 1.11 33.998 0.037 6.86 3.21 13.66
12/25/2022 10:00:00 AM 1.15 34.07 0.037 6.86 3.19 13.66
12/25/2022 10:15:00 AM 1.19 34.142 0.037 6.86 3.17 13.66
12/25/2022 10:30:00 AM 1.23 34.214 0.037 6.88 3.03 13.66
12/25/2022 10:45:00 AM 1.26 34.268 0.036 6.88 3.36 13.66
12/25/2022 11:00:00 AM 1.3 34.34 0.036 6.89 3.04 13.65
12/25/2022 11:15:00 AM 1.35 34.43 0.036 6.88 2.95 13.64
12/25/2022 11:30:00 AM 1.4 34.52 0.036 6.89 3 13.62
12/25/2022 11:45:00 AM 1.43 34.574 0.036 6.89 2.92 13.62
12/25/2022 12:00:00 PM 1.47 34.646 0.036 6.9 2.88 13.6
12/25/2022 12:15:00 PM 1.52 34.736 0.036 6.9 2.77 13.59
12/25/2022 12:30:00 PM 1.57 34.826 0.036 6.9 2.85 13.58
12/25/2022 12:45:00 PM 1.64 34.952 0.036 6.9 2.89 13.55
12/25/2022 1:00:00 PM 1.69 35.042 0.036 6.91 2.81 13.53
12/25/2022 1:15:00 PM 1.7 35.06 0.036 6.9 3.41 13.51
12/25/2022 1:30:00 PM 1.72 35.096 0.036 6.9 2.88 13.51
12/25/2022 1:45:00 PM 1.74 35.132 0.036 6.91 2.75 13.49
12/25/2022 2:00:00 PM 1.77 35.186 0.036 6.9 2.71 13.48
12/25/2022 2:15:00 PM 1.81 35.258 0.036 6.91 2.87 13.46
12/25/2022 2:30:00 PM 1.82 35.276 0.036 6.91 2.82 13.45
12/25/2022 2:45:00 PM 1.84 35.312 0.036 6.91 2.81 13.45
12/25/2022 3:00:00 PM 1.86 35.348 0.036 6.91 2.95 13.45
12/25/2022 3:15:00 PM 1.85 35.33 0.036 6.91 2.81 13.43
12/25/2022 3:30:00 PM 1.86 35.348 0.036 6.91 2.87 13.44
12/25/2022 3:45:00 PM 1.85 35.33 0.036 6.9 2.85 13.42
12/25/2022 4:00:00 PM 1.84 35.312 0.036 6.89 2.87 13.42
12/25/2022 4:15:00 PM 1.84 35.312 0.036 6.89 2.84 13.4
12/25/2022 4:30:00 PM 1.82 35.276 0.036 6.89 2.83 13.38
12/25/2022 4:45:00 PM 1.81 35.258 0.036 6.89 2.77 13.36
12/25/2022 5:00:00 PM 1.79 35.222 0.037 6.89 5.71 13.35
12/25/2022 5:15:00 PM 1.79 35.222 0.037 6.88 5.63 13.33
12/25/2022 5:30:00 PM 1.78 35.204 0.037 6.87 2.92 13.32
12/25/2022 5:45:00 PM 1.77 35.186 0.037 6.86 2.81 13.32
12/25/2022 6:00:00 PM 1.76 35.168 0.037 6.86 2.89 13.33
12/25/2022 6:15:00 PM 1.75 35.15 0.037 6.85 2.93 13.32
12/25/2022 6:30:00 PM 1.74 35.132 0.037 6.85 2.86 13.33
12/25/2022 6:45:00 PM 1.72 35.096 0.037 6.85 2.84 13.34
12/25/2022 7:00:00 PM 1.7 35.06 0.037 6.85 2.95 13.34
12/25/2022 7:15:00 PM 1.7 35.06 0.037 6.84 2.86 13.34
12/25/2022 7:30:00 PM 1.68 35.024 0.037 6.84 2.91 13.36
12/25/2022 7:45:00 PM 1.67 35.006 0.037 6.85 2.82 13.37
12/25/2022 8:00:00 PM 1.65 34.97 0.037 6.84 2.83 13.38
12/25/2022 8:15:00 PM 1.65 34.97 0.037 6.85 3 13.38
12/25/2022 8:30:00 PM 1.63 34.934 0.037 6.85 3.03 13.39
12/25/2022 8:45:00 PM 1.63 34.934 0.037 6.85 2.91 13.39
12/25/2022 9:00:00 PM 1.62 34.916 0.037 6.85 2.95 13.4
12/25/2022 9:15:00 PM 1.6 34.88 0.037 6.84 2.99 13.39
12/25/2022 9:30:00 PM 1.59 34.862 0.037 6.84 4.85 13.41
12/25/2022 9:45:00 PM 1.57 34.826 0.037 6.84 41.45 13.42
12/25/2022 10:00:00 PM 1.55 34.79 0.037 6.84 16.37 13.42
12/25/2022 10:15:00 PM 1.54 34.772 0.037 6.85 12.94 13.43
12/25/2022 10:30:00 PM 1.53 34.754 0.037 6.85 10.11 13.44
12/25/2022 10:45:00 PM 1.52 34.736 0.037 6.85 9.14 13.45
12/25/2022 11:00:00 PM 1.51 34.718 0.037 6.85 8.41 13.45
12/25/2022 11:15:00 PM 1.48 34.664 0.037 6.85 12.38 13.46
12/25/2022 11:30:00 PM 1.47 34.646 0.037 6.85 12.73 13.47
12/25/2022 11:45:00 PM 1.45 34.61 0.037 6.84 11.95 13.48
12/26/2022 12:00:00 AM 1.42 34.556 0.037 6.84 10.48 13.49
12/26/2022 12:15:00 AM 1.41 34.538 0.037 6.84 8.51 13.49
12/26/2022 12:30:00 AM 1.4 34.52 0.037 6.84 7.95 13.5
12/26/2022 12:45:00 AM 1.38 34.484 0.037 6.84 8.02 13.51
12/26/2022 1:00:00 AM 1.36 34.448 0.037 6.84 8.72 13.52
12/26/2022 1:15:00 AM 1.34 34.412 0.037 6.84 7.3 13.53
12/26/2022 1:30:00 AM 1.33 34.394 0.037 6.84 7.3 13.53
12/26/2022 1:45:00 AM 1.32 34.376 0.037 6.85 6.64 13.54
12/26/2022 2:00:00 AM 1.32 34.376 0.037 6.84 7.74 13.55
12/26/2022 2:15:00 AM 1.31 34.358 0.037 6.84 6.68 13.56
12/26/2022 2:30:00 AM 1.29 34.322 0.037 6.84 6.45 13.56
12/26/2022 2:45:00 AM 1.29 34.322 0.037 6.84 7.28 13.57
12/26/2022 3:00:00 AM 1.27 34.286 0.037 6.84 10.89 13.58
12/26/2022 3:15:00 AM 1.26 34.268 0.037 6.83 9.65 13.58
12/26/2022 3:30:00 AM 1.25 34.25 0.037 6.84 9.93 13.59
12/26/2022 3:45:00 AM 1.25 34.25 0.037 6.84 7.23 13.6
12/26/2022 4:00:00 AM 1.24 34.232 0.037 6.84 7.66 13.6
12/26/2022 4:15:00 AM 1.24 34.232 0.037 6.84 6.82 13.6
12/26/2022 4:30:00 AM 1.24 34.232 0.037 6.83 6.05 13.6
12/26/2022 4:45:00 AM 1.23 34.214 0.037 6.85 4.15 13.61
12/26/2022 5:00:00 AM 1.22 34.196 0.037 6.83 6.07 13.62
12/26/2022 5:15:00 AM 1.21 34.178 0.037 6.82 9.79 13.62
12/26/2022 5:30:00 AM 1.21 34.178 0.037 6.83 8.14 13.63
12/26/2022 5:45:00 AM 1.2 34.16 0.037 6.83 3.06 13.63
12/26/2022 6:00:00 AM 1.19 34.142 0.037 6.84 5.77 13.64
12/26/2022 6:15:00 AM 1.19 34.142 0.037 6.83 5.06 13.64
12/26/2022 6:30:00 AM 1.18 34.124 0.037 6.83 3 13.65
12/26/2022 6:45:00 AM 1.17 34.106 0.037 6.82 3 13.65
12/26/2022 7:00:00 AM 1.16 34.088 0.037 6.83 2.82 13.66
12/26/2022 7:15:00 AM 1.16 34.088 0.037 6.83 2.9 13.67
12/26/2022 7:30:00 AM 1.14 34.052 0.037 6.83 2.88 13.67
12/26/2022 7:45:00 AM 1.14 34.052 0.037 6.83 2.97 13.68
12/26/2022 8:00:00 AM 1.13 34.034 0.037 6.83 3.44 13.69
12/26/2022 8:15:00 AM 1.13 34.034 0.037 6.83 2.89 13.71
12/26/2022 8:30:00 AM 1.13 34.034 0.037 6.84 2.8 13.74
12/26/2022 8:45:00 AM 1.13 34.034 0.037 6.85 2.81 13.76
12/26/2022 9:00:00 AM 1.14 34.052 0.037 6.85 2.78 13.78
12/26/2022 9:15:00 AM 1.16 34.088 0.037 6.86 2.74 13.8
12/26/2022 9:30:00 AM 1.19 34.142 0.037 6.86 2.76 13.82
12/26/2022 9:45:00 AM 1.22 34.196 0.037 6.87 2.69 13.82
12/26/2022 10:00:00 AM 1.25 34.25 0.037 6.88 2.78 13.83
12/26/2022 10:15:00 AM 1.29 34.322 0.037 6.87 2.72 13.82
12/26/2022 10:30:00 AM 1.33 34.394 0.037 6.88 2.79 13.82
12/26/2022 10:45:00 AM 1.38 34.484 0.037 6.9 2.79 13.81
12/26/2022 11:00:00 AM 1.43 34.574 0.037 6.9 2.68 13.81
12/26/2022 11:15:00 AM 1.47 34.646 0.037 6.91 29.83 13.79
12/26/2022 11:30:00 AM 1.52 34.736 0.036 6.91 11.35 13.78
12/26/2022 11:45:00 AM 1.56 34.808 0.036 6.9 2.67 13.76
12/26/2022 12:00:00 PM 1.61 34.898 0.036 6.91 2.64 13.75
12/26/2022 12:15:00 PM 1.65 34.97 0.036 6.9 2.69 13.73
12/26/2022 12:30:00 PM 1.69 35.042 0.036 6.91 4.3 13.71
12/26/2022 12:45:00 PM 1.72 35.096 0.036 6.93 2.64 13.7
12/26/2022 1:00:00 PM 1.75 35.15 0.036 6.93 5.31 13.67
12/26/2022 1:15:00 PM 1.78 35.204 0.036 6.94 5.35 13.66
12/26/2022 1:30:00 PM 1.81 35.258 0.036 6.93 15.42 13.65
12/26/2022 1:45:00 PM 1.84 35.312 0.036 6.92 2.72 13.63
12/26/2022 2:00:00 PM 1.87 35.366 0.036 6.93 2.72 13.62
12/26/2022 2:15:00 PM 1.88 35.384 0.036 6.93 2.76 13.61
12/26/2022 2:30:00 PM 1.89 35.402 0.036 6.93 2.69 13.59
12/26/2022 2:45:00 PM 1.89 35.402 0.036 6.93 2.65 13.58
12/26/2022 3:00:00 PM 1.9 35.42 0.036 6.92 2.78 13.58
12/26/2022 3:15:00 PM 1.9 35.42 0.036 6.92 2.77 13.57
12/26/2022 3:30:00 PM 1.9 35.42 0.036 6.91 2.63 13.55
12/26/2022 3:45:00 PM 1.89 35.402 0.036 6.91 2.66 13.54
12/26/2022 4:00:00 PM 1.89 35.402 0.036 6.9 2.69 13.53
12/26/2022 4:15:00 PM 1.88 35.384 0.036 6.9 2.67 13.51
12/26/2022 4:30:00 PM 1.88 35.384 0.036 6.9 4.77 13.48
12/26/2022 4:45:00 PM 1.87 35.366 0.036 6.88 4.59 13.46
12/26/2022 5:00:00 PM 1.87 35.366 0.037 6.89 8.84 13.43
12/26/2022 5:15:00 PM 1.87 35.366 0.037 6.88 5.6 13.42
12/26/2022 5:30:00 PM 1.85 35.33 0.037 6.87 2.68 13.41
12/26/2022 5:45:00 PM 1.85 35.33 0.037 6.86 2.78 13.4
12/26/2022 6:00:00 PM 1.84 35.312 0.037 6.86 2.74 13.4
12/26/2022 6:15:00 PM 1.83 35.294 0.037 6.87 2.74 13.4
12/26/2022 6:30:00 PM 1.82 35.276 0.037 6.86 2.85 13.4
12/26/2022 6:45:00 PM 1.81 35.258 0.037 6.86 2.84 13.41
12/26/2022 7:00:00 PM 1.8 35.24 0.037 6.86 2.91 13.41
12/26/2022 7:15:00 PM 1.79 35.222 0.037 6.85 3.32 13.41
12/26/2022 7:30:00 PM 1.79 35.222 0.037 6.86 3.67 13.42
12/26/2022 7:45:00 PM 1.79 35.222 0.037 6.87 6.53 13.42
12/26/2022 8:00:00 PM 1.78 35.204 0.037 6.86 10.51 13.43
12/26/2022 8:15:00 PM 1.76 35.168 0.037 6.85 3.08 13.43
12/26/2022 8:30:00 PM 1.75 35.15 0.037 6.86 2.84 13.43
12/26/2022 8:45:00 PM 1.75 35.15 0.037 6.86 2.81 13.44
12/26/2022 9:00:00 PM 1.75 35.15 0.037 6.86 3.21 13.44
12/26/2022 9:15:00 PM 1.75 35.15 0.037 6.86 3.22 13.44
12/26/2022 9:30:00 PM 1.75 35.15 0.037 6.87 3.7 13.44
12/26/2022 9:45:00 PM 1.75 35.15 0.037 6.86 4.4 13.44
12/26/2022 10:00:00 PM 1.76 35.168 0.037 6.86 2.77 13.44
12/26/2022 10:15:00 PM 1.76 35.168 0.037 6.86 2.84 13.44
12/26/2022 10:30:00 PM 1.76 35.168 0.037 6.85 2.78 13.44
12/26/2022 10:45:00 PM 1.76 35.168 0.037 6.85 2.86 13.44
12/26/2022 11:00:00 PM 1.76 35.168 0.037 6.85 2.83 13.44
12/26/2022 11:15:00 PM 1.76 35.168 0.037 6.86 3.43 13.44
12/26/2022 11:30:00 PM 1.76 35.168 0.037 6.86 4.38 13.44
12/26/2022 11:45:00 PM 1.76 35.168 0.037 6.85 3.99 13.43
12/27/2022 12:00:00 AM 1.76 35.168 0.037 6.86 4.72 13.44
12/27/2022 12:15:00 AM 1.76 35.168 0.037 6.85 5.13 13.44
12/27/2022 12:30:00 AM 1.77 35.186 0.037 6.86 5.08 13.43
12/27/2022 12:45:00 AM 1.76 35.168 0.037 6.85 8.31 13.43
12/27/2022 1:00:00 AM 1.76 35.168 0.037 6.85 6.2 13.44
12/27/2022 1:15:00 AM 1.76 35.168 0.037 6.85 5.56 13.43
12/27/2022 1:30:00 AM 1.76 35.168 0.037 6.85 5.12 13.44
12/27/2022 1:45:00 AM 1.76 35.168 0.037 6.85 5.05 13.43
12/27/2022 2:00:00 AM 1.76 35.168 0.037 6.85 5.6 13.43
12/27/2022 2:15:00 AM 1.77 35.186 0.037 6.85 5.13 13.43
12/27/2022 2:30:00 AM 1.77 35.186 0.037 6.85 4.73 13.43
12/27/2022 2:45:00 AM 1.76 35.168 0.037 6.85 4.85 13.43
12/27/2022 3:00:00 AM 1.76 35.168 0.037 6.85 4.61 13.43
12/27/2022 3:15:00 AM 1.76 35.168 0.037 6.86 4.4 13.43
12/27/2022 3:30:00 AM 1.76 35.168 0.037 6.86 4.67 13.43
12/27/2022 3:45:00 AM 1.76 35.168 0.037 6.85 2.78 13.43
12/27/2022 4:00:00 AM 1.75 35.15 0.037 6.85 2.98 13.43
12/27/2022 4:15:00 AM 1.75 35.15 0.037 6.85 2.82 13.44
12/27/2022 4:30:00 AM 1.75 35.15 0.037 6.85 6.35 13.43
12/27/2022 4:45:00 AM 1.76 35.168 0.037 6.85 5.38 13.44
12/27/2022 5:00:00 AM 1.76 35.168 0.037 6.86 5.5 13.44
12/27/2022 5:15:00 AM 1.76 35.168 0.037 6.85 4.88 13.44
12/27/2022 5:30:00 AM 1.77 35.186 0.037 6.85 2.86 13.44
12/27/2022 5:45:00 AM 1.77 35.186 0.037 6.85 2.83 13.44
12/27/2022 6:00:00 AM 1.77 35.186 0.037 6.86 4.01 13.44
12/27/2022 6:15:00 AM 1.77 35.186 0.037 6.86 4.12 13.44
12/27/2022 6:30:00 AM 1.77 35.186 0.037 6.85 4.94 13.44
12/27/2022 6:45:00 AM 1.78 35.204 0.037 6.84 2.89 13.44
12/27/2022 7:00:00 AM 1.79 35.222 0.037 6.84 2.88 13.43
12/27/2022 7:15:00 AM 1.79 35.222 0.037 6.85 2.87 13.44
12/27/2022 7:30:00 AM 1.79 35.222 0.037 6.85 2.84 13.43
12/27/2022 7:45:00 AM 1.79 35.222 0.037 6.85 2.76 13.44
12/27/2022 8:00:00 AM 1.8 35.24 0.037 6.85 2.78 13.44
12/27/2022 8:15:00 AM 1.81 35.258 0.037 6.85 2.71 13.46
12/27/2022 8:30:00 AM 1.82 35.276 0.037 6.87 2.71 13.46
12/27/2022 8:45:00 AM 1.82 35.276 0.037 6.87 2.7 13.49
12/27/2022 9:00:00 AM 1.84 35.312 0.037 6.88 2.66 13.5
12/27/2022 9:15:00 AM 1.86 35.348 0.037 6.89 2.67 13.53
12/27/2022 9:30:00 AM 1.88 35.384 0.037 6.89 2.68 13.55
12/27/2022 9:45:00 AM 1.89 35.402 0.037 6.9 2.65 13.56
12/27/2022 10:00:00 AM 1.91 35.438 0.037 6.9 2.67 13.57
12/27/2022 10:15:00 AM 1.93 35.474 0.037 6.91 2.62 13.59
12/27/2022 10:30:00 AM 1.95 35.51 0.037 6.91 2.63 13.59
12/27/2022 10:45:00 AM 1.97 35.546 0.037 6.91 2.66 13.58
12/27/2022 11:00:00 AM 2 35.6 0.037 6.92 2.67 13.58
12/27/2022 11:15:00 AM 2.02 35.636 0.037 6.92 2.69 13.59
12/27/2022 11:30:00 AM 2.03 35.654 0.037 6.92 2.63 13.59
12/27/2022 11:45:00 AM 2.06 35.708 0.037 6.93 2.62 13.58
12/27/2022 12:00:00 PM 2.08 35.744 0.037 6.93 2.69 13.57
12/27/2022 12:15:00 PM 2.11 35.798 0.037 6.93 2.74 13.57
12/27/2022 12:30:00 PM 2.14 35.852 0.037 6.94 2.55 13.57
12/27/2022 12:45:00 PM 2.16 35.888 0.037 6.94 2.62 13.56
12/27/2022 1:00:00 PM 2.18 35.924 0.037 6.94 2.66 13.54
12/27/2022 1:15:00 PM 2.2 35.96 0.037 6.94 2.7 13.53
12/27/2022 1:30:00 PM 2.21 35.978 0.037 6.93 2.6 13.52
12/27/2022 1:45:00 PM 2.22 35.996 0.037 6.93 2.63 13.5
12/27/2022 2:00:00 PM 2.23 36.014 0.037 6.94 2.58 13.49
12/27/2022 2:15:00 PM 2.24 36.032 0.037 6.94 2.65 13.48
12/27/2022 2:30:00 PM 2.25 36.05 0.037 6.94 2.68 13.47
12/27/2022 2:45:00 PM 2.27 36.086 0.037 6.94 2.68 13.45
12/27/2022 3:00:00 PM 2.28 36.104 0.037 6.94 3.23 13.45
12/27/2022 3:15:00 PM 2.29 36.122 0.037 6.93 3.24 13.44
12/27/2022 3:30:00 PM 2.3 36.14 0.037 6.93 2.6 13.42
12/27/2022 3:45:00 PM 2.31 36.158 0.037 6.93 2.63 13.39
12/27/2022 4:00:00 PM 2.31 36.158 0.037 6.92 2.71 13.38
12/27/2022 4:15:00 PM 2.32 36.176 0.037 6.93 6.81 13.37
12/27/2022 4:30:00 PM 2.32 36.176 0.037 6.92 4.4 13.35
12/27/2022 4:45:00 PM 2.32 36.176 0.037 6.92 7.52 13.32
12/27/2022 5:00:00 PM 2.33 36.194 0.037 6.9 4.93 13.3
12/27/2022 5:15:00 PM 2.33 36.194 0.037 6.91 5.72 13.28
12/27/2022 5:30:00 PM 2.34 36.212 0.037 6.89 2.68 13.26
12/27/2022 5:45:00 PM 2.35 36.23 0.037 6.89 2.7 13.25
12/27/2022 6:00:00 PM 2.35 36.23 0.037 6.89 2.71 13.24
12/27/2022 6:15:00 PM 2.35 36.23 0.037 6.88 2.76 13.23
12/27/2022 6:30:00 PM 2.36 36.248 0.037 6.89 2.72 13.23
12/27/2022 6:45:00 PM 2.36 36.248 0.037 6.89 2.73 13.22
12/27/2022 7:00:00 PM 2.37 36.266 0.037 6.89 2.77 13.23
12/27/2022 7:15:00 PM 2.37 36.266 0.037 6.89 2.75 13.22
12/27/2022 7:30:00 PM 2.38 36.284 0.037 6.88 2.67 13.21
12/27/2022 7:45:00 PM 2.38 36.284 0.037 6.89 2.78 13.22
12/27/2022 8:00:00 PM 2.39 36.302 0.037 6.88 2.84 13.22
12/27/2022 8:15:00 PM 2.4 36.32 0.037 6.88 2.75 13.21
12/27/2022 8:30:00 PM 2.4 36.32 0.037 6.88 2.79 13.21
12/27/2022 8:45:00 PM 2.41 36.338 0.037 6.88 2.76 13.21
12/27/2022 9:00:00 PM 2.41 36.338 0.037 6.88 2.82 13.2
12/27/2022 9:15:00 PM 2.42 36.356 0.037 6.88 2.77 13.2
12/27/2022 9:30:00 PM 2.43 36.374 0.037 6.88 2.72 13.2
12/27/2022 9:45:00 PM 2.43 36.374 0.037 6.88 3.19 13.19
12/27/2022 10:00:00 PM 2.44 36.392 0.037 6.88 2.86 13.19
12/27/2022 10:15:00 PM 2.45 36.41 0.037 6.87 2.88 13.18
12/27/2022 10:30:00 PM 2.46 36.428 0.037 6.87 2.74 13.18
12/27/2022 10:45:00 PM 2.47 36.446 0.037 6.87 2.77 13.18
12/27/2022 11:00:00 PM 2.48 36.464 0.037 6.88 4.12 13.17
12/27/2022 11:15:00 PM 2.49 36.482 0.037 6.88 4.84 13.17
12/27/2022 11:30:00 PM 2.5 36.5 0.037 6.88 8.02 13.16
12/27/2022 11:45:00 PM 2.5 36.5 0.037 6.87 7.47 13.13
12/28/2022 12:00:00 AM 2.51 36.518 0.037 6.88 8.03 13.15
12/28/2022 12:15:00 AM 2.51 36.518 0.037 6.88 2.79 13.15
12/28/2022 12:30:00 AM 2.52 36.536 0.037 6.87 2.8 13.15
12/28/2022 12:45:00 AM 2.53 36.554 0.037 6.88 2.75 13.14
12/28/2022 1:00:00 AM 2.54 36.572 0.037 6.87 2.71 13.14
12/28/2022 1:15:00 AM 2.54 36.572 0.037 6.88 2.7 13.14
12/28/2022 1:30:00 AM 2.55 36.59 0.037 6.88 2.75 13.13
12/28/2022 1:45:00 AM 2.55 36.59 0.037 6.87 2.78 13.13
12/28/2022 2:00:00 AM 2.56 36.608 0.037 6.88 2.77 13.12
12/28/2022 2:15:00 AM 2.57 36.626 0.037 6.87 2.8 13.12
12/28/2022 2:30:00 AM 2.58 36.644 0.037 6.87 2.83 13.12
12/28/2022 2:45:00 AM 2.59 36.662 0.037 6.87 2.78 13.11
12/28/2022 3:00:00 AM 2.58 36.644 0.037 6.87 2.78 13.11
12/28/2022 3:15:00 AM 2.58 36.644 0.037 6.88 2.74 13.11
12/28/2022 3:30:00 AM 2.56 36.608 0.037 6.87 2.77 13.12
12/28/2022 3:45:00 AM 2.54 36.572 0.037 6.88 2.73 13.12
12/28/2022 4:00:00 AM 2.53 36.554 0.037 6.87 2.78 13.12
12/28/2022 4:15:00 AM 2.51 36.518 0.037 6.87 2.71 13.12
12/28/2022 4:30:00 AM 2.5 36.5 0.037 6.87 2.81 13.13
12/28/2022 4:45:00 AM 2.48 36.464 0.037 6.86 2.72 13.13
12/28/2022 5:00:00 AM 2.47 36.446 0.037 6.87 2.74 13.14
12/28/2022 5:15:00 AM 2.44 36.392 0.037 6.86 2.79 13.15
12/28/2022 5:30:00 AM 2.43 36.374 0.037 6.87 2.68 13.15
12/28/2022 5:45:00 AM 2.41 36.338 0.037 6.87 2.79 13.16
12/28/2022 6:00:00 AM 2.39 36.302 0.037 6.86 2.81 13.17
12/28/2022 6:15:00 AM 2.37 36.266 0.037 6.87 2.7 13.18
12/28/2022 6:30:00 AM 2.35 36.23 0.037 6.87 2.71 13.18
12/28/2022 6:45:00 AM 2.34 36.212 0.037 6.86 2.76 13.19
12/28/2022 7:00:00 AM 2.32 36.176 0.037 6.87 2.79 13.2
12/28/2022 7:15:00 AM 2.3 36.14 0.037 6.87 2.97 13.21
12/28/2022 7:30:00 AM 2.28 36.104 0.038 6.87 2.71 13.22
12/28/2022 7:45:00 AM 2.25 36.05 0.037 6.87 2.77 13.24
12/28/2022 8:00:00 AM 2.24 36.032 0.037 6.87 2.69 13.27
12/28/2022 8:15:00 AM 2.23 36.014 0.037 6.87 2.68 13.3
12/28/2022 8:30:00 AM 2.22 35.996 0.037 6.88 2.71 13.34
12/28/2022 8:45:00 AM 2.22 35.996 0.037 6.89 2.75 13.38
12/28/2022 9:00:00 AM 2.23 36.014 0.037 6.89 2.63 13.41
12/28/2022 9:15:00 AM 2.25 36.05 0.037 6.9 2.66 13.43
12/28/2022 9:30:00 AM 2.26 36.068 0.037 6.9 2.72 13.45
12/28/2022 9:45:00 AM 2.27 36.086 0.037 6.91 2.71 13.45
12/28/2022 10:00:00 AM 2.28 36.104 0.037 6.91 2.72 13.45
12/28/2022 10:15:00 AM 2.33 36.194 0.037 6.93 4.72 13.47
12/28/2022 10:30:00 AM 2.36 36.248 0.037 6.93 6.8 13.47
12/28/2022 10:45:00 AM 2.44 36.392 0.037 6.94 2.6 13.47
12/28/2022 11:00:00 AM 2.55 36.59 0.037 6.95 2.67 13.44
12/28/2022 11:15:00 AM 2.63 36.734 0.037 6.96 2.62 13.43
12/28/2022 11:30:00 AM 2.72 36.896 0.037 6.95 2.67 13.4
12/28/2022 11:45:00 AM 2.76 36.968 0.037 6.96 2.64 13.38
12/28/2022 12:00:00 PM 2.81 37.058 0.037 6.97 2.71 13.36
12/28/2022 12:15:00 PM 2.85 37.13 0.037 6.97 6.2 13.33
12/28/2022 12:30:00 PM 2.92 37.256 0.037 6.97 6.79 13.28
12/28/2022 12:45:00 PM 3.02 37.436 0.037 6.97 16.03 13.25
12/28/2022 1:00:00 PM 3.15 37.67 0.037 6.98 5.85 13.23
12/28/2022 1:15:00 PM 3.23 37.814 0.037 6.99 5.25 13.2
12/28/2022 1:30:00 PM 3.3 37.94 0.037 6.98 2.64 13.17
12/28/2022 1:45:00 PM 3.34 38.012 0.037 6.99 2.72 13.15
12/28/2022 2:00:00 PM 3.41 38.138 0.037 6.99 2.68 13.14
12/28/2022 2:15:00 PM 3.45 38.21 0.037 7 2.59 13.11
12/28/2022 2:30:00 PM 3.47 38.246 0.037 6.99 2.69 13.1
12/28/2022 2:45:00 PM 3.5 38.3 0.037 6.99 2.71 13.09
12/28/2022 3:00:00 PM 3.51 38.318 0.037 6.99 2.65 13.07
12/28/2022 3:15:00 PM 3.51 38.318 0.037 7 2.64 13.06
12/28/2022 3:30:00 PM 3.51 38.318 0.037 7 2.66 13.06
12/28/2022 3:45:00 PM 3.49 38.282 0.037 6.99 2.62 13.04
12/28/2022 4:00:00 PM 3.48 38.264 0.037 6.99 2.64 13.03
12/28/2022 4:15:00 PM 3.46 38.228 0.037 6.99 6.04 13
12/28/2022 4:30:00 PM 3.45 38.21 0.037 6.97 6.74 12.97
12/28/2022 4:45:00 PM 3.44 38.192 0.037 6.96 4.62 12.94
12/28/2022 5:00:00 PM 3.42 38.156 0.037 6.95 4.34 12.91
12/28/2022 5:15:00 PM 3.41 38.138 0.037 6.94 7.05 12.89
12/28/2022 5:30:00 PM 3.39 38.102 0.037 6.93 2.74 12.87
12/28/2022 5:45:00 PM 3.37 38.066 0.037 6.92 2.87 12.86
12/28/2022 6:00:00 PM 3.34 38.012 0.037 6.92 2.78 12.85
12/28/2022 6:15:00 PM 3.33 37.994 0.037 6.91 2.71 12.85
12/28/2022 6:30:00 PM 3.31 37.958 0.037 6.91 2.8 12.85
12/28/2022 6:45:00 PM 3.28 37.904 0.037 6.91 2.77 12.86
12/28/2022 7:00:00 PM 3.26 37.868 0.037 6.9 2.76 12.86
12/28/2022 7:15:00 PM 3.25 37.85 0.037 6.9 2.76 12.87
12/28/2022 7:30:00 PM 3.22 37.796 0.037 6.9 2.79 12.87
12/28/2022 7:45:00 PM 3.2 37.76 0.037 6.89 2.78 12.88
12/28/2022 8:00:00 PM 3.18 37.724 0.037 6.89 2.75 12.89
12/28/2022 8:15:00 PM 3.15 37.67 0.037 6.89 2.81 12.89
12/28/2022 8:30:00 PM 3.13 37.634 0.037 6.89 2.91 12.9
12/28/2022 8:45:00 PM 3.11 37.598 0.037 6.89 2.99 12.91
12/28/2022 9:00:00 PM 3.09 37.562 0.038 6.89 2.83 12.92
12/28/2022 9:15:00 PM 3.07 37.526 0.038 6.89 2.88 12.92
12/28/2022 9:30:00 PM 3.04 37.472 0.038 6.89 2.89 12.93
12/28/2022 9:45:00 PM 3.02 37.436 0.038 6.88 2.87 12.94
12/28/2022 10:00:00 PM 2.99 37.382 0.038 6.89 2.84 12.94
12/28/2022 10:15:00 PM 2.97 37.346 0.038 6.89 2.88 12.96
12/28/2022 10:30:00 PM 2.94 37.292 0.038 6.89 2.8 12.96
12/28/2022 10:45:00 PM 2.92 37.256 0.038 6.88 2.81 12.97
12/28/2022 11:00:00 PM 2.89 37.202 0.038 6.89 2.91 12.99
12/28/2022 11:15:00 PM 2.87 37.166 0.038 6.88 2.92 12.99
12/28/2022 11:30:00 PM 2.84 37.112 0.038 6.89 2.74 13
12/28/2022 11:45:00 PM 2.81 37.058 0.038 6.88 2.93 13.01
12/29/2022 12:00:00 AM 2.79 37.022 0.038 6.88 2.97 13.02
12/29/2022 12:15:00 AM 2.76 36.968 0.038 6.88 2.89 13.03
12/29/2022 12:30:00 AM 2.73 36.914 0.038 6.88 2.8 13.05
12/29/2022 12:45:00 AM 2.71 36.878 0.038 6.88 2.8 13.05
12/29/2022 1:00:00 AM 2.68 36.824 0.038 6.88 2.85 13.06
12/29/2022 1:15:00 AM 2.66 36.788 0.038 6.87 2.8 13.08
12/29/2022 1:30:00 AM 2.63 36.734 0.038 6.88 2.84 13.09
12/29/2022 1:45:00 AM 2.6 36.68 0.038 6.88 2.9 13.09
12/29/2022 2:00:00 AM 2.58 36.644 0.038 6.88 2.9 13.11
12/29/2022 2:15:00 AM 2.55 36.59 0.038 6.88 2.94 13.11
12/29/2022 2:30:00 AM 2.53 36.554 0.038 6.88 2.9 13.12
12/29/2022 2:45:00 AM 2.5 36.5 0.038 6.88 2.86 13.12
12/29/2022 3:00:00 AM 2.47 36.446 0.038 6.87 2.81 13.15
12/29/2022 3:15:00 AM 2.44 36.392 0.038 6.86 2.88 13.15
12/29/2022 3:30:00 AM 2.41 36.338 0.038 6.87 2.9 13.16
12/29/2022 3:45:00 AM 2.38 36.284 0.038 6.87 2.84 13.18
12/29/2022 4:00:00 AM 2.34 36.212 0.038 6.87 2.77 13.19
12/29/2022 4:15:00 AM 2.31 36.158 0.038 6.86 2.9 13.21
12/29/2022 4:30:00 AM 2.27 36.086 0.038 6.87 2.9 13.22
12/29/2022 4:45:00 AM 2.24 36.032 0.038 6.86 2.9 13.23
12/29/2022 5:00:00 AM 2.21 35.978 0.038 6.86 2.79 13.24
12/29/2022 5:15:00 AM 2.18 35.924 0.038 6.86 2.81 13.25
12/29/2022 5:30:00 AM 2.14 35.852 0.038 6.85 2.77 13.27
12/29/2022 5:45:00 AM 2.11 35.798 0.038 6.85 2.89 13.28
12/29/2022 6:00:00 AM 2.08 35.744 0.038 6.85 2.8 13.29
12/29/2022 6:15:00 AM 2.05 35.69 0.038 6.85 2.85 13.31
12/29/2022 6:30:00 AM 2.02 35.636 0.038 6.85 2.89 13.33
12/29/2022 6:45:00 AM 1.99 35.582 0.038 6.85 2.97 13.34
12/29/2022 7:00:00 AM 1.95 35.51 0.038 6.85 2.9 13.35
12/29/2022 7:15:00 AM 1.92 35.456 0.038 6.85 2.89 13.37
12/29/2022 7:30:00 AM 1.89 35.402 0.038 6.86 2.95 13.38
12/29/2022 7:45:00 AM 1.86 35.348 0.038 6.85 2.83 13.4
12/29/2022 8:00:00 AM 1.84 35.312 0.038 6.86 2.84 13.42
12/29/2022 8:15:00 AM 1.82 35.276 0.038 6.86 2.83 13.46
12/29/2022 8:30:00 AM 1.8 35.24 0.038 6.87 2.79 13.48
12/29/2022 8:45:00 AM 1.78 35.204 0.038 6.87 2.78 13.53
12/29/2022 9:00:00 AM 1.77 35.186 0.038 6.88 2.79 13.56
12/29/2022 9:15:00 AM 1.77 35.186 0.038 6.9 2.87 13.59
12/29/2022 9:30:00 AM 1.76 35.168 0.038 6.9 2.84 13.61
12/29/2022 9:45:00 AM 1.76 35.168 0.038 6.91 2.76 13.62
12/29/2022 10:00:00 AM 1.76 35.168 0.038 6.92 2.73 13.64
12/29/2022 10:15:00 AM 1.79 35.222 0.038 6.92 2.79 13.65
12/29/2022 10:30:00 AM 1.87 35.366 0.038 6.94 2.86 13.67
12/29/2022 10:45:00 AM 1.93 35.474 0.038 6.95 2.76 13.65
12/29/2022 11:00:00 AM 2.06 35.708 0.037 6.96 2.71 13.64
12/29/2022 11:15:00 AM 2.19 35.942 0.037 6.97 2.65 13.61
12/29/2022 11:30:00 AM 2.31 36.158 0.037 6.98 2.68 13.59
12/29/2022 11:45:00 AM 2.41 36.338 0.037 6.99 2.72 13.57
12/29/2022 12:00:00 PM 2.5 36.5 0.037 6.98 2.75 13.53
12/29/2022 12:15:00 PM 2.61 36.698 0.037 7 2.72 13.5
12/29/2022 12:30:00 PM 2.71 36.878 0.037 6.99 2.68 13.46
12/29/2022 12:45:00 PM 2.82 37.076 0.037 7 2.67 13.43
12/29/2022 1:00:00 PM 2.91 37.238 0.037 7 2.69 13.39
12/29/2022 1:15:00 PM 3.05 37.49 0.037 7.01 2.71 13.35
12/29/2022 1:30:00 PM 3.21 37.778 0.037 7.01 2.64 13.29
12/29/2022 1:45:00 PM 3.32 37.976 0.037 7.02 2.67 13.25
12/29/2022 2:00:00 PM 3.37 38.066 0.037 7.02 2.68 13.21
12/29/2022 2:15:00 PM 3.39 38.102 0.037 7.01 2.73 13.18
12/29/2022 2:30:00 PM 3.4 38.12 0.037 7.02 2.68 13.15
12/29/2022 2:45:00 PM 3.47 38.246 0.037 7.02 2.73 13.11
12/29/2022 3:00:00 PM 3.54 38.372 0.037 7.01 2.68 13.08
12/29/2022 3:15:00 PM 3.56 38.408 0.037 7.01 2.75 13.05
12/29/2022 3:30:00 PM 3.56 38.408 0.037 7.01 2.69 13.03
12/29/2022 3:45:00 PM 3.58 38.444 0.037 7.01 2.72 13.02
12/29/2022 4:00:00 PM 3.58 38.444 0.037 7.01 2.71 12.99
12/29/2022 4:15:00 PM 3.6 38.48 0.037 6.99 2.91 12.95
12/29/2022 4:30:00 PM 3.62 38.516 0.037 6.99 2.74 12.91
12/29/2022 4:45:00 PM 3.64 38.552 0.037 6.97 2.7 12.87
12/29/2022 5:00:00 PM 3.64 38.552 0.037 6.97 2.65 12.84
12/29/2022 5:15:00 PM 3.63 38.534 0.037 6.97 6.45 12.82
12/29/2022 5:30:00 PM 3.61 38.498 0.037 6.95 2.7 12.81
12/29/2022 5:45:00 PM 3.59 38.462 0.038 6.94 2.74 12.8
12/29/2022 6:00:00 PM 3.59 38.462 0.038 6.94 2.77 12.78
12/29/2022 6:15:00 PM 3.61 38.498 0.038 6.93 2.79 12.77
12/29/2022 6:30:00 PM 3.62 38.516 0.038 6.92 2.79 12.76
12/29/2022 6:45:00 PM 3.63 38.534 0.038 6.92 2.79 12.76
12/29/2022 7:00:00 PM 3.65 38.57 0.038 6.93 2.75 12.74
12/29/2022 7:15:00 PM 3.67 38.606 0.038 6.92 2.85 12.74
12/29/2022 7:30:00 PM 3.68 38.624 0.038 6.93 2.82 12.73
12/29/2022 7:45:00 PM 3.7 38.66 0.038 6.92 2.78 12.72
12/29/2022 8:00:00 PM 3.72 38.696 0.038 6.92 2.86 12.71
12/29/2022 8:15:00 PM 3.73 38.714 0.038 6.92 2.84 12.71
12/29/2022 8:30:00 PM 3.74 38.732 0.038 6.92 2.79 12.7
12/29/2022 8:45:00 PM 3.76 38.768 0.038 6.91 2.86 12.7
12/29/2022 9:00:00 PM 3.77 38.786 0.038 6.91 2.78 12.69
12/29/2022 9:15:00 PM 3.78 38.804 0.038 6.92 2.79 12.69
12/29/2022 9:30:00 PM 3.8 38.84 0.038 6.91 2.96 12.69
12/29/2022 9:45:00 PM 3.81 38.858 0.038 6.92 2.95 12.68
12/29/2022 10:00:00 PM 3.83 38.894 0.038 6.91 2.82 12.67
12/29/2022 10:15:00 PM 3.84 38.912 0.038 6.9 2.81 12.67
12/29/2022 10:30:00 PM 3.85 38.93 0.038 6.91 2.88 12.68
12/29/2022 10:45:00 PM 3.87 38.966 0.038 6.91 2.81 12.67
12/29/2022 11:00:00 PM 3.88 38.984 0.038 6.92 2.88 12.66
12/29/2022 11:15:00 PM 3.89 39.002 0.038 6.91 2.88 12.66
12/29/2022 11:30:00 PM 3.9 39.02 0.038 6.91 2.98 12.65
12/29/2022 11:45:00 PM 3.92 39.056 0.038 6.91 2.81 12.65
12/30/2022 12:00:00 AM 3.92 39.056 0.038 6.9 3.01 12.65
12/30/2022 12:15:00 AM 3.93 39.074 0.038 6.91 2.93 12.64
12/30/2022 12:30:00 AM 3.95 39.11 0.038 6.91 2.83 12.64
12/30/2022 12:45:00 AM 3.95 39.11 0.038 6.91 2.79 12.64
12/30/2022 1:00:00 AM 3.96 39.128 0.038 6.91 2.93 12.64
12/30/2022 1:15:00 AM 3.96 39.128 0.038 6.91 2.87 12.63
12/30/2022 1:30:00 AM 3.97 39.146 0.038 6.9 2.86 12.64
12/30/2022 1:45:00 AM 3.98 39.164 0.038 6.9 2.79 12.63
12/30/2022 2:00:00 AM 3.97 39.146 0.038 6.91 2.81 12.63
12/30/2022 2:15:00 AM 3.98 39.164 0.038 6.9 2.99 12.63
12/30/2022 2:30:00 AM 3.98 39.164 0.038 6.91 2.82 12.63
12/30/2022 2:45:00 AM 3.99 39.182 0.038 6.9 2.91 12.62
12/30/2022 3:00:00 AM 3.99 39.182 0.038 6.91 2.83 12.62
12/30/2022 3:15:00 AM 4 39.2 0.038 6.89 3.06 12.62
12/30/2022 3:30:00 AM 4 39.2 0.038 6.91 2.89 12.61
12/30/2022 3:45:00 AM 3.98 39.164 0.038 6.9 3.17 12.61
12/30/2022 4:00:00 AM 3.98 39.164 0.038 6.91 2.87 12.62
12/30/2022 4:15:00 AM 3.98 39.164 0.038 6.91 2.86 12.62
12/30/2022 4:30:00 AM 3.97 39.146 0.038 6.9 2.94 12.62
12/30/2022 4:45:00 AM 3.97 39.146 0.038 6.91 3.03 12.62
12/30/2022 5:00:00 AM 3.98 39.164 0.038 6.9 2.94 12.63
12/30/2022 5:15:00 AM 4 39.2 0.038 6.9 2.99 12.62
12/30/2022 5:30:00 AM 4.01 39.218 0.038 6.9 3.3 12.62
12/30/2022 5:45:00 AM 4.01 39.218 0.038 6.9 4.87 12.61
12/30/2022 6:00:00 AM 4.02 39.236 0.038 6.9 3.11 12.62
12/30/2022 6:15:00 AM 4.03 39.254 0.038 6.9 3.13 12.61
12/30/2022 6:30:00 AM 4.04 39.272 0.038 6.9 3.07 12.61
12/30/2022 6:45:00 AM 4.05 39.29 0.038 6.9 3.14 12.61
12/30/2022 7:00:00 AM 4.05 39.29 0.038 6.91 3.11 12.6
12/30/2022 7:15:00 AM 4.06 39.308 0.038 6.9 3.13 12.6
12/30/2022 7:30:00 AM 4.07 39.326 0.038 6.91 3.03 12.6
12/30/2022 7:45:00 AM 4.07 39.326 0.038 6.92 3.08 12.6
12/30/2022 8:00:00 AM 4.07 39.326 0.038 6.9 3.47 12.62
12/30/2022 8:15:00 AM 4.08 39.344 0.038 6.92 268.28 12.64
12/30/2022 8:30:00 AM 4.09 39.362 0.038 6.92 3.71 12.67
12/30/2022 8:45:00 AM 4.11 39.398 0.038 6.92 3.67 12.69
12/30/2022 9:00:00 AM 4.13 39.434 0.038 6.94 3.57 12.72
12/30/2022 9:15:00 AM 4.15 39.47 0.038 6.94 4.65 12.74
12/30/2022 9:30:00 AM 4.19 39.542 0.038 6.95 7.68 12.77
12/30/2022 9:45:00 AM 4.23 39.614 0.038 6.95 5.74 12.79
12/30/2022 10:00:00 AM 4.28 39.704 0.038 6.98 3.66 12.8
12/30/2022 10:15:00 AM 4.34 39.812 0.038 6.98 21.22 12.82
12/30/2022 10:30:00 AM 4.37 39.866 0.038 7 23.51 12.82
12/30/2022 10:45:00 AM 4.4 39.92 0.038 7 3.46 12.8
12/30/2022 11:00:00 AM 4.48 40.064 0.037 7 13.89 12.8
12/30/2022 11:15:00 AM 4.53 40.154 0.037 7 3.66 12.78
12/30/2022 11:30:00 AM 4.6 40.28 0.037 7.02 5.05 12.76
12/30/2022 11:45:00 AM 4.71 40.478 0.037 7.03 2.95 12.74
12/30/2022 12:00:00 PM 4.81 40.658 0.037 7.02 3.1 12.73
12/30/2022 12:15:00 PM 4.85 40.73 0.037 7.02 3.35 12.68
12/30/2022 12:30:00 PM 4.9 40.82 0.037 7.02 3.26 12.66
12/30/2022 12:45:00 PM 4.93 40.874 0.037 7.02 3.25 12.66
12/30/2022 1:00:00 PM 4.98 40.964 0.037 7.04 17.37 12.65
12/30/2022 1:15:00 PM 5.01 41.018 0.037 7.04 3.89 12.64
12/30/2022 1:30:00 PM 5.06 41.108 0.037 7.04 3.1 12.61
12/30/2022 1:45:00 PM 5.12 41.216 0.037 7.05 21.38 12.58
12/30/2022 2:00:00 PM 5.15 41.27 0.037 7.05 12.42 12.56
12/30/2022 2:15:00 PM 5.19 41.342 0.037 7.05 10.11 12.56
12/30/2022 2:30:00 PM 5.2 41.36 0.037 7.05 3.85 12.56
12/30/2022 2:45:00 PM 5.19 41.342 0.037 7.05 3.77 12.54
12/30/2022 3:00:00 PM 5.19 41.342 0.037 7.05 3.7 12.53
12/30/2022 3:15:00 PM 5.2 41.36 0.037 7.05 4.01 12.5
12/30/2022 3:30:00 PM 5.18 41.324 0.037 7.04 4.06 12.48
12/30/2022 3:45:00 PM 5.17 41.306 0.037 7.03 4.29 12.47
12/30/2022 4:00:00 PM 5.14 41.252 0.037 7.03 4.21 12.46
12/30/2022 4:15:00 PM 5.1 41.18 0.037 7.02 8.06 12.44
12/30/2022 4:30:00 PM 5.07 41.126 0.037 7.01 17.01 12.41
12/30/2022 4:45:00 PM 5.03 41.054 0.037 6.99 4.82 12.38
12/30/2022 5:00:00 PM 4.98 40.964 0.037 6.99 3.74 12.36
12/30/2022 5:15:00 PM 4.91 40.838 0.038 6.96 4.25 12.35
12/30/2022 5:30:00 PM 4.85 40.73 0.038 6.97 2.98 12.34
12/30/2022 5:45:00 PM 4.8 40.64 0.038 6.96 3.13 12.34
12/30/2022 6:00:00 PM 4.75 40.55 0.038 6.94 3.09 12.34
12/30/2022 6:15:00 PM 4.71 40.478 0.038 6.95 3.06 12.35
12/30/2022 6:30:00 PM 4.68 40.424 0.038 6.93 3.2 12.36
12/30/2022 6:45:00 PM 4.65 40.37 0.038 6.93 4.22 12.36
12/30/2022 7:00:00 PM 4.62 40.316 0.038 6.93 3.21 12.37
12/30/2022 7:15:00 PM 4.59 40.262 0.038 6.91 287.39 12.38
12/30/2022 7:30:00 PM 4.57 40.226 0.038 6.93 619.6 12.39
12/30/2022 7:45:00 PM 4.55 40.19 0.038 6.92 3.55 12.39
12/30/2022 8:00:00 PM 4.53 40.154 0.038 6.91 7.77 12.4
12/30/2022 8:15:00 PM 4.52 40.136 0.038 6.91 5.34 12.4
12/30/2022 8:30:00 PM 4.5 40.1 0.038 6.91 5.36 12.41
12/30/2022 8:45:00 PM 4.49 40.082 0.038 6.91 5.6 12.41
12/30/2022 9:00:00 PM 4.48 40.064 0.038 6.9 3.95 12.41
12/30/2022 9:15:00 PM 4.46 40.028 0.038 6.9 332.45 12.43
12/30/2022 9:30:00 PM 4.46 40.028 0.038 6.91 13.51 12.43
12/30/2022 9:45:00 PM 4.45 40.01 0.038 6.91 11.97 12.43
12/30/2022 10:00:00 PM 4.43 39.974 0.038 6.9 3.6 12.44
12/30/2022 10:15:00 PM 4.42 39.956 0.038 6.91 3.47 12.44
12/30/2022 10:30:00 PM 4.41 39.938 0.038 6.91 3.2 12.44
12/30/2022 10:45:00 PM 4.4 39.92 0.038 6.91 3.33 12.45
12/30/2022 11:00:00 PM 4.38 39.884 0.038 6.91 3.69 12.45
12/30/2022 11:15:00 PM 4.36 39.848 0.038 6.91 3.85 12.46
12/30/2022 11:30:00 PM 4.35 39.83 0.038 6.91 4.53 12.46
12/30/2022 11:45:00 PM 4.33 39.794 0.038 6.91 4.46 12.46
12/31/2022 12:00:00 AM 4.32 39.776 0.038 6.9 5.02 12.47
12/31/2022 12:15:00 AM 4.31 39.758 0.038 6.91 3.43 12.47
12/31/2022 12:30:00 AM 4.29 39.722 0.038 6.9 3.66 12.48
12/31/2022 12:45:00 AM 4.28 39.704 0.038 6.91 3.57 12.48
12/31/2022 1:00:00 AM 4.27 39.686 0.038 6.9 3.17 12.48
12/31/2022 1:15:00 AM 4.26 39.668 0.038 6.9 3.24 12.49
12/31/2022 1:30:00 AM 4.25 39.65 0.038 6.9 3.42 12.49
12/31/2022 1:45:00 AM 4.25 39.65 0.038 6.9 3.48 12.49
12/31/2022 2:00:00 AM 4.24 39.632 0.038 6.9 3.41 12.49
12/31/2022 2:15:00 AM 4.24 39.632 0.038 6.9 3.33 12.48
12/31/2022 2:30:00 AM 4.23 39.614 0.038 6.89 3.47 12.48
12/31/2022 2:45:00 AM 4.23 39.614 0.038 6.9 3.35 12.49
12/31/2022 3:00:00 AM 4.22 39.596 0.038 6.9 3.34 12.49
12/31/2022 3:15:00 AM 4.22 39.596 0.038 6.89 3.31 12.5
12/31/2022 3:30:00 AM 4.21 39.578 0.038 6.89 3.24 12.5
12/31/2022 3:45:00 AM 4.2 39.56 0.038 6.9 3.44 12.5
12/31/2022 4:00:00 AM 4.2 39.56 0.038 6.89 3.08 12.5
12/31/2022 4:15:00 AM 4.19 39.542 0.038 6.89 3.6 12.51
12/31/2022 4:30:00 AM 4.19 39.542 0.038 6.89 4.15 12.5
12/31/2022 4:45:00 AM 4.18 39.524 0.038 6.88 6.39 12.51
12/31/2022 5:00:00 AM 4.17 39.506 0.038 6.89 4.91 12.51
12/31/2022 5:15:00 AM 4.16 39.488 0.038 6.88 7.07 12.51
12/31/2022 5:30:00 AM 4.16 39.488 0.038 6.89 8.56 12.51
12/31/2022 5:45:00 AM 4.16 39.488 0.038 6.89 10.51 12.51
12/31/2022 6:00:00 AM 4.15 39.47 0.038 6.9 6.28 12.51
12/31/2022 6:15:00 AM 4.15 39.47 0.037 6.89 3.86 12.5
12/31/2022 6:30:00 AM 4.16 39.488 0.037 6.89 4.08 12.5
12/31/2022 6:45:00 AM 4.16 39.488 0.038 6.88 3.77 12.5
12/31/2022 7:00:00 AM 4.18 39.524 0.038 6.89 3.77 12.5
12/31/2022 7:15:00 AM 4.2 39.56 0.038 6.9 1830.94 12.5
12/31/2022 7:30:00 AM 4.21 39.578 0.038 6.89 3.35 12.49
12/31/2022 7:45:00 AM 4.23 39.614 0.038 6.88 3.38 12.49
12/31/2022 8:00:00 AM 4.25 39.65 0.038 6.88 3.95 12.49
12/31/2022 8:15:00 AM 4.26 39.668 0.038 6.89 3.97 12.5
12/31/2022 8:30:00 AM 4.28 39.704 0.038 6.9 3.49 12.53
12/31/2022 8:45:00 AM 4.3 39.74 0.038 6.92 3.49 12.55
12/31/2022 9:00:00 AM 4.33 39.794 0.038 6.92 4.71 12.58
12/31/2022 9:15:00 AM 4.36 39.848 0.038 6.92 3.62 12.6
12/31/2022 9:30:00 AM 4.39 39.902 0.037 6.93 3.43 12.62
12/31/2022 9:45:00 AM 4.43 39.974 0.037 6.94 3.45 12.63
12/31/2022 10:00:00 AM 4.48 40.064 0.037 6.95 3.57 12.64
12/31/2022 10:15:00 AM 4.53 40.154 0.037 6.96 9.24 12.65
12/31/2022 10:30:00 AM 4.59 40.262 0.037 6.97 3.25 12.65
12/31/2022 10:45:00 AM 4.65 40.37 0.037 6.98 3.25 12.64
12/31/2022 11:00:00 AM 4.72 40.496 0.037 6.98 3.29 12.62
12/31/2022 11:15:00 AM 4.79 40.622 0.037 6.99 3.37 12.6
12/31/2022 11:30:00 AM 4.86 40.748 0.037 7 3.3 12.59
12/31/2022 11:45:00 AM 4.93 40.874 0.037 7 5.61 12.57
12/31/2022 12:00:00 PM 4.99 40.982 0.037 7.01 3.45 12.55
12/31/2022 12:15:00 PM 5.05 41.09 0.037 7.01 3.45 12.51
12/31/2022 12:30:00 PM 5.09 41.162 0.037 7.02 4.56 12.48
12/31/2022 12:45:00 PM 5.11 41.198 0.037 7.02 3.63 12.44
12/31/2022 1:00:00 PM 5.13 41.234 0.037 7 4.91 12.4
12/31/2022 1:15:00 PM 5.14 41.252 0.037 6.99 3.75 12.37
12/31/2022 1:30:00 PM 5.16 41.288 0.037 6.98 4 12.36
12/31/2022 1:45:00 PM 5.17 41.306 0.037 6.99 3.97 12.35
12/31/2022 2:00:00 PM 5.19 41.342 0.037 6.99 3.52 12.34
12/31/2022 2:15:00 PM 5.2 41.36 0.037 6.97 3.71 12.31
12/31/2022 2:30:00 PM 5.2 41.36 0.037 6.98 4.03 12.29
12/31/2022 2:45:00 PM 5.21 41.378 0.037 6.97 3.95 12.27
12/31/2022 3:00:00 PM 5.21 41.378 0.037 6.96 3.5 12.25
12/31/2022 3:15:00 PM 5.21 41.378 0.037 6.96 3.7 12.23
12/31/2022 3:30:00 PM 5.21 41.378 0.037 6.95 3.78 12.2
12/31/2022 3:45:00 PM 5.21 41.378 0.037 6.95 3.67 12.18
12/31/2022 4:00:00 PM 5.21 41.378 0.037 6.93 7.66 12.16
12/31/2022 4:15:00 PM 5.21 41.378 0.037 6.92 3.83 12.15
12/31/2022 4:30:00 PM 5.21 41.378 0.037 6.92 3.96 12.14
12/31/2022 4:45:00 PM 5.21 41.378 0.037 6.91 3.83 12.13
12/31/2022 5:00:00 PM 5.21 41.378 0.037 6.91 5.21 12.12
12/31/2022 5:15:00 PM 5.21 41.378 0.037 6.91 3.7 12.11
12/31/2022 5:30:00 PM 5.21 41.378 0.037 6.9 3.9 12.11
12/31/2022 5:45:00 PM 5.2 41.36 0.037 6.89 3.94 12.1
12/31/2022 6:00:00 PM 5.21 41.378 0.037 6.89 6.12 12.1
12/31/2022 6:15:00 PM 5.21 41.378 0.037 6.89 4.06 12.1
12/31/2022 6:30:00 PM 5.21 41.378 0.037 6.89 43.89 12.09
12/31/2022 6:45:00 PM 5.21 41.378 0.037 6.88 6.47 12.09
12/31/2022 7:00:00 PM 5.21 41.378 0.037 6.87 4.23 12.09
12/31/2022 7:15:00 PM 5.21 41.378 0.037 6.89 4.71 12.09
12/31/2022 7:30:00 PM 5.21 41.378 0.037 6.88 5.23 12.09
12/31/2022 7:45:00 PM 5.21 41.378 0.037 6.88 3.83 12.09
12/31/2022 8:00:00 PM 5.22 41.396 0.037 6.87 4.06 12.1
12/31/2022 8:15:00 PM 5.22 41.396 0.037 6.87 4.09 12.09
12/31/2022 8:30:00 PM 5.21 41.378 0.037 6.87 8.74 12.1
12/31/2022 8:45:00 PM 5.21 41.378 0.037 6.86 6.58 12.1
12/31/2022 9:00:00 PM 5.21 41.378 0.037 6.86 7.29 12.09
12/31/2022 9:15:00 PM 5.21 41.378 0.037 6.87 140.97 12.1
12/31/2022 9:30:00 PM 5.2 41.36 0.037 6.86 6.16 12.1
12/31/2022 9:45:00 PM 5.19 41.342 0.037 6.86 6.08 12.09
12/31/2022 10:00:00 PM 5.19 41.342 0.037 6.86 5.4 12.1
12/31/2022 10:15:00 PM 5.18 41.324 0.037 6.86 6.54 12.1
12/31/2022 10:30:00 PM 5.16 41.288 0.036 6.85 5.09 12.11
12/31/2022 10:45:00 PM 5.16 41.288 0.036 6.85 5.05 12.11
12/31/2022 11:00:00 PM 5.16 41.288 0.036 6.86 4.8 12.11
12/31/2022 11:15:00 PM 5.15 41.27 0.036 6.85 4.72 12.11
12/31/2022 11:30:00 PM 5.16 41.288 0.036 6.84 5.09 12.12
12/31/2022 11:45:00 PM 5.16 41.288 0.036 6.85 5.19 12.12
1/1/2023 12:00:00 AM 5.16 41.288 0.036 6.86 5.66 12.11
1/1/2023 12:15:00 AM 5.17 41.306 0.036 6.84 5.06 12.12
1/1/2023 12:30:00 AM 5.18 41.324 0.036 6.85 5.36 12.12
1/1/2023 12:45:00 AM 5.19 41.342 0.036 6.84 6.76 12.11
1/1/2023 1:00:00 AM 5.21 41.378 0.036 6.84 7.73 12.11
1/1/2023 1:15:00 AM 5.22 41.396 0.036 6.85 5.17 12.11
1/1/2023 1:30:00 AM 5.23 41.414 0.036 6.84 5.21 12.11
1/1/2023 1:45:00 AM 5.22 41.396 0.036 6.86 5.05 12.11
1/1/2023 2:00:00 AM 5.21 41.378 0.036 6.85 100.8 12.12
1/1/2023 2:15:00 AM 5.2 41.36 0.036 6.86 5.13 12.12
1/1/2023 2:30:00 AM 5.2 41.36 0.036 6.83 5.09 12.12
1/1/2023 2:45:00 AM 5.18 41.324 0.036 6.85 5.5 12.12
1/1/2023 3:00:00 AM 5.16 41.288 0.036 6.85 5.05 12.13
1/1/2023 3:15:00 AM 5.15 41.27 0.036 6.85 95.95 12.14
1/1/2023 3:30:00 AM 5.16 41.288 0.036 6.85 5.18 12.14
1/1/2023 3:45:00 AM 5.16 41.288 0.036 6.82 5.31 12.14
1/1/2023 4:00:00 AM 5.15 41.27 0.036 6.85 5.22 12.14
1/1/2023 4:15:00 AM 5.14 41.252 0.036 6.85 9.13 12.14
1/1/2023 4:30:00 AM 5.14 41.252 0.036 6.85 10.68 12.14
1/1/2023 4:45:00 AM 5.13 41.234 0.036 6.85 5.7 12.14
1/1/2023 5:00:00 AM 5.13 41.234 0.036 6.85 5.75 12.15
1/1/2023 5:15:00 AM 5.13 41.234 0.036 6.84 5.83 12.15
1/1/2023 5:30:00 AM 5.13 41.234 0.036 6.85 7.79 12.15
1/1/2023 5:45:00 AM 5.13 41.234 0.036 6.86 6.9 12.16
1/1/2023 6:00:00 AM 5.14 41.252 0.036 6.84 5.79 12.15
1/1/2023 6:15:00 AM 5.15 41.27 0.036 6.83 7.24 12.15
1/1/2023 6:30:00 AM 5.16 41.288 0.036 6.83 12.31 12.15
1/1/2023 6:45:00 AM 5.17 41.306 0.036 6.83 7.18 12.15
1/1/2023 7:00:00 AM 5.17 41.306 0.036 6.84 7.44 12.15
1/1/2023 7:15:00 AM 5.18 41.324 0.036 6.83 8.29 12.15
1/1/2023 7:30:00 AM 5.19 41.342 0.036 6.83 5.7 12.15
1/1/2023 7:45:00 AM 5.18 41.324 0.036 6.83 11.46 12.16
1/1/2023 8:00:00 AM 5.19 41.342 0.036 6.83 9.9 12.17
1/1/2023 8:15:00 AM 5.19 41.342 0.036 6.83 6.42 12.19
1/1/2023 8:30:00 AM 5.2 41.36 0.036 6.83 306.9 12.2
1/1/2023 8:45:00 AM 5.21 41.378 0.036 6.84 8.61 12.23
1/1/2023 9:00:00 AM 5.22 41.396 0.036 6.84 38.22 12.26
1/1/2023 9:15:00 AM 5.24 41.432 0.036 6.85 6.16 12.28
1/1/2023 9:30:00 AM 5.26 41.468 0.036 6.86 9.15 12.29
1/1/2023 9:45:00 AM 5.29 41.522 0.036 6.86 14.14 12.3
1/1/2023 10:00:00 AM 5.32 41.576 0.035 6.88 5.98 12.31
1/1/2023 10:15:00 AM 5.36 41.648 0.035 6.88 5.79 12.31
1/1/2023 10:30:00 AM 5.41 41.738 0.035 6.88 11.2 12.32
1/1/2023 10:45:00 AM 5.46 41.828 0.035 6.91 6.12 12.31
1/1/2023 11:00:00 AM 5.5 41.9 0.035 6.9 5.5 12.31
1/1/2023 11:15:00 AM 5.54 41.972 0.035 6.89 5.92 12.3
1/1/2023 11:30:00 AM 5.57 42.026 0.035 6.9 5.85 12.29
1/1/2023 11:45:00 AM 5.62 42.116 0.035 6.92 5.94 12.29
1/1/2023 12:00:00 PM 5.67 42.206 0.035 6.92 6.39 12.27
1/1/2023 12:15:00 PM 5.72 42.296 0.035 6.91 6.16 12.26
1/1/2023 12:30:00 PM 5.75 42.35 0.035 6.9 5.82 12.23
1/1/2023 12:45:00 PM 5.83 42.494 0.035 6.91 6.2 12.2
1/1/2023 1:00:00 PM 5.84 42.512 0.035 6.91 6.11 12.19
1/1/2023 1:15:00 PM 5.84 42.512 0.035 6.91 6.42 12.16
1/1/2023 1:30:00 PM 5.85 42.53 0.035 6.9 9.66 12.14
1/1/2023 1:45:00 PM 5.86 42.548 0.035 6.89 13.5 12.14
1/1/2023 2:00:00 PM 5.86 42.548 0.035 6.89 6.25 12.12
1/1/2023 2:15:00 PM 5.89 42.602 0.035 6.91 6.89 12.14
1/1/2023 2:30:00 PM 5.91 42.638 0.035 6.88 6.39 12.11
1/1/2023 2:45:00 PM 5.93 42.674 0.035 6.88 8.67 12.1
1/1/2023 3:00:00 PM 5.94 42.692 0.035 6.89 21.65 12.09
1/1/2023 3:15:00 PM 5.95 42.71 0.035 6.89 7.82 12.07
1/1/2023 3:30:00 PM 5.97 42.746 0.035 6.88 12.17 12.06
1/1/2023 3:45:00 PM 5.97 42.746 0.035 6.9 6.38 12.04
1/1/2023 4:00:00 PM 5.98 42.764 0.035 6.88 7.98 12.02
1/1/2023 4:15:00 PM 5.97 42.746 0.035 6.86 110.07 12
1/1/2023 4:30:00 PM 5.96 42.728 0.035 6.86 7.84 11.98
1/1/2023 4:45:00 PM 5.95 42.71 0.035 6.84 10.62 11.96
1/1/2023 5:00:00 PM 5.95 42.71 0.035 6.84 7.49 11.94
1/1/2023 5:15:00 PM 5.94 42.692 0.035 6.8 6.81 11.93
1/1/2023 5:30:00 PM 5.93 42.674 0.035 6.83 8.25 11.93
1/1/2023 5:45:00 PM 5.92 42.656 0.035 6.82 6.67 11.93
1/1/2023 6:00:00 PM 5.91 42.638 0.035 6.82 6.89 11.93
1/1/2023 6:15:00 PM 5.91 42.638 0.035 6.81 364.96 11.93
1/1/2023 6:30:00 PM 5.9 42.62 0.035 6.82 9.14 11.94
1/1/2023 6:45:00 PM 5.9 42.62 0.035 6.81 8.97 11.94
1/1/2023 7:00:00 PM 5.89 42.602 0.035 6.8 7.08 11.93
1/1/2023 7:15:00 PM 5.89 42.602 0.035 6.81 6.85 11.93
1/1/2023 7:30:00 PM 5.89 42.602 0.035 6.8 7.2 11.94
1/1/2023 7:45:00 PM 5.88 42.584 0.035 6.81 6.95 11.94
1/1/2023 8:00:00 PM 5.88 42.584 0.035 6.8 6.99 11.95
1/1/2023 8:15:00 PM 5.88 42.584 0.035 6.8 6.93 11.95
1/1/2023 8:30:00 PM 5.88 42.584 0.035 6.8 6.96 11.95
1/1/2023 8:45:00 PM 5.87 42.566 0.035 6.8 6.61 11.95
1/1/2023 9:00:00 PM 5.87 42.566 0.035 6.8 6.85 11.96
1/1/2023 9:15:00 PM 5.86 42.548 0.035 6.81 6.94 11.96
1/1/2023 9:30:00 PM 5.86 42.548 0.035 6.81 6.92 11.95
1/1/2023 9:45:00 PM 5.86 42.548 0.035 6.81 6.55 11.96
1/1/2023 10:00:00 PM 5.86 42.548 0.035 6.82 6.83 11.96
1/1/2023 10:15:00 PM 5.86 42.548 0.035 6.81 7.02 11.95
1/1/2023 10:30:00 PM 5.85 42.53 0.035 6.8 6.62 11.96
1/1/2023 10:45:00 PM 5.85 42.53 0.035 6.81 6.63 11.96
1/1/2023 11:00:00 PM 5.84 42.512 0.035 6.8 6.81 11.97
1/1/2023 11:15:00 PM 5.83 42.494 0.034 6.79 6.64 11.97
1/1/2023 11:30:00 PM 5.82 42.476 0.035 6.78 7.33 11.97
1/1/2023 11:45:00 PM 5.8 42.44 0.035 6.79 29.06 11.97
1/2/2023 12:00:00 AM 5.8 42.44 0.035 6.77 21.9 11.98
1/2/2023 12:15:00 AM 5.79 42.422 0.035 6.78 13.35 11.98
1/2/2023 12:30:00 AM 5.79 42.422 0.035 6.77 7.71 11.98
1/2/2023 12:45:00 AM 5.79 42.422 0.035 6.77 11.49 11.98
1/2/2023 1:00:00 AM 5.79 42.422 0.035 6.78 15.77 11.98
1/2/2023 1:15:00 AM 5.78 42.404 0.035 6.77 13.83 11.98
1/2/2023 1:30:00 AM 5.78 42.404 0.034 6.77 17.12 11.99
1/2/2023 1:45:00 AM 5.78 42.404 0.034 6.78 9.18 11.99
1/2/2023 2:00:00 AM 5.77 42.386 0.034 6.78 6.74 11.99
1/2/2023 2:15:00 AM 5.77 42.386 0.034 6.76 20.75 11.99
1/2/2023 2:30:00 AM 5.77 42.386 0.034 6.75 27.56 11.99
1/2/2023 2:45:00 AM 5.76 42.368 0.034 6.77 25.83 12
1/2/2023 3:00:00 AM 5.76 42.368 0.034 6.75 6.87 12
1/2/2023 3:15:00 AM 5.76 42.368 0.034 6.75 7.35 12
1/2/2023 3:30:00 AM 5.76 42.368 0.034 6.75 6.5 12
1/2/2023 3:45:00 AM 5.75 42.35 0.034 6.76 6.92 12
1/2/2023 4:00:00 AM 5.75 42.35 0.034 6.76 7.31 12
1/2/2023 4:15:00 AM 5.74 42.332 0.034 6.76 6.42 12.01
1/2/2023 4:30:00 AM 5.74 42.332 0.034 6.76 7.65 12.01
1/2/2023 4:45:00 AM 5.73 42.314 0.034 6.74 2080.63 12.01
1/2/2023 5:00:00 AM 5.72 42.296 0.034 6.75 6.88 12.01
1/2/2023 5:15:00 AM 5.71 42.278 0.034 6.75 7.08 12.01
1/2/2023 5:30:00 AM 5.7 42.26 0.034 6.76 7.47 12.02
1/2/2023 5:45:00 AM 5.69 42.242 0.034 6.75 7.06 12.02
1/2/2023 6:00:00 AM 5.68 42.224 0.034 6.75 7.08 12.03
1/2/2023 6:15:00 AM 5.67 42.206 0.034 6.76 6.93 12.03
1/2/2023 6:30:00 AM 5.66 42.188 0.034 6.75 7.9 12.03
1/2/2023 6:45:00 AM 5.66 42.188 0.034 6.77 6.33 12.04
1/2/2023 7:00:00 AM 5.65 42.17 0.034 6.77 5.85 12.04
1/2/2023 7:15:00 AM 5.64 42.152 0.034 6.77 5.78 12.05
1/2/2023 7:30:00 AM 5.63 42.134 0.034 6.77 79.43 12.05
1/2/2023 7:45:00 AM 5.63 42.134 0.034 6.77 5.59 12.06
1/2/2023 8:00:00 AM 5.63 42.134 0.034 6.74 5.71 12.06
1/2/2023 8:15:00 AM 5.64 42.152 0.034 6.77 64.59 12.07
1/2/2023 8:30:00 AM 5.65 42.17 0.034 6.77 853.46 12.09
1/2/2023 8:45:00 AM 5.67 42.206 0.034 6.78 20.35 12.12
1/2/2023 9:00:00 AM 5.69 42.242 0.034 6.8 225.04 12.14
1/2/2023 9:15:00 AM 5.73 42.314 0.034 6.79 163.2 12.16
1/2/2023 9:30:00 AM 5.76 42.368 0.034 6.78 5.04 12.17
1/2/2023 9:45:00 AM 5.77 42.386 0.034 6.8 4.94 12.17
1/2/2023 10:00:00 AM 5.79 42.422 0.034 6.83 5.98 12.18
1/2/2023 10:15:00 AM 5.82 42.476 0.034 6.83 4.77 12.18
1/2/2023 10:30:00 AM 5.88 42.584 0.034 6.82 4.6 12.18
1/2/2023 10:45:00 AM 5.92 42.656 0.034 6.84 4.55 12.19
1/2/2023 11:00:00 AM 5.98 42.764 0.034 6.84 4.53 12.18
1/2/2023 11:15:00 AM 6.05 42.89 0.034 6.84 4.53 12.16
1/2/2023 11:30:00 AM 6.11 42.998 0.034 6.85 13.3 12.14
1/2/2023 11:45:00 AM 6.19 43.142 0.034 6.86 54.41 12.13
1/2/2023 12:00:00 PM 6.24 43.232 0.034 6.86 4.44 12.11
1/2/2023 12:15:00 PM 6.3 43.34 0.034 6.87 4.56 12.09
1/2/2023 12:30:00 PM 6.37 43.466 0.034 6.83 4.6 12.08
1/2/2023 12:45:00 PM 6.42 43.556 0.034 6.85 4.32 12.06
1/2/2023 1:00:00 PM 6.46 43.628 0.034 6.85 4.49 12.04
1/2/2023 1:15:00 PM 6.48 43.664 0.034 6.88 6.46 12.02
1/2/2023 1:30:00 PM 6.51 43.718 0.034 6.89 6.18 12.01
1/2/2023 1:45:00 PM 6.55 43.79 0.034 6.85 6.37 12
1/2/2023 2:00:00 PM 6.59 43.862 0.034 6.85 6.47 11.97
1/2/2023 2:15:00 PM 6.61 43.898 0.034 6.87 4.85 11.95
1/2/2023 2:30:00 PM 6.64 43.952 0.034 6.85 5.44 11.94
1/2/2023 2:45:00 PM 6.66 43.988 0.034 6.84 5.34 11.91
1/2/2023 3:00:00 PM 6.69 44.042 0.034 6.84 5.34 11.91
1/2/2023 3:15:00 PM 6.7 44.06 0.034 6.84 7.65 11.89
1/2/2023 3:30:00 PM 6.71 44.078 0.034 6.85 15.36 11.88
1/2/2023 3:45:00 PM 6.72 44.096 0.034 6.84 7.15 11.86
1/2/2023 4:00:00 PM 6.72 44.096 0.034 6.85 6.66 11.85
1/2/2023 4:15:00 PM 6.72 44.096 0.034 6.84 6.65 11.83
1/2/2023 4:30:00 PM 6.71 44.078 0.034 6.81 7.39 11.8
1/2/2023 4:45:00 PM 6.7 44.06 0.034 6.81 9.27 11.79
1/2/2023 5:00:00 PM 6.68 44.024 0.034 6.79 6.2 11.78
1/2/2023 5:15:00 PM 6.66 43.988 0.034 6.82 4.83 11.76
1/2/2023 5:30:00 PM 6.65 43.97 0.034 6.79 5.21 11.76
1/2/2023 5:45:00 PM 6.62 43.916 0.034 6.79 5.2 11.77
1/2/2023 6:00:00 PM 6.61 43.898 0.034 6.79 4.93 11.77
1/2/2023 6:15:00 PM 6.59 43.862 0.034 6.79 7.17 11.77
1/2/2023 6:30:00 PM 6.57 43.826 0.034 6.77 5.51 11.78
1/2/2023 6:45:00 PM 6.56 43.808 0.034 6.76 7.4 11.78
1/2/2023 7:00:00 PM 6.54 43.772 0.034 6.78 5.59 11.78
1/2/2023 7:15:00 PM 6.53 43.754 0.034 6.77 5.91 11.79
1/2/2023 7:30:00 PM 6.51 43.718 0.034 6.77 5.25 11.79
1/2/2023 7:45:00 PM 6.5 43.7 0.034 6.77 5.65 11.8
1/2/2023 8:00:00 PM 6.48 43.664 0.034 6.76 4.47 11.8
1/2/2023 8:15:00 PM 6.47 43.646 0.034 6.76 4.26 11.81
1/2/2023 8:30:00 PM 6.45 43.61 0.034 6.76 4.4 11.81
1/2/2023 8:45:00 PM 6.44 43.592 0.034 6.75 4.52 11.81
1/2/2023 9:00:00 PM 6.43 43.574 0.034 6.76 4.31 11.82
1/2/2023 9:15:00 PM 6.42 43.556 0.034 6.76 4.66 11.82
1/2/2023 9:30:00 PM 6.4 43.52 0.034 6.76 5.2 11.82
1/2/2023 9:45:00 PM 6.39 43.502 0.034 6.75 3.97 11.83
1/2/2023 10:00:00 PM 6.38 43.484 0.034 6.76 4.03 11.83
1/2/2023 10:15:00 PM 6.37 43.466 0.034 6.75 3.99 11.83
1/2/2023 10:30:00 PM 6.36 43.448 0.034 6.75 4.21 11.83
1/2/2023 10:45:00 PM 6.36 43.448 0.034 6.76 4.62 11.83
1/2/2023 11:00:00 PM 6.35 43.43 0.034 6.76 3.8 11.83
1/2/2023 11:15:00 PM 6.34 43.412 0.034 6.76 4.05 11.84
1/2/2023 11:30:00 PM 6.34 43.412 0.034 6.76 4.24 11.84
1/2/2023 11:45:00 PM 6.33 43.394 0.034 6.65 6.03 11.84
1/3/2023 12:00:00 AM 6.33 43.394 0.034 6.7 4 11.84
1/3/2023 12:15:00 AM 6.32 43.376 0.034 6.73 4.06 11.84
1/3/2023 12:30:00 AM 6.32 43.376 0.034 6.7 4.44 11.84
1/3/2023 12:45:00 AM 6.32 43.376 0.034 6.73 4.22 11.84
1/3/2023 1:00:00 AM 6.31 43.358 0.034 6.72 4.21 11.84
1/3/2023 1:15:00 AM 6.31 43.358 0.034 6.71 4.01 11.84
1/3/2023 1:30:00 AM 6.3 43.34 0.034 6.72 4.29 11.84
1/3/2023 1:45:00 AM 6.3 43.34 0.034 6.69 5.13 11.83
1/3/2023 2:00:00 AM 6.3 43.34 0.034 6.69 4.98 11.83
1/3/2023 2:15:00 AM 6.3 43.34 0.034 6.73 6.21 11.83
1/3/2023 2:30:00 AM 6.3 43.34 0.034 6.72 4.08 11.84
1/3/2023 2:45:00 AM 6.3 43.34 0.034 6.72 4.22 11.83
1/3/2023 3:00:00 AM 6.3 43.34 0.034 6.74 4.03 11.83
1/3/2023 3:15:00 AM 6.3 43.34 0.034 6.74 4 11.83
1/3/2023 3:30:00 AM 6.3 43.34 0.034 6.72 4.31 11.84
1/3/2023 3:45:00 AM 6.3 43.34 0.034 6.73 4.48 11.83
1/3/2023 4:00:00 AM 6.3 43.34 0.034 6.72 3.86 11.83
1/3/2023 4:15:00 AM 6.3 43.34 0.034 6.73 3.92 11.83
1/3/2023 4:30:00 AM 6.3 43.34 0.034 6.73 4.61 11.83
1/3/2023 4:45:00 AM 6.31 43.358 0.034 6.74 13.18 11.82
1/3/2023 5:00:00 AM 6.31 43.358 0.034 6.74 3763.75 11.82
1/3/2023 5:15:00 AM 6.31 43.358 0.034 6.73 3.92 11.82
1/3/2023 5:30:00 AM 6.31 43.358 0.034 6.73 3.88 11.82
1/3/2023 5:45:00 AM 6.31 43.358 0.034 6.72 3.79 11.82
1/3/2023 6:00:00 AM 6.31 43.358 0.035 6.74 3.95 11.81
1/3/2023 6:15:00 AM 6.31 43.358 0.034 6.75 3.89 11.81
1/3/2023 6:30:00 AM 6.32 43.376 0.034 6.76 3.62 11.81
1/3/2023 6:45:00 AM 6.32 43.376 0.034 6.76 3.75 11.8
1/3/2023 7:00:00 AM 6.32 43.376 0.034 6.75 3.71 11.8
1/3/2023 7:15:00 AM 6.33 43.394 0.034 6.75 3.78 11.8
1/3/2023 7:30:00 AM 6.33 43.394 0.034 6.75 3.69 11.79
1/3/2023 7:45:00 AM 6.33 43.394 0.034 6.76 3.78 11.79
1/3/2023 8:00:00 AM 6.33 43.394 0.034 6.75 3.71 11.8
1/3/2023 8:15:00 AM 6.33 43.394 0.034 6.74 4.02 11.8
1/3/2023 8:30:00 AM 6.34 43.412 0.034 6.75 3.79 11.79
1/3/2023 8:45:00 AM 6.34 43.412 0.034 6.73 4.01 11.79
1/3/2023 9:00:00 AM 6.35 43.43 0.034 6.74 4.04 11.79
1/3/2023 9:15:00 AM 6.36 43.448 0.034 6.74 4.62 11.8
1/3/2023 9:30:00 AM 6.36 43.448 0.034 6.74 144.56 11.8
1/3/2023 9:45:00 AM 6.37 43.466 0.034 6.75 116.87 11.8
1/3/2023 10:00:00 AM 6.37 43.466 0.034 6.76 5.83 11.8
1/3/2023 10:15:00 AM 6.38 43.484 0.034 6.78 6.61 11.81
1/3/2023 10:30:00 AM 6.39 43.502 0.034 6.75 6.85 11.81
1/3/2023 10:45:00 AM 6.4 43.52 0.035 6.75 7.33 11.82
1/3/2023 11:00:00 AM 6.41 43.538 0.035 6.79 7.97 11.81
1/3/2023 11:15:00 AM 6.42 43.556 0.035 6.7 7.86 11.81
1/3/2023 11:30:00 AM 6.43 43.574 0.035 6.74 7.92 11.81
1/3/2023 11:45:00 AM 6.45 43.61 0.035 6.74 8.36 11.8
1/3/2023 12:00:00 PM 6.47 43.646 0.035 6.74 8.52 11.79
1/3/2023 12:15:00 PM 6.49 43.682 0.035 6.76 8.21 11.78
1/3/2023 12:30:00 PM 6.51 43.718 0.035 6.74 9.37 11.78
1/3/2023 12:45:00 PM 6.54 43.772 0.035 6.71 8.61 11.78
1/3/2023 1:00:00 PM 6.56 43.808 0.035 6.79 8.63 11.77
1/3/2023 1:15:00 PM 6.59 43.862 0.035 6.76 8.35 11.75
1/3/2023 1:30:00 PM 6.61 43.898 0.035 6.76 8.57 11.73
1/3/2023 1:45:00 PM 6.63 43.934 0.036 6.79 9.23 11.72
1/3/2023 2:00:00 PM 6.65 43.97 0.036 6.75 11.93 11.71
1/3/2023 2:15:00 PM 6.67 44.006 0.036 6.73 16.89 11.7
1/3/2023 2:30:00 PM 6.69 44.042 0.036 6.75 20.59 11.68
1/3/2023 2:45:00 PM 6.71 44.078 0.036 6.75 17.98 11.68
1/3/2023 3:00:00 PM 6.73 44.114 0.036 6.75 18.43 11.66
1/3/2023 3:15:00 PM 6.74 44.132 0.036 6.74 22.06 11.65
1/3/2023 3:30:00 PM 6.76 44.168 0.036 6.69 11.89 11.63
1/3/2023 3:45:00 PM 6.77 44.186 0.036 6.71 10.79 11.61
1/3/2023 4:00:00 PM 6.79 44.222 0.036 6.76 9.87 11.61
1/3/2023 4:15:00 PM 6.8 44.24 0.036 6.73 17.4 11.6
1/3/2023 4:30:00 PM 6.81 44.258 0.036 6.72 14.63 11.59
1/3/2023 4:45:00 PM 6.82 44.276 0.036 6.75 15.78 11.57
1/3/2023 5:00:00 PM 6.83 44.294 0.036 6.75 9.44 11.57
1/3/2023 5:15:00 PM 6.84 44.312 0.036 6.76 9.86 11.56
1/3/2023 5:30:00 PM 6.85 44.33 0.036 6.76 8.85 11.56
1/3/2023 5:45:00 PM 6.85 44.33 0.036 6.75 8.59 11.55
1/3/2023 6:00:00 PM 6.86 44.348 0.036 6.77 9.81 11.55
1/3/2023 6:15:00 PM 6.87 44.366 0.036 6.75 12.06 11.55
1/3/2023 6:30:00 PM 6.87 44.366 0.036 6.72 11.39 11.54
1/3/2023 6:45:00 PM 6.88 44.384 0.036 6.72 11.85 11.53
1/3/2023 7:00:00 PM 6.91 44.438 0.036 6.71 11.19 11.53
1/3/2023 7:15:00 PM 6.93 44.474 0.036 6.74 10.93 11.52
1/3/2023 7:30:00 PM 6.95 44.51 0.036 6.77 11.29 11.52
1/3/2023 7:45:00 PM 6.96 44.528 0.036 6.75 11.9 11.52
1/3/2023 8:00:00 PM 6.98 44.564 0.035 6.75 11.99 11.51
1/3/2023 8:15:00 PM 7.01 44.618 0.035 6.76 11.74 11.5
1/3/2023 8:30:00 PM 7.03 44.654 0.035 6.77 9.66 11.5
1/3/2023 8:45:00 PM 7.06 44.708 0.035 6.76 9.28 11.49
1/3/2023 9:00:00 PM 7.08 44.744 0.035 6.77 9.21 11.48
1/3/2023 9:15:00 PM 7.11 44.798 0.035 6.75 8.29 11.48
1/3/2023 9:30:00 PM 7.13 44.834 0.035 6.8 8.11 11.47
1/3/2023 9:45:00 PM 7.15 44.87 0.035 6.75 8.69 11.47
1/3/2023 10:00:00 PM 7.16 44.888 0.035 6.72 7.96 11.47
1/3/2023 10:15:00 PM 7.17 44.906 0.035 6.69 8.15 11.46
1/3/2023 10:30:00 PM 7.19 44.942 0.035 6.72 7.58 11.46
1/3/2023 10:45:00 PM 7.2 44.96 0.035 6.74 7.71 11.45
1/3/2023 11:00:00 PM 7.22 44.996 0.034 6.74 7.73 11.45
1/3/2023 11:15:00 PM 7.23 45.014 0.034 6.72 7.59 11.44
1/3/2023 11:30:00 PM 7.25 45.05 0.034 6.74 7.85 11.44
1/3/2023 11:45:00 PM 7.26 45.068 0.035 6.74 7.52 11.44
1/4/2023 12:00:00 AM 7.27 45.086 0.035 6.74 7.77 11.44
1/4/2023 12:15:00 AM 7.29 45.122 0.035 6.75 7.61 11.43
1/4/2023 12:30:00 AM 7.3 45.14 0.035 6.74 8.05 11.43
1/4/2023 12:45:00 AM 7.32 45.176 0.035 6.75 8.08 11.42
1/4/2023 1:00:00 AM 7.34 45.212 0.035 6.75 7.68 11.42
1/4/2023 1:15:00 AM 7.35 45.23 0.035 6.74 7.48 11.42
1/4/2023 1:30:00 AM 7.36 45.248 0.035 6.74 7.23 11.41
1/4/2023 1:45:00 AM 7.37 45.266 0.035 6.74 7.67 11.41
1/4/2023 2:00:00 AM 7.38 45.284 0.034 6.75 24.03 11.41
1/4/2023 2:15:00 AM 7.39 45.302 0.034 6.75 7.07 11.41
1/4/2023 2:30:00 AM 7.39 45.302 0.034 6.75 6.59 11.41
1/4/2023 2:45:00 AM 7.38 45.284 0.034 6.75 7.22 11.42
1/4/2023 3:00:00 AM 7.38 45.284 0.034 6.75 7.01 11.42
1/4/2023 3:15:00 AM 7.39 45.302 0.034 6.73 7.24 11.41
1/4/2023 3:30:00 AM 7.4 45.32 0.034 6.75 8.5 11.41
1/4/2023 3:45:00 AM 7.4 45.32 0.034 6.75 6.88 11.41
1/4/2023 4:00:00 AM 7.4 45.32 0.034 6.72 6.9 11.41
1/4/2023 4:15:00 AM 7.41 45.338 0.034 6.73 6.73 11.41
1/4/2023 4:30:00 AM 7.41 45.338 0.034 6.74 7.19 11.41
1/4/2023 4:45:00 AM 7.41 45.338 0.034 6.74 20.96 11.41
1/4/2023 5:00:00 AM 7.42 45.356 0.034 6.72 11.62 11.41
1/4/2023 5:15:00 AM 7.42 45.356 0.034 6.71 10.92 11.41
1/4/2023 5:30:00 AM 7.42 45.356 0.034 6.71 9.78 11.42
1/4/2023 5:45:00 AM 7.43 45.374 0.034 6.7 9.26 11.42
1/4/2023 6:00:00 AM 7.43 45.374 0.034 6.77 7.12 11.42
1/4/2023 6:15:00 AM 7.43 45.374 0.034 6.72 6.41 11.41
1/4/2023 6:30:00 AM 7.43 45.374 0.034 6.72 6.62 11.42
1/4/2023 6:45:00 AM 7.43 45.374 0.034 6.71 6.63 11.42
1/4/2023 7:00:00 AM 7.43 45.374 0.034 6.72 6.58 11.42
1/4/2023 7:15:00 AM 7.43 45.374 0.034 6.72 7.29 11.42
1/4/2023 7:30:00 AM 7.44 45.392 0.034 6.72 7.41 11.42
1/4/2023 7:45:00 AM 7.44 45.392 0.034 6.72 7.08 11.42
1/4/2023 8:00:00 AM 7.44 45.392 0.034 6.72 7.16 11.42
1/4/2023 8:15:00 AM 7.44 45.392 0.034 6.72 18.42 11.43
1/4/2023 8:30:00 AM 7.45 45.41 0.034 6.72 75.87 11.43
1/4/2023 8:45:00 AM 7.45 45.41 0.034 6.73 58.5 11.45
1/4/2023 9:00:00 AM 7.46 45.428 0.034 6.73 6.6 11.48
1/4/2023 9:15:00 AM 7.47 45.446 0.034 6.73 5.84 11.5
1/4/2023 9:30:00 AM 7.49 45.482 0.034 6.74 6.63 11.51
1/4/2023 9:45:00 AM 7.52 45.536 0.034 6.76 6.67 11.53
1/4/2023 10:00:00 AM 7.55 45.59 0.034 6.77 7.15 11.54
1/4/2023 10:15:00 AM 7.59 45.662 0.034 6.78 7.99 11.53
1/4/2023 10:30:00 AM 7.62 45.716 0.034 6.79 7.72 11.52
1/4/2023 10:45:00 AM 7.65 45.77 0.034 6.8 7.21 11.52
1/4/2023 11:00:00 AM 7.69 45.842 0.034 6.8 7.92 11.51
1/4/2023 11:15:00 AM 7.73 45.914 0.033 6.81 6.99 11.49
1/4/2023 11:30:00 AM 7.76 45.968 0.033 6.81 7.1 11.49
1/4/2023 11:45:00 AM 7.78 46.004 0.033 6.81 6.7 11.48
1/4/2023 12:00:00 PM 7.82 46.076 0.033 6.8 7.14 11.47
1/4/2023 12:15:00 PM 7.87 46.166 0.033 6.82 1378.75 11.46
1/4/2023 12:30:00 PM 7.9 46.22 0.033 6.82 6.35 11.44
1/4/2023 12:45:00 PM 7.93 46.274 0.033 6.82 8.12 11.42
1/4/2023 1:00:00 PM 7.96 46.328 0.033 6.82 7 11.42
1/4/2023 1:15:00 PM 7.99 46.382 0.033 6.83 6.52 11.4
1/4/2023 1:30:00 PM 8 46.4 0.033 6.83 5.79 11.38
1/4/2023 1:45:00 PM 8.01 46.418 0.033 6.82 6.02 11.35
1/4/2023 2:00:00 PM 8.02 46.436 0.033 6.82 6.06 11.33
1/4/2023 2:15:00 PM 8.03 46.454 0.033 6.8 12.13 11.32
1/4/2023 2:30:00 PM 8.04 46.472 0.033 6.78 9.84 11.3
1/4/2023 2:45:00 PM 8.05 46.49 0.033 6.79 7.8 11.29
1/4/2023 3:00:00 PM 8.05 46.49 0.033 6.79 10.64 11.29
1/4/2023 3:15:00 PM 8.06 46.508 0.033 6.77 7.73 11.29
1/4/2023 3:30:00 PM 8.06 46.508 0.033 6.79 5.93 11.29
1/4/2023 3:45:00 PM 8.05 46.49 0.033 6.79 6.11 11.28
1/4/2023 4:00:00 PM 8.04 46.472 0.033 6.78 5.99 11.26
1/4/2023 4:15:00 PM 8.04 46.472 0.033 6.77 8.96 11.25
1/4/2023 4:30:00 PM 8.03 46.454 0.033 6.78 14.79 11.24
1/4/2023 4:45:00 PM 8.01 46.418 0.033 6.75 6.07 11.23
1/4/2023 5:00:00 PM 8.01 46.418 0.033 6.75 5.89 11.24
1/4/2023 5:15:00 PM 8 46.4 0.033 6.76 12.53 11.23
1/4/2023 5:30:00 PM 7.99 46.382 0.033 6.75 10.3 11.22
1/4/2023 5:45:00 PM 7.98 46.364 0.033 6.73 8.42 11.22
1/4/2023 6:00:00 PM 7.97 46.346 0.033 6.74 7.29 11.22
1/4/2023 6:15:00 PM 7.96 46.328 0.033 6.75 8.19 11.23
1/4/2023 6:30:00 PM 7.95 46.31 0.033 6.74 8.93 11.23
1/4/2023 6:45:00 PM 7.94 46.292 0.033 6.74 6.14 11.23
1/4/2023 7:00:00 PM 7.94 46.292 0.033 6.74 5.83 11.22
1/4/2023 7:15:00 PM 7.93 46.274 0.033 6.74 6.34 11.23
1/4/2023 7:30:00 PM 7.92 46.256 0.033 6.73 5.74 11.23
1/4/2023 7:45:00 PM 7.92 46.256 0.033 6.74 5.64 11.23
1/4/2023 8:00:00 PM 7.91 46.238 0.033 6.74 5.64 11.24
1/4/2023 8:15:00 PM 7.9 46.22 0.033 6.74 5.64 11.24
1/4/2023 8:30:00 PM 7.9 46.22 0.033 6.74 5.85 11.24
1/4/2023 8:45:00 PM 7.89 46.202 0.033 6.73 5.9 11.24
1/4/2023 9:00:00 PM 7.88 46.184 0.033 6.74 5.57 11.25
1/4/2023 9:15:00 PM 7.87 46.166 0.033 6.73 5.76 11.25
1/4/2023 9:30:00 PM 7.87 46.166 0.033 6.73 5.74 11.26
1/4/2023 9:45:00 PM 7.86 46.148 0.033 6.73 5.64 11.25
1/4/2023 10:00:00 PM 7.85 46.13 0.033 6.73 5.73 11.26
1/4/2023 10:15:00 PM 7.86 46.148 0.033 6.73 5.73 11.25
1/4/2023 10:30:00 PM 7.86 46.148 0.033 6.74 6.06 11.26
1/4/2023 10:45:00 PM 7.86 46.148 0.033 6.74 7.35 11.26
1/4/2023 11:00:00 PM 7.85 46.13 0.033 6.74 8.13 11.27
1/4/2023 11:15:00 PM 7.85 46.13 0.033 6.75 47.88 11.27
1/4/2023 11:30:00 PM 7.86 46.148 0.033 6.75 17.28 11.27
1/4/2023 11:45:00 PM 7.86 46.148 0.033 6.75 25.63 11.28
1/5/2023 12:00:00 AM 7.84 46.112 0.033 6.75 39.77 11.28
1/5/2023 12:15:00 AM 7.83 46.094 0.033 6.75 8.14 11.29
1/5/2023 12:30:00 AM 7.82 46.076 0.033 6.74 5.44 11.3
1/5/2023 12:45:00 AM 7.8 46.04 0.033 6.75 5.64 11.3
1/5/2023 1:00:00 AM 7.77 45.986 0.033 6.75 5.46 11.32
1/5/2023 1:15:00 AM 7.73 45.914 0.033 6.75 12.79 11.32
1/5/2023 1:30:00 AM 7.69 45.842 0.033 6.75 6.54 11.34
1/5/2023 1:45:00 AM 7.64 45.752 0.033 6.74 12.42 11.35
1/5/2023 2:00:00 AM 7.59 45.662 0.033 6.74 10.83 11.36
1/5/2023 2:15:00 AM 7.55 45.59 0.033 6.72 11.25 11.38
1/5/2023 2:30:00 AM 7.49 45.482 0.033 6.76 10.44 11.4
1/5/2023 2:45:00 AM 7.44 45.392 0.033 6.75 5.64 11.41
1/5/2023 3:00:00 AM 7.38 45.284 0.033 6.72 5.44 11.43
1/5/2023 3:15:00 AM 7.33 45.194 0.033 6.73 5.59 11.44
1/5/2023 3:30:00 AM 7.28 45.104 0.033 6.76 24.59 11.46
1/5/2023 3:45:00 AM 7.23 45.014 0.033 6.75 23.94 11.48
1/5/2023 4:00:00 AM 7.19 44.942 0.033 6.74 47.98 11.5
1/5/2023 4:15:00 AM 7.15 44.87 0.033 6.75 39.76 11.51
1/5/2023 4:30:00 AM 7.1 44.78 0.033 6.74 3.99 11.52
1/5/2023 4:45:00 AM 7.07 44.726 0.033 6.75 3.93 11.54
1/5/2023 5:00:00 AM 7.03 44.654 0.033 6.74 3.9 11.55
1/5/2023 5:15:00 AM 6.99 44.582 0.033 6.74 3.94 11.56
1/5/2023 5:30:00 AM 6.96 44.528 0.033 6.74 3.88 11.58
1/5/2023 5:45:00 AM 6.92 44.456 0.033 6.73 4.06 11.59
1/5/2023 6:00:00 AM 6.89 44.402 0.033 6.73 3.92 11.6
1/5/2023 6:15:00 AM 6.87 44.366 0.033 6.71 3.83 11.61
1/5/2023 6:30:00 AM 6.84 44.312 0.033 6.71 3.97 11.62
1/5/2023 6:45:00 AM 6.82 44.276 0.034 6.71 3.78 11.62
1/5/2023 7:00:00 AM 6.79 44.222 0.034 6.7 3.96 11.63
1/5/2023 7:15:00 AM 6.76 44.168 0.034 6.69 9.7 11.65
1/5/2023 7:30:00 AM 6.74 44.132 0.034 6.7 4.2 11.65
1/5/2023 7:45:00 AM 6.72 44.096 0.034 6.7 3.77 11.66
1/5/2023 8:00:00 AM 6.7 44.06 0.034 6.7 7.47 11.68
1/5/2023 8:15:00 AM 6.68 44.024 0.033 6.72 12.1 11.71
1/5/2023 8:30:00 AM 6.67 44.006 0.033 6.73 3.49 11.74
1/5/2023 8:45:00 AM 6.67 44.006 0.033 6.78 4.99 11.77
1/5/2023 9:00:00 AM 6.68 44.024 0.033 6.75 3.69 11.79
1/5/2023 9:15:00 AM 6.7 44.06 0.033 6.77 4.06 11.81
1/5/2023 9:30:00 AM 6.71 44.078 0.033 6.78 3.27 11.81
1/5/2023 9:45:00 AM 6.72 44.096 0.033 6.79 3.25 11.82
1/5/2023 10:00:00 AM 6.74 44.132 0.033 6.8 3.31 11.83
1/5/2023 10:15:00 AM 6.77 44.186 0.033 6.8 3.4 11.83
1/5/2023 10:30:00 AM 6.79 44.222 0.033 6.8 3.39 11.83
1/5/2023 10:45:00 AM 6.82 44.276 0.033 6.81 3.52 11.83
1/5/2023 11:00:00 AM 6.84 44.312 0.033 6.8 3.45 11.82
1/5/2023 11:15:00 AM 6.86 44.348 0.033 6.81 3.51 11.81
1/5/2023 11:30:00 AM 6.91 44.438 0.033 6.82 3.25 11.81
1/5/2023 11:45:00 AM 6.95 44.51 0.033 6.81 3.31 11.8
1/5/2023 12:00:00 PM 6.97 44.546 0.033 6.82 3.25 11.79
1/5/2023 12:15:00 PM 6.99 44.582 0.033 6.82 3.43 11.79
1/5/2023 12:30:00 PM 7.02 44.636 0.033 6.81 3.36 11.78
1/5/2023 12:45:00 PM 7.05 44.69 0.033 6.82 3.77 11.77
1/5/2023 1:00:00 PM 7.11 44.798 0.033 6.83 3.46 11.76
1/5/2023 1:15:00 PM 7.14 44.852 0.033 6.84 3.56 11.74
1/5/2023 1:30:00 PM 7.19 44.942 0.033 6.85 3.81 11.74
1/5/2023 1:45:00 PM 7.22 44.996 0.033 6.81 4.19 11.71
1/5/2023 2:00:00 PM 7.2 44.96 0.033 6.81 4.89 11.7
1/5/2023 2:15:00 PM 7.17 44.906 0.033 6.79 9.73 11.7
1/5/2023 2:30:00 PM 7.17 44.906 0.033 6.81 3.39 11.69
1/5/2023 2:45:00 PM 7.17 44.906 0.033 6.83 3.45 11.69
1/5/2023 3:00:00 PM 7.19 44.942 0.033 6.83 3.43 11.69
1/5/2023 3:15:00 PM 7.19 44.942 0.033 6.83 3.32 11.69
1/5/2023 3:30:00 PM 7.19 44.942 0.033 6.82 3.39 11.69
1/5/2023 3:45:00 PM 7.17 44.906 0.033 6.82 3.6 11.67
1/5/2023 4:00:00 PM 7.15 44.87 0.033 6.82 3.43 11.67
1/5/2023 4:15:00 PM 7.13 44.834 0.033 6.82 3.39 11.66
1/5/2023 4:30:00 PM 7.12 44.816 0.033 6.81 3.44 11.64
1/5/2023 4:45:00 PM 7.09 44.762 0.033 6.8 3.59 11.63
1/5/2023 5:00:00 PM 7.07 44.726 0.033 6.8 3.59 11.61
1/5/2023 5:15:00 PM 7.03 44.654 0.033 6.78 3.47 11.6
1/5/2023 5:30:00 PM 6.99 44.582 0.034 6.77 3.58 11.59
1/5/2023 5:45:00 PM 6.94 44.492 0.034 6.77 3.63 11.6
1/5/2023 6:00:00 PM 6.9 44.42 0.034 6.77 3.6 11.6
1/5/2023 6:15:00 PM 6.86 44.348 0.034 6.75 3.84 11.61
1/5/2023 6:30:00 PM 6.82 44.276 0.034 6.77 3.69 11.62
1/5/2023 6:45:00 PM 6.78 44.204 0.034 6.76 3.63 11.63
1/5/2023 7:00:00 PM 6.74 44.132 0.034 6.76 3.76 11.65
1/5/2023 7:15:00 PM 6.7 44.06 0.034 6.77 3.66 11.65
1/5/2023 7:30:00 PM 6.66 43.988 0.034 6.76 3.82 11.67
1/5/2023 7:45:00 PM 6.62 43.916 0.034 6.76 3.9 11.68
1/5/2023 8:00:00 PM 6.57 43.826 0.034 6.75 3.86 11.7
1/5/2023 8:15:00 PM 6.51 43.718 0.034 6.74 3.84 11.71
1/5/2023 8:30:00 PM 6.46 43.628 0.034 6.75 3.79 11.73
1/5/2023 8:45:00 PM 6.41 43.538 0.034 6.75 3.77 11.74
1/5/2023 9:00:00 PM 6.36 43.448 0.034 6.73 3.67 11.76
1/5/2023 9:15:00 PM 6.31 43.358 0.034 6.73 3.67 11.77
1/5/2023 9:30:00 PM 6.26 43.268 0.034 6.73 3.98 11.79
1/5/2023 9:45:00 PM 6.22 43.196 0.034 6.73 3.78 11.8
1/5/2023 10:00:00 PM 6.17 43.106 0.034 6.73 3.75 11.82
1/5/2023 10:15:00 PM 6.13 43.034 0.034 6.74 3.94 11.83
1/5/2023 10:30:00 PM 6.09 42.962 0.034 6.74 3.69 11.85
1/5/2023 10:45:00 PM 6.06 42.908 0.034 6.74 3.72 11.86
1/5/2023 11:00:00 PM 6.03 42.854 0.034 6.74 3.81 11.87
1/5/2023 11:15:00 PM 6.01 42.818 0.034 6.74 3.7 11.88
1/5/2023 11:30:00 PM 5.99 42.782 0.034 6.74 3.88 11.88
1/5/2023 11:45:00 PM 5.97 42.746 0.034 6.75 3.85 11.89
1/6/2023 12:00:00 AM 5.95 42.71 0.034 6.75 3.82 11.9
1/6/2023 12:15:00 AM 5.93 42.674 0.034 6.75 3.82 11.9
1/6/2023 12:30:00 AM 5.9 42.62 0.034 6.75 3.79 11.91
1/6/2023 12:45:00 AM 5.87 42.566 0.034 6.75 3.9 11.91
1/6/2023 1:00:00 AM 5.85 42.53 0.034 6.75 3.73 11.92
1/6/2023 1:15:00 AM 5.84 42.512 0.034 6.75 4.02 11.92
1/6/2023 1:30:00 AM 5.82 42.476 0.034 6.75 3.74 11.93
1/6/2023 1:45:00 AM 5.81 42.458 0.034 6.75 3.59 11.93
1/6/2023 2:00:00 AM 5.8 42.44 0.034 6.76 3.52 11.93
1/6/2023 2:15:00 AM 5.79 42.422 0.034 6.76 3.69 11.94
1/6/2023 2:30:00 AM 5.78 42.404 0.034 6.76 3.6 11.95
1/6/2023 2:45:00 AM 5.78 42.404 0.034 6.76 3.69 11.95
1/6/2023 3:00:00 AM 5.77 42.386 0.034 6.76 3.67 11.95
1/6/2023 3:15:00 AM 5.77 42.386 0.034 6.76 3.7 11.95
1/6/2023 3:30:00 AM 5.77 42.386 0.034 6.76 3.63 11.95
1/6/2023 3:45:00 AM 5.77 42.386 0.034 6.76 3.81 11.96
1/6/2023 4:00:00 AM 5.76 42.368 0.034 6.76 3.65 11.95
1/6/2023 4:15:00 AM 5.76 42.368 0.034 6.75 3.71 11.96
1/6/2023 4:30:00 AM 5.74 42.332 0.034 6.76 3.65 11.96
1/6/2023 4:45:00 AM 5.73 42.314 0.034 6.75 3.57 11.96
1/6/2023 5:00:00 AM 5.73 42.314 0.034 6.75 3.74 11.96
1/6/2023 5:15:00 AM 5.71 42.278 0.034 6.76 3.79 11.97
1/6/2023 5:30:00 AM 5.69 42.242 0.034 6.75 3.7 11.97
1/6/2023 5:45:00 AM 5.68 42.224 0.034 6.76 3.74 11.97
1/6/2023 6:00:00 AM 5.65 42.17 0.034 6.75 3.64 11.98
1/6/2023 6:15:00 AM 5.62 42.116 0.034 6.75 3.85 11.99
1/6/2023 6:30:00 AM 5.6 42.08 0.034 6.75 3.84 12
1/6/2023 6:45:00 AM 5.58 42.044 0.034 6.75 3.64 12
1/6/2023 7:00:00 AM 5.57 42.026 0.034 6.74 3.64 12.01
1/6/2023 7:15:00 AM 5.57 42.026 0.034 6.75 3.72 12.01
1/6/2023 7:30:00 AM 5.57 42.026 0.034 6.75 3.47 12.02
1/6/2023 7:45:00 AM 5.58 42.044 0.034 6.75 3.52 12.02
1/6/2023 8:00:00 AM 5.59 42.062 0.034 6.74 3.86 12.03
1/6/2023 8:15:00 AM 5.6 42.08 0.034 6.75 3.75 12.04
1/6/2023 8:30:00 AM 5.61 42.098 0.034 6.76 3.72 12.04
1/6/2023 8:45:00 AM 5.63 42.134 0.034 6.77 3.39 12.05
1/6/2023 9:00:00 AM 5.64 42.152 0.034 6.78 3.4 12.06
1/6/2023 9:15:00 AM 5.65 42.17 0.034 6.77 3.35 12.09
1/6/2023 9:30:00 AM 5.67 42.206 0.034 6.78 3.58 12.11
1/6/2023 9:45:00 AM 5.69 42.242 0.034 6.79 3.86 12.12
1/6/2023 10:00:00 AM 5.71 42.278 0.034 6.8 4.48 12.13
1/6/2023 10:15:00 AM 5.72 42.296 0.034 6.81 4.33 12.13
1/6/2023 10:30:00 AM 5.72 42.296 0.034 6.81 3.97 12.13
1/6/2023 10:45:00 AM 5.73 42.314 0.034 6.83 64.46 12.15
1/6/2023 11:00:00 AM 5.77 42.386 0.034 6.83 8.13 12.16
1/6/2023 11:15:00 AM 5.82 42.476 0.034 6.83 7.82 12.16
1/6/2023 11:30:00 AM 5.87 42.566 0.034 6.84 5.01 12.16
1/6/2023 11:45:00 AM 5.91 42.638 0.034 6.85 6 12.16
1/6/2023 12:00:00 PM 5.96 42.728 0.034 6.85 3.55 12.15
1/6/2023 12:15:00 PM 6 42.8 0.034 6.85 3.33 12.14
1/6/2023 12:30:00 PM 6.04 42.872 0.034 6.86 3.52 12.13
1/6/2023 12:45:00 PM 6.08 42.944 0.034 6.85 4.31 12.12
1/6/2023 1:00:00 PM 6.09 42.962 0.034 6.86 5.98 12.1
1/6/2023 1:15:00 PM 6.1 42.98 0.034 6.85 5.89 12.09
1/6/2023 1:30:00 PM 6.11 42.998 0.034 6.85 5.05 12.08
1/6/2023 1:45:00 PM 6.13 43.034 0.034 6.87 3.27 12.08
1/6/2023 2:00:00 PM 6.17 43.106 0.034 6.87 3.44 12.08
1/6/2023 2:15:00 PM 6.21 43.178 0.034 6.87 3.34 12.07
1/6/2023 2:30:00 PM 6.24 43.232 0.034 6.87 3.44 12.06
1/6/2023 2:45:00 PM 6.22 43.196 0.034 6.86 4.66 12.06
1/6/2023 3:00:00 PM 6.21 43.178 0.034 6.87 7.64 12.03
1/6/2023 3:15:00 PM 6.2 43.16 0.034 6.85 6.13 12.03
1/6/2023 3:30:00 PM 6.17 43.106 0.034 6.86 9.4 12.02
1/6/2023 3:45:00 PM 6.14 43.052 0.034 6.84 1936.99 12.01
1/6/2023 4:00:00 PM 6.1 42.98 0.034 6.85 8.86 11.99
1/6/2023 4:15:00 PM 6.07 42.926 0.034 6.83 6.96 11.99
1/6/2023 4:30:00 PM 6.05 42.89 0.034 6.83 3.29 11.98
1/6/2023 4:45:00 PM 6.03 42.854 0.034 6.83 3.09 11.97
1/6/2023 5:00:00 PM 6.01 42.818 0.034 6.82 4.28 11.96
1/6/2023 5:15:00 PM 5.99 42.782 0.034 6.81 3.18 11.95
1/6/2023 5:30:00 PM 5.97 42.746 0.034 6.81 3.09 11.95
1/6/2023 5:45:00 PM 5.96 42.728 0.034 6.8 3.1 11.95
1/6/2023 6:00:00 PM 5.94 42.692 0.034 6.8 3.11 11.95
1/6/2023 6:15:00 PM 5.91 42.638 0.034 6.8 3.2 11.96
1/6/2023 6:30:00 PM 5.86 42.548 0.034 6.81 3.14 11.97
1/6/2023 6:45:00 PM 5.75 42.35 0.034 6.79 3.46 11.99
1/6/2023 7:00:00 PM 5.72 42.296 0.034 6.79 3.12 12.01
1/6/2023 7:15:00 PM 5.72 42.296 0.034 6.79 3.32 12.03
1/6/2023 7:30:00 PM 5.71 42.278 0.034 6.79 3.18 12.04
1/6/2023 7:45:00 PM 5.68 42.224 0.034 6.79 3.1 12.05
1/6/2023 8:00:00 PM 5.67 42.206 0.034 6.79 3.05 12.06
1/6/2023 8:15:00 PM 5.66 42.188 0.034 6.79 3.25 12.06
1/6/2023 8:30:00 PM 5.64 42.152 0.034 6.79 3.35 12.07
1/6/2023 8:45:00 PM 5.62 42.116 0.034 6.79 3.29 12.07
1/6/2023 9:00:00 PM 5.6 42.08 0.034 6.79 3.16 12.08
1/6/2023 9:15:00 PM 5.59 42.062 0.034 6.78 3.33 12.08
1/6/2023 9:30:00 PM 5.57 42.026 0.034 6.79 3.16 12.09
1/6/2023 9:45:00 PM 5.55 41.99 0.034 6.79 3.35 12.1
1/6/2023 10:00:00 PM 5.53 41.954 0.034 6.78 3.25 12.1
1/6/2023 10:15:00 PM 5.53 41.954 0.034 6.78 4.32 12.11
1/6/2023 10:30:00 PM 5.53 41.954 0.034 6.79 3.22 12.11
1/6/2023 10:45:00 PM 5.53 41.954 0.034 6.79 3.2 12.11
1/6/2023 11:00:00 PM 5.53 41.954 0.034 6.78 3.11 12.11
1/6/2023 11:15:00 PM 5.53 41.954 0.034 6.79 3.31 12.11
1/6/2023 11:30:00 PM 5.53 41.954 0.034 6.79 3.29 12.11
1/6/2023 11:45:00 PM 5.53 41.954 0.035 6.79 3.32 12.1
1/7/2023 12:00:00 AM 5.52 41.936 0.035 6.79 3.3 12.1
1/7/2023 12:15:00 AM 5.52 41.936 0.035 6.78 3.31 12.11
1/7/2023 12:30:00 AM 5.52 41.936 0.035 6.78 3.08 12.11
1/7/2023 12:45:00 AM 5.51 41.918 0.035 6.79 3.19 12.1
1/7/2023 1:00:00 AM 5.51 41.918 0.035 6.79 3.3 12.11
1/7/2023 1:15:00 AM 5.5 41.9 0.035 6.79 3.07 12.11
1/7/2023 1:30:00 AM 5.49 41.882 0.035 6.79 3.17 12.11
1/7/2023 1:45:00 AM 5.49 41.882 0.035 6.78 3.09 12.12
1/7/2023 2:00:00 AM 5.48 41.864 0.035 6.79 3.23 12.11
1/7/2023 2:15:00 AM 5.46 41.828 0.035 6.79 9.91 12.12
1/7/2023 2:30:00 AM 5.46 41.828 0.034 6.79 2.9 12.12
1/7/2023 2:45:00 AM 5.46 41.828 0.035 6.78 3.13 12.12
1/7/2023 3:00:00 AM 5.46 41.828 0.035 6.79 3.21 12.12
1/7/2023 3:15:00 AM 5.46 41.828 0.035 6.79 3.06 12.12
1/7/2023 3:30:00 AM 5.46 41.828 0.035 6.79 2.96 12.12
1/7/2023 3:45:00 AM 5.46 41.828 0.035 6.79 3.07 12.12
1/7/2023 4:00:00 AM 5.45 41.81 0.035 6.79 3.03 12.13
1/7/2023 4:15:00 AM 5.45 41.81 0.035 6.8 2.96 12.12
1/7/2023 4:30:00 AM 5.45 41.81 0.035 6.8 3.02 12.12
1/7/2023 4:45:00 AM 5.45 41.81 0.035 6.8 3.13 12.13
1/7/2023 5:00:00 AM 5.45 41.81 0.035 6.8 3.01 12.13
1/7/2023 5:15:00 AM 5.45 41.81 0.035 6.79 3.12 12.13
1/7/2023 5:30:00 AM 5.45 41.81 0.035 6.8 3.02 12.13
1/7/2023 5:45:00 AM 5.45 41.81 0.035 6.79 3.19 12.13
1/7/2023 6:00:00 AM 5.45 41.81 0.035 6.8 3.29 12.13
1/7/2023 6:15:00 AM 5.45 41.81 0.035 6.79 3.06 12.12
1/7/2023 6:30:00 AM 5.45 41.81 0.035 6.8 3.04 12.13
1/7/2023 6:45:00 AM 5.45 41.81 0.035 6.8 3 12.13
1/7/2023 7:00:00 AM 5.44 41.792 0.034 6.79 2.99 12.14
1/7/2023 7:15:00 AM 5.44 41.792 0.035 6.79 3 12.14
1/7/2023 7:30:00 AM 5.44 41.792 0.035 6.79 2.95 12.14
1/7/2023 7:45:00 AM 5.44 41.792 0.035 6.78 2.98 12.14
1/7/2023 8:00:00 AM 5.44 41.792 0.035 6.78 2.81 12.15
1/7/2023 8:15:00 AM 5.44 41.792 0.035 6.8 2.81 12.17
1/7/2023 8:30:00 AM 5.44 41.792 0.035 6.79 2.84 12.18
1/7/2023 8:45:00 AM 5.45 41.81 0.035 6.8 2.91 12.21
1/7/2023 9:00:00 AM 5.46 41.828 0.035 6.81 2.72 12.23
1/7/2023 9:15:00 AM 5.47 41.846 0.035 6.82 2.8 12.26
1/7/2023 9:30:00 AM 5.48 41.864 0.035 6.83 2.78 12.27
1/7/2023 9:45:00 AM 5.5 41.9 0.035 6.84 2.83 12.28
1/7/2023 10:00:00 AM 5.52 41.936 0.035 6.84 2.75 12.29
1/7/2023 10:15:00 AM 5.53 41.954 0.034 6.85 2.78 12.29
1/7/2023 10:30:00 AM 5.55 41.99 0.034 6.85 2.7 12.3
1/7/2023 10:45:00 AM 5.57 42.026 0.034 6.85 2.7 12.3
1/7/2023 11:00:00 AM 5.59 42.062 0.034 6.86 2.93 12.31
1/7/2023 11:15:00 AM 5.61 42.098 0.034 6.87 2.81 12.3
1/7/2023 11:30:00 AM 5.63 42.134 0.034 6.88 2.77 12.3
1/7/2023 11:45:00 AM 5.65 42.17 0.034 6.88 2.9 12.29
1/7/2023 12:00:00 PM 5.67 42.206 0.034 6.88 2.8 12.3
1/7/2023 12:15:00 PM 5.68 42.224 0.034 6.89 2.7 12.29
1/7/2023 12:30:00 PM 5.7 42.26 0.034 6.89 2.69 12.28
1/7/2023 12:45:00 PM 5.72 42.296 0.034 6.89 2.68 12.28
1/7/2023 1:00:00 PM 5.74 42.332 0.034 6.88 2.82 12.27
1/7/2023 1:15:00 PM 5.76 42.368 0.034 6.9 2.8 12.28
1/7/2023 1:30:00 PM 5.78 42.404 0.034 6.89 2.96 12.27
1/7/2023 1:45:00 PM 5.8 42.44 0.034 6.9 3.13 12.27
1/7/2023 2:00:00 PM 5.82 42.476 0.034 6.89 3.24 12.25
1/7/2023 2:15:00 PM 5.83 42.494 0.034 6.89 4.2 12.25
1/7/2023 2:30:00 PM 5.85 42.53 0.034 6.89 2.78 12.24
1/7/2023 2:45:00 PM 5.85 42.53 0.034 6.9 3.54 12.24
1/7/2023 3:00:00 PM 5.86 42.548 0.034 6.89 3.49 12.23
1/7/2023 3:15:00 PM 5.86 42.548 0.034 6.89 4.55 12.22
1/7/2023 3:30:00 PM 5.81 42.458 0.034 6.88 12.54 12.18
1/7/2023 3:45:00 PM 5.79 42.422 0.034 6.88 4.04 12.17
1/7/2023 4:00:00 PM 5.78 42.404 0.034 6.87 3.74 12.17
1/7/2023 4:15:00 PM 5.77 42.386 0.034 6.87 5.35 12.17
1/7/2023 4:30:00 PM 5.77 42.386 0.034 6.87 3.83 12.16
1/7/2023 4:45:00 PM 5.76 42.368 0.035 6.87 3.76 12.15
1/7/2023 5:00:00 PM 5.75 42.35 0.035 6.86 4.81 12.13
1/7/2023 5:15:00 PM 5.74 42.332 0.035 6.85 2.9 12.12
1/7/2023 5:30:00 PM 5.72 42.296 0.034 6.85 2.84 12.1
1/7/2023 5:45:00 PM 5.71 42.278 0.035 6.85 2.93 12.1
1/7/2023 6:00:00 PM 5.7 42.26 0.035 6.84 2.87 12.1
1/7/2023 6:15:00 PM 5.69 42.242 0.035 6.85 2.95 12.1
1/7/2023 6:30:00 PM 5.66 42.188 0.035 6.85 3.01 12.11
1/7/2023 6:45:00 PM 5.65 42.17 0.035 6.85 3.13 12.11
1/7/2023 7:00:00 PM 5.64 42.152 0.035 6.85 2.96 12.11
1/7/2023 7:15:00 PM 5.6 42.08 0.035 6.85 2.97 12.12
1/7/2023 7:30:00 PM 5.57 42.026 0.035 6.84 2.93 12.14
1/7/2023 7:45:00 PM 5.56 42.008 0.035 6.85 2.85 12.15
1/7/2023 8:00:00 PM 5.54 41.972 0.035 6.85 3.04 12.15
1/7/2023 8:15:00 PM 5.52 41.936 0.035 6.84 3 12.16
1/7/2023 8:30:00 PM 5.5 41.9 0.035 6.83 2.98 12.16
1/7/2023 8:45:00 PM 5.48 41.864 0.035 6.83 3.02 12.18
1/7/2023 9:00:00 PM 5.45 41.81 0.035 6.85 2.99 12.19
1/7/2023 9:15:00 PM 5.44 41.792 0.035 6.85 3.04 12.19
1/7/2023 9:30:00 PM 5.42 41.756 0.035 6.84 2.93 12.2
1/7/2023 9:45:00 PM 5.41 41.738 0.035 6.83 3.09 12.21
1/7/2023 10:00:00 PM 5.39 41.702 0.035 6.84 3.2 12.22
1/7/2023 10:15:00 PM 5.37 41.666 0.035 6.84 2.99 12.22
1/7/2023 10:30:00 PM 5.36 41.648 0.035 6.84 2.96 12.22
1/7/2023 10:45:00 PM 5.35 41.63 0.035 6.83 3.08 12.23
1/7/2023 11:00:00 PM 5.33 41.594 0.035 6.83 3.08 12.24
1/7/2023 11:15:00 PM 5.31 41.558 0.035 6.84 3.03 12.24
1/7/2023 11:30:00 PM 5.3 41.54 0.035 6.83 2.99 12.24
1/7/2023 11:45:00 PM 5.29 41.522 0.035 6.83 2.92 12.25
1/8/2023 12:00:00 AM 5.28 41.504 0.035 6.83 3 12.25
1/8/2023 12:15:00 AM 5.27 41.486 0.035 6.84 2.96 12.25
1/8/2023 12:30:00 AM 5.26 41.468 0.035 6.83 2.94 12.26
1/8/2023 12:45:00 AM 5.25 41.45 0.035 6.83 3.1 12.26
1/8/2023 1:00:00 AM 5.24 41.432 0.035 6.83 3.1 12.26
1/8/2023 1:15:00 AM 5.23 41.414 0.035 6.84 3.16 12.27
1/8/2023 1:30:00 AM 5.22 41.396 0.035 6.84 2.98 12.27
1/8/2023 1:45:00 AM 5.2 41.36 0.035 6.83 3.2 12.27
1/8/2023 2:00:00 AM 5.19 41.342 0.035 6.83 2.95 12.27
1/8/2023 2:15:00 AM 5.17 41.306 0.035 6.84 3.42 12.28
1/8/2023 2:30:00 AM 5.16 41.288 0.035 6.84 3.06 12.29
1/8/2023 2:45:00 AM 5.15 41.27 0.035 6.83 2.95 12.29
1/8/2023 3:00:00 AM 5.13 41.234 0.035 6.82 2.94 12.3
1/8/2023 3:15:00 AM 5.12 41.216 0.035 6.83 3.05 12.3
1/8/2023 3:30:00 AM 5.12 41.216 0.035 6.83 2.99 12.31
1/8/2023 3:45:00 AM 5.11 41.198 0.035 6.83 2.98 12.31
1/8/2023 4:00:00 AM 5.1 41.18 0.035 6.83 2.98 12.31
1/8/2023 4:15:00 AM 5.09 41.162 0.035 6.83 3.07 12.31
1/8/2023 4:30:00 AM 5.08 41.144 0.035 6.84 3.04 12.31
1/8/2023 4:45:00 AM 5.06 41.108 0.035 6.84 3.11 12.32
1/8/2023 5:00:00 AM 5.05 41.09 0.035 6.83 3.01 12.32
1/8/2023 5:15:00 AM 5.04 41.072 0.035 6.83 3.12 12.32
1/8/2023 5:30:00 AM 5.03 41.054 0.035 6.84 2.89 12.32
1/8/2023 5:45:00 AM 5.02 41.036 0.035 6.84 2.97 12.33
1/8/2023 6:00:00 AM 5 41 0.035 6.84 2.97 12.34
1/8/2023 6:15:00 AM 4.99 40.982 0.035 6.84 3.02 12.34
1/8/2023 6:30:00 AM 4.97 40.946 0.035 6.83 3.03 12.34
1/8/2023 6:45:00 AM 4.96 40.928 0.035 6.83 3.04 12.35
1/8/2023 7:00:00 AM 4.94 40.892 0.035 6.82 2.91 12.36
1/8/2023 7:15:00 AM 4.93 40.874 0.035 6.82 3.2 12.36
1/8/2023 7:30:00 AM 4.91 40.838 0.035 6.83 2.91 12.37
1/8/2023 7:45:00 AM 4.9 40.82 0.035 6.83 3.06 12.38
1/8/2023 8:00:00 AM 4.89 40.802 0.035 6.83 3.05 12.39
1/8/2023 8:15:00 AM 4.88 40.784 0.035 6.83 2.95 12.41
1/8/2023 8:30:00 AM 4.87 40.766 0.035 6.84 2.86 12.42
1/8/2023 8:45:00 AM 4.86 40.748 0.035 6.84 2.92 12.45
1/8/2023 9:00:00 AM 4.86 40.748 0.035 6.85 2.94 12.47
1/8/2023 9:15:00 AM 4.86 40.748 0.035 6.86 2.86 12.5
1/8/2023 9:30:00 AM 4.86 40.748 0.035 6.86 3.17 12.52
1/8/2023 9:45:00 AM 4.87 40.766 0.035 6.87 2.95 12.55
1/8/2023 10:00:00 AM 4.88 40.784 0.035 6.88 2.9 12.57
1/8/2023 10:15:00 AM 4.9 40.82 0.035 6.9 2.95 12.58
1/8/2023 10:30:00 AM 4.92 40.856 0.035 6.89 2.77 12.59
1/8/2023 10:45:00 AM 4.95 40.91 0.035 6.9 2.75 12.59
1/8/2023 11:00:00 AM 4.96 40.928 0.035 6.9 2.74 12.59
1/8/2023 11:15:00 AM 4.98 40.964 0.035 6.91 2.67 12.59
1/8/2023 11:30:00 AM 5.01 41.018 0.035 6.91 2.74 12.59
1/8/2023 11:45:00 AM 5.06 41.108 0.035 6.92 2.84 12.58
1/8/2023 12:00:00 PM 5.11 41.198 0.035 6.92 2.85 12.57
1/8/2023 12:15:00 PM 5.14 41.252 0.035 6.92 2.79 12.55
1/8/2023 12:30:00 PM 5.19 41.342 0.035 6.92 2.67 12.54
1/8/2023 12:45:00 PM 5.22 41.396 0.035 6.93 2.83 12.52
1/8/2023 1:00:00 PM 5.26 41.468 0.035 6.93 2.73 12.51
1/8/2023 1:15:00 PM 5.29 41.522 0.035 6.93 2.83 12.48
1/8/2023 1:30:00 PM 5.33 41.594 0.035 6.93 2.74 12.47
1/8/2023 1:45:00 PM 5.32 41.576 0.035 6.93 2.95 12.46
1/8/2023 2:00:00 PM 5.33 41.594 0.035 6.93 2.76 12.43
1/8/2023 2:15:00 PM 5.36 41.648 0.035 6.93 2.77 12.44
1/8/2023 2:30:00 PM 5.36 41.648 0.035 6.94 2.83 12.43
1/8/2023 2:45:00 PM 5.38 41.684 0.035 6.94 2.94 12.42
1/8/2023 3:00:00 PM 5.37 41.666 0.035 6.94 2.83 12.4
1/8/2023 3:15:00 PM 5.37 41.666 0.035 6.94 2.8 12.39
1/8/2023 3:30:00 PM 5.33 41.594 0.035 6.93 2.83 12.38
1/8/2023 3:45:00 PM 5.3 41.54 0.035 6.93 2.99 12.38
1/8/2023 4:00:00 PM 5.29 41.522 0.035 6.93 2.84 12.37
1/8/2023 4:15:00 PM 5.27 41.486 0.035 6.93 3.07 12.36
1/8/2023 4:30:00 PM 5.23 41.414 0.035 6.91 9.39 12.35
1/8/2023 4:45:00 PM 5.2 41.36 0.035 6.9 14.02 12.33
1/8/2023 5:00:00 PM 5.16 41.288 0.035 6.89 11.2 12.31
1/8/2023 5:15:00 PM 5.14 41.252 0.035 6.88 251.8 12.29
1/8/2023 5:30:00 PM 5.11 41.198 0.035 6.88 3.02 12.27
1/8/2023 5:45:00 PM 5.09 41.162 0.035 6.87 2.79 12.27
1/8/2023 6:00:00 PM 5.08 41.144 0.035 6.88 2.91 12.26
1/8/2023 6:15:00 PM 5.06 41.108 0.035 6.86 2.97 12.26
1/8/2023 6:30:00 PM 5.03 41.054 0.035 6.85 2.96 12.25
1/8/2023 6:45:00 PM 4.99 40.982 0.035 6.86 2.94 12.26
1/8/2023 7:00:00 PM 4.96 40.928 0.035 6.86 3.06 12.27
1/8/2023 7:15:00 PM 4.94 40.892 0.035 6.86 2.89 12.28
1/8/2023 7:30:00 PM 4.93 40.874 0.035 6.86 3.06 12.28
1/8/2023 7:45:00 PM 4.92 40.856 0.035 6.86 2.92 12.28
1/8/2023 8:00:00 PM 4.91 40.838 0.035 6.86 2.87 12.29
1/8/2023 8:15:00 PM 4.9 40.82 0.035 6.85 2.85 12.29
1/8/2023 8:30:00 PM 4.88 40.784 0.035 6.85 2.97 12.29
1/8/2023 8:45:00 PM 4.87 40.766 0.035 6.85 2.97 12.29
1/8/2023 9:00:00 PM 4.85 40.73 0.035 6.85 2.94 12.29
1/8/2023 9:15:00 PM 4.81 40.658 0.035 6.85 2.84 12.3
1/8/2023 9:30:00 PM 4.77 40.586 0.035 6.84 2.99 12.31
1/8/2023 9:45:00 PM 4.74 40.532 0.035 6.84 2.88 12.32
1/8/2023 10:00:00 PM 4.7 40.46 0.035 6.85 2.88 12.33
1/8/2023 10:15:00 PM 4.66 40.388 0.035 6.84 2.88 12.34
1/8/2023 10:30:00 PM 4.62 40.316 0.036 6.84 2.89 12.35
1/8/2023 10:45:00 PM 4.59 40.262 0.035 6.83 2.89 12.36
1/8/2023 11:00:00 PM 4.57 40.226 0.036 6.83 2.85 12.37
1/8/2023 11:15:00 PM 4.56 40.208 0.036 6.83 2.91 12.38
1/8/2023 11:30:00 PM 4.54 40.172 0.036 6.83 3.09 12.38
1/8/2023 11:45:00 PM 4.53 40.154 0.036 6.83 2.88 12.38
1/9/2023 12:00:00 AM 4.52 40.136 0.036 6.83 2.83 12.39
1/9/2023 12:15:00 AM 4.51 40.118 0.036 6.84 2.97 12.39
1/9/2023 12:30:00 AM 4.5 40.1 0.036 6.84 2.86 12.39
1/9/2023 12:45:00 AM 4.49 40.082 0.036 6.84 2.87 12.4
1/9/2023 1:00:00 AM 4.48 40.064 0.036 6.84 3.06 12.4
1/9/2023 1:15:00 AM 4.46 40.028 0.036 6.83 2.93 12.4
1/9/2023 1:30:00 AM 4.45 40.01 0.036 6.83 2.97 12.41
1/9/2023 1:45:00 AM 4.43 39.974 0.036 6.83 2.95 12.41
1/9/2023 2:00:00 AM 4.43 39.974 0.036 6.83 3.02 12.41
1/9/2023 2:15:00 AM 4.42 39.956 0.036 6.83 2.97 12.41
1/9/2023 2:30:00 AM 4.41 39.938 0.036 6.83 2.84 12.42
1/9/2023 2:45:00 AM 4.39 39.902 0.036 6.84 2.94 12.42
1/9/2023 3:00:00 AM 4.37 39.866 0.036 6.84 3.03 12.42
1/9/2023 3:15:00 AM 4.35 39.83 0.036 6.83 3.21 12.43
1/9/2023 3:30:00 AM 4.32 39.776 0.036 6.83 2.97 12.43
1/9/2023 3:45:00 AM 4.29 39.722 0.036 6.82 2.87 12.44
1/9/2023 4:00:00 AM 4.28 39.704 0.036 6.83 2.91 12.45
1/9/2023 4:15:00 AM 4.26 39.668 0.036 6.82 2.9 12.46
1/9/2023 4:30:00 AM 4.25 39.65 0.036 6.83 2.97 12.46
1/9/2023 4:45:00 AM 4.24 39.632 0.036 6.83 2.97 12.46
1/9/2023 5:00:00 AM 4.23 39.614 0.036 6.83 2.86 12.47
1/9/2023 5:15:00 AM 4.23 39.614 0.036 6.82 2.97 12.47
1/9/2023 5:30:00 AM 4.23 39.614 0.036 6.83 2.95 12.48
1/9/2023 5:45:00 AM 4.23 39.614 0.036 6.83 2.92 12.48
1/9/2023 6:00:00 AM 4.23 39.614 0.036 6.83 2.94 12.47
1/9/2023 6:15:00 AM 4.23 39.614 0.036 6.83 2.95 12.47
1/9/2023 6:30:00 AM 4.23 39.614 0.036 6.84 2.86 12.48
1/9/2023 6:45:00 AM 4.22 39.596 0.036 6.83 2.87 12.48
1/9/2023 7:00:00 AM 4.21 39.578 0.036 6.84 2.91 12.48
1/9/2023 7:15:00 AM 4.22 39.596 0.036 6.84 3 12.48
1/9/2023 7:30:00 AM 4.21 39.578 0.036 6.84 2.99 12.49
1/9/2023 7:45:00 AM 4.2 39.56 0.036 6.84 2.83 12.49
1/9/2023 8:00:00 AM 4.19 39.542 0.036 6.84 2.9 12.51
1/9/2023 8:15:00 AM 4.17 39.506 0.036 6.85 2.8 12.53
1/9/2023 8:30:00 AM 4.16 39.488 0.036 6.85 2.9 12.55
1/9/2023 8:45:00 AM 4.15 39.47 0.036 6.86 2.96 12.58
1/9/2023 9:00:00 AM 4.17 39.506 0.036 6.86 2.81 12.61
1/9/2023 9:15:00 AM 4.17 39.506 0.036 6.87 2.95 12.64
1/9/2023 9:30:00 AM 4.15 39.47 0.035 6.88 2.9 12.68
1/9/2023 9:45:00 AM 4.16 39.488 0.035 6.89 2.8 12.7
1/9/2023 10:00:00 AM 4.18 39.524 0.035 6.89 2.78 12.72
1/9/2023 10:15:00 AM 4.2 39.56 0.035 6.9 2.75 12.73
1/9/2023 10:30:00 AM 4.22 39.596 0.035 6.91 2.73 12.73
1/9/2023 10:45:00 AM 4.24 39.632 0.035 6.91 2.79 12.74
1/9/2023 11:00:00 AM 4.28 39.704 0.035 6.92 2.78 12.74
1/9/2023 11:15:00 AM 4.26 39.668 0.035 6.91 2.85 12.73
1/9/2023 11:30:00 AM 4.25 39.65 0.035 6.92 2.7 12.72
1/9/2023 11:45:00 AM 4.34 39.812 0.035 6.93 7.67 12.69
1/9/2023 12:00:00 PM 4.44 39.992 0.035 6.94 4.4 12.67
1/9/2023 12:15:00 PM 4.52 40.136 0.035 6.94 2.79 12.65
1/9/2023 12:30:00 PM 4.58 40.244 0.035 6.93 2.84 12.62
1/9/2023 12:45:00 PM 4.63 40.334 0.035 6.94 3.25 12.6
1/9/2023 1:00:00 PM 4.67 40.406 0.035 6.95 3.14 12.58
1/9/2023 1:15:00 PM 4.71 40.478 0.035 6.94 2.91 12.57
1/9/2023 1:30:00 PM 4.75 40.55 0.035 6.94 2.86 12.56
1/9/2023 1:45:00 PM 4.78 40.604 0.035 6.94 2.75 12.54
1/9/2023 2:00:00 PM 4.83 40.694 0.035 6.95 2.7 12.53
1/9/2023 2:15:00 PM 4.85 40.73 0.035 6.94 3.28 12.51
1/9/2023 2:30:00 PM 4.86 40.748 0.035 6.95 2.99 12.5
1/9/2023 2:45:00 PM 4.86 40.748 0.035 6.94 2.78 12.49
1/9/2023 3:00:00 PM 4.85 40.73 0.035 6.95 2.81 12.49
1/9/2023 3:15:00 PM 4.83 40.694 0.035 6.95 2.81 12.49
1/9/2023 3:30:00 PM 4.8 40.64 0.035 6.95 2.83 12.48
1/9/2023 3:45:00 PM 4.76 40.568 0.035 6.96 2.78 12.48
1/9/2023 4:00:00 PM 4.73 40.514 0.035 6.95 2.79 12.48
1/9/2023 4:15:00 PM 4.69 40.442 0.035 6.93 2.92 12.48
1/9/2023 4:30:00 PM 4.65 40.37 0.035 6.93 2.85 12.47
1/9/2023 4:45:00 PM 4.6 40.28 0.035 6.93 2.92 12.46
1/9/2023 5:00:00 PM 4.56 40.208 0.035 6.91 2.8 12.45
1/9/2023 5:15:00 PM 4.51 40.118 0.035 6.89 2.8 12.44
1/9/2023 5:30:00 PM 4.47 40.046 0.036 6.89 294.58 12.43
1/9/2023 5:45:00 PM 4.44 39.992 0.036 6.89 10.55 12.42
1/9/2023 6:00:00 PM 4.41 39.938 0.036 6.88 3.11 12.42
1/9/2023 6:15:00 PM 4.39 39.902 0.036 6.88 3.14 12.42
1/9/2023 6:30:00 PM 4.35 39.83 0.036 6.88 3.09 12.43
1/9/2023 6:45:00 PM 4.33 39.794 0.036 6.87 2.97 12.43
1/9/2023 7:00:00 PM 4.3 39.74 0.036 6.87 3.11 12.44
1/9/2023 7:15:00 PM 4.27 39.686 0.036 6.87 3.13 12.44
1/9/2023 7:30:00 PM 4.25 39.65 0.036 6.87 3.24 12.45
1/9/2023 7:45:00 PM 4.22 39.596 0.036 6.86 3.22 12.46
1/9/2023 8:00:00 PM 4.2 39.56 0.036 6.87 3.19 12.46
1/9/2023 8:15:00 PM 4.18 39.524 0.036 6.87 3.55 12.47
1/9/2023 8:30:00 PM 4.17 39.506 0.036 6.87 3.37 12.48
1/9/2023 8:45:00 PM 4.17 39.506 0.036 6.86 3.2 12.48
1/9/2023 9:00:00 PM 4.17 39.506 0.036 6.86 3.17 12.49
1/9/2023 9:15:00 PM 4.16 39.488 0.036 6.86 3.18 12.49
1/9/2023 9:30:00 PM 4.15 39.47 0.036 6.86 3.33 12.49
1/9/2023 9:45:00 PM 4.14 39.452 0.036 6.85 3.22 12.49
1/9/2023 10:00:00 PM 4.14 39.452 0.036 6.86 3.22 12.5
1/9/2023 10:15:00 PM 4.15 39.47 0.036 6.86 3.12 12.5
1/9/2023 10:30:00 PM 4.15 39.47 0.036 6.86 3.21 12.5
1/9/2023 10:45:00 PM 4.15 39.47 0.036 6.86 3.16 12.51
1/9/2023 11:00:00 PM 4.14 39.452 0.036 6.86 3.26 12.51
1/9/2023 11:15:00 PM 4.14 39.452 0.036 6.86 3.14 12.51
1/9/2023 11:30:00 PM 4.14 39.452 0.036 6.86 3.19 12.52
1/9/2023 11:45:00 PM 4.14 39.452 0.036 6.86 3.02 12.51
1/10/2023 12:00:00 AM 4.13 39.434 0.036 6.86 3.08 12.51
1/10/2023 12:15:00 AM 4.14 39.452 0.036 6.86 3.13 12.51
1/10/2023 12:30:00 AM 4.14 39.452 0.036 6.86 3.3 12.51
1/10/2023 12:45:00 AM 4.14 39.452 0.036 6.85 3.09 12.51
1/10/2023 1:00:00 AM 4.15 39.47 0.036 6.86 3.08 12.51
1/10/2023 1:15:00 AM 4.16 39.488 0.036 6.86 3.1 12.51
1/10/2023 1:30:00 AM 4.15 39.47 0.036 6.86 3.14 12.52
1/10/2023 1:45:00 AM 4.15 39.47 0.036 6.86 3.1 12.51
1/10/2023 2:00:00 AM 4.15 39.47 0.036 6.86 3.17 12.51
1/10/2023 2:15:00 AM 4.15 39.47 0.036 6.86 3.11 12.51
1/10/2023 2:30:00 AM 4.15 39.47 0.036 6.86 3.16 12.51
1/10/2023 2:45:00 AM 4.14 39.452 0.036 6.86 3.18 12.51
1/10/2023 3:00:00 AM 4.14 39.452 0.036 6.86 3.09 12.52
1/10/2023 3:15:00 AM 4.14 39.452 0.036 6.86 3.04 12.51
1/10/2023 3:30:00 AM 4.13 39.434 0.036 6.86 3.18 12.51
1/10/2023 3:45:00 AM 4.13 39.434 0.036 6.86 3.01 12.52
1/10/2023 4:00:00 AM 4.13 39.434 0.036 6.86 3.03 12.52
1/10/2023 4:15:00 AM 4.13 39.434 0.036 6.85 3.12 12.52
1/10/2023 4:30:00 AM 4.14 39.452 0.036 6.85 3.26 12.51
1/10/2023 4:45:00 AM 4.13 39.434 0.036 6.86 3.14 12.51
1/10/2023 5:00:00 AM 4.13 39.434 0.036 6.86 3.11 12.51
1/10/2023 5:15:00 AM 4.14 39.452 0.036 6.86 3.11 12.52
1/10/2023 5:30:00 AM 4.14 39.452 0.036 6.86 3.1 12.51
1/10/2023 5:45:00 AM 4.14 39.452 0.036 6.86 3.24 12.51
1/10/2023 6:00:00 AM 4.14 39.452 0.036 6.86 3.12 12.51
1/10/2023 6:15:00 AM 4.14 39.452 0.036 6.85 3.04 12.51
1/10/2023 6:30:00 AM 4.14 39.452 0.036 6.86 3.07 12.51
1/10/2023 6:45:00 AM 4.13 39.434 0.036 6.86 3.18 12.51
1/10/2023 7:00:00 AM 4.14 39.452 0.036 6.86 3.31 12.52
1/10/2023 7:15:00 AM 4.14 39.452 0.036 6.86 3.23 12.52
1/10/2023 7:30:00 AM 4.14 39.452 0.036 6.86 3.19 12.51
1/10/2023 7:45:00 AM 4.14 39.452 0.036 6.86 3.15 12.52
1/10/2023 8:00:00 AM 4.15 39.47 0.036 6.86 3.07 12.52
1/10/2023 8:15:00 AM 4.16 39.488 0.036 6.86 3.1 12.53
1/10/2023 8:30:00 AM 4.17 39.506 0.036 6.87 3.12 12.54
1/10/2023 8:45:00 AM 4.18 39.524 0.036 6.87 3.12 12.56
1/10/2023 9:00:00 AM 4.19 39.542 0.036 6.87 3.25 12.6
1/10/2023 9:15:00 AM 4.22 39.596 0.036 6.9 3.08 12.62
1/10/2023 9:30:00 AM 4.24 39.632 0.036 6.9 3 12.65
1/10/2023 9:45:00 AM 4.28 39.704 0.036 6.91 2.95 12.67
1/10/2023 10:00:00 AM 4.32 39.776 0.036 6.92 3.01 12.68
1/10/2023 10:15:00 AM 4.36 39.848 0.036 6.93 3.06 12.69
1/10/2023 10:30:00 AM 4.4 39.92 0.036 6.94 3.04 12.69
1/10/2023 10:45:00 AM 4.44 39.992 0.036 6.94 3.05 12.68
1/10/2023 11:00:00 AM 4.48 40.064 0.036 6.96 2.96 12.68
1/10/2023 11:15:00 AM 4.51 40.118 0.036 6.95 2.95 12.67
1/10/2023 11:30:00 AM 4.55 40.19 0.036 6.96 2.95 12.66
1/10/2023 11:45:00 AM 4.6 40.28 0.036 6.97 5.46 12.66
1/10/2023 12:00:00 PM 4.65 40.37 0.036 6.97 3.25 12.64
1/10/2023 12:15:00 PM 4.71 40.478 0.036 6.98 2.84 12.63
1/10/2023 12:30:00 PM 4.76 40.568 0.036 6.98 2.87 12.61
1/10/2023 12:45:00 PM 4.82 40.676 0.036 6.98 2.88 12.6
1/10/2023 1:00:00 PM 4.87 40.766 0.036 6.99 2.92 12.58
1/10/2023 1:15:00 PM 4.9 40.82 0.035 6.98 2.85 12.57
1/10/2023 1:30:00 PM 4.96 40.928 0.035 6.99 2.79 12.55
1/10/2023 1:45:00 PM 5.02 41.036 0.035 6.99 2.82 12.53
1/10/2023 2:00:00 PM 5.08 41.144 0.035 7 2.91 12.5
1/10/2023 2:15:00 PM 5.12 41.216 0.035 7 2.86 12.49
1/10/2023 2:30:00 PM 5.13 41.234 0.035 7 2.75 12.47
1/10/2023 2:45:00 PM 5.13 41.234 0.035 7 2.87 12.46
1/10/2023 3:00:00 PM 5.12 41.216 0.035 6.99 3.09 12.45
1/10/2023 3:15:00 PM 5.12 41.216 0.035 6.97 5.33 12.44
1/10/2023 3:30:00 PM 5.13 41.234 0.035 6.99 2.97 12.43
1/10/2023 3:45:00 PM 5.14 41.252 0.035 6.98 2.79 12.43
1/10/2023 4:00:00 PM 5.13 41.234 0.035 6.98 2.9 12.4
1/10/2023 4:15:00 PM 5.12 41.216 0.036 6.97 2.96 12.38
1/10/2023 4:30:00 PM 5.1 41.18 0.036 6.97 2.86 12.35
1/10/2023 4:45:00 PM 5.08 41.144 0.036 6.97 2.83 12.32
1/10/2023 5:00:00 PM 5.06 41.108 0.036 6.95 2.93 12.29
1/10/2023 5:15:00 PM 5.05 41.09 0.036 6.93 2.86 12.27
1/10/2023 5:30:00 PM 5.03 41.054 0.036 6.93 2.87 12.25
1/10/2023 5:45:00 PM 5.02 41.036 0.036 6.91 2.85 12.24
1/10/2023 6:00:00 PM 5 41 0.036 6.91 2.9 12.23
1/10/2023 6:15:00 PM 4.99 40.982 0.036 6.9 2.93 12.23
1/10/2023 6:30:00 PM 4.97 40.946 0.036 6.9 3.03 12.23
1/10/2023 6:45:00 PM 4.95 40.91 0.036 6.9 3.04 12.23
1/10/2023 7:00:00 PM 4.92 40.856 0.036 6.89 2.96 12.23
1/10/2023 7:15:00 PM 4.9 40.82 0.036 6.89 3.12 12.24
1/10/2023 7:30:00 PM 4.86 40.748 0.036 6.89 3.08 12.26
1/10/2023 7:45:00 PM 4.83 40.694 0.036 6.89 2.95 12.26
1/10/2023 8:00:00 PM 4.79 40.622 0.036 6.87 3 12.27
1/10/2023 8:15:00 PM 4.75 40.55 0.036 6.87 3.06 12.29
1/10/2023 8:30:00 PM 4.71 40.478 0.036 6.89 3.17 12.3
1/10/2023 8:45:00 PM 4.67 40.406 0.036 6.89 3.12 12.31
1/10/2023 9:00:00 PM 4.64 40.352 0.036 6.88 3.15 12.33
1/10/2023 9:15:00 PM 4.61 40.298 0.036 6.87 3.08 12.35
1/10/2023 9:30:00 PM 4.59 40.262 0.036 6.87 3.06 12.35
1/10/2023 9:45:00 PM 4.57 40.226 0.036 6.87 3 12.36
1/10/2023 10:00:00 PM 4.55 40.19 0.036 6.86 3 12.37
1/10/2023 10:15:00 PM 4.52 40.136 0.036 6.87 2.99 12.38
1/10/2023 10:30:00 PM 4.5 40.1 0.036 6.86 3.03 12.39
1/10/2023 10:45:00 PM 4.46 40.028 0.036 6.87 3 12.4
1/10/2023 11:00:00 PM 4.44 39.992 0.036 6.86 3.01 12.41
1/10/2023 11:15:00 PM 4.41 39.938 0.036 6.86 2.98 12.42
1/10/2023 11:30:00 PM 4.37 39.866 0.036 6.86 3.5 12.42
1/10/2023 11:45:00 PM 4.34 39.812 0.036 6.87 3.4 12.44
1/11/2023 12:00:00 AM 4.32 39.776 0.036 6.87 3.05 12.45
1/11/2023 12:15:00 AM 4.3 39.74 0.036 6.85 3.16 12.46
1/11/2023 12:30:00 AM 4.27 39.686 0.036 6.85 3.1 12.46
1/11/2023 12:45:00 AM 4.24 39.632 0.036 6.86 3.06 12.47
1/11/2023 1:00:00 AM 4.21 39.578 0.036 6.86 2.99 12.48
1/11/2023 1:15:00 AM 4.18 39.524 0.037 6.86 2.99 12.49
1/11/2023 1:30:00 AM 4.13 39.434 0.037 6.86 3.03 12.51
1/11/2023 1:45:00 AM 4.1 39.38 0.037 6.85 3.04 12.52
1/11/2023 2:00:00 AM 4.08 39.344 0.037 6.84 3.2 12.53
1/11/2023 2:15:00 AM 4.07 39.326 0.037 6.84 3.22 12.55
1/11/2023 2:30:00 AM 4.06 39.308 0.037 6.85 3.08 12.55
1/11/2023 2:45:00 AM 4.06 39.308 0.037 6.84 3.06 12.55
1/11/2023 3:00:00 AM 4.06 39.308 0.037 6.85 3.12 12.56
1/11/2023 3:15:00 AM 4.06 39.308 0.037 6.85 3.23 12.56
1/11/2023 3:30:00 AM 4.06 39.308 0.037 6.86 3.14 12.56
1/11/2023 3:45:00 AM 4.06 39.308 0.037 6.86 3.03 12.55
1/11/2023 4:00:00 AM 4.07 39.326 0.037 6.85 3 12.55
1/11/2023 4:15:00 AM 4.07 39.326 0.037 6.85 3.1 12.56
1/11/2023 4:30:00 AM 4.07 39.326 0.037 6.86 3.1 12.56
1/11/2023 4:45:00 AM 4.07 39.326 0.037 6.85 3.16 12.55
1/11/2023 5:00:00 AM 4.07 39.326 0.037 6.86 3.04 12.55
1/11/2023 5:15:00 AM 4.07 39.326 0.037 6.86 3.03 12.56
1/11/2023 5:30:00 AM 4.07 39.326 0.037 6.86 3.07 12.56
1/11/2023 5:45:00 AM 4.07 39.326 0.037 6.87 3.02 12.55
1/11/2023 6:00:00 AM 4.07 39.326 0.037 6.86 3.01 11.91
1/11/2023 6:15:00 AM 4.07 39.326 0.037 6.86 3.11 12.55
1/11/2023 6:30:00 AM 4.07 39.326 0.037 6.87 3.26 12.56
1/11/2023 6:45:00 AM 4.05 39.29 0.037 6.86 3.2 12.56
1/11/2023 7:00:00 AM 4.03 39.254 0.037 6.86 3.1 12.57
1/11/2023 7:15:00 AM 4 39.2 0.037 6.86 3.07 12.57
1/11/2023 7:30:00 AM 3.97 39.146 0.037 6.86 3.07 12.59
1/11/2023 7:45:00 AM 3.94 39.092 0.037 6.86 3.01 12.6
1/11/2023 8:00:00 AM 3.92 39.056 0.037 6.86 2.95 12.63
1/11/2023 8:15:00 AM 3.91 39.038 0.037 6.87 2.96 12.66
1/11/2023 8:30:00 AM 3.9 39.02 0.037 6.87 3.09 12.7
1/11/2023 8:45:00 AM 3.9 39.02 0.036 6.88 2.96 12.74
1/11/2023 9:00:00 AM 3.91 39.038 0.036 6.89 2.98 12.77
1/11/2023 9:15:00 AM 3.93 39.074 0.036 6.91 2.98 12.8
1/11/2023 9:30:00 AM 3.95 39.11 0.036 6.91 4.69 12.82
1/11/2023 9:45:00 AM 3.98 39.164 0.036 6.92 3.99 12.83
1/11/2023 10:00:00 AM 4.02 39.236 0.036 6.93 4.18 12.84
1/11/2023 10:15:00 AM 4.07 39.326 0.036 6.94 3.94 12.84
1/11/2023 10:30:00 AM 4.13 39.434 0.036 6.95 3.97 12.84
1/11/2023 10:45:00 AM 4.19 39.542 0.036 6.95 3.92 12.83
1/11/2023 11:00:00 AM 4.26 39.668 0.036 6.96 3.89 12.82
1/11/2023 11:15:00 AM 4.33 39.794 0.036 6.96 3.85 12.8
1/11/2023 11:30:00 AM 4.39 39.902 0.036 6.97 3.8 12.78
1/11/2023 11:45:00 AM 4.46 40.028 0.036 6.97 3.8 12.76
1/11/2023 12:00:00 PM 4.54 40.172 0.036 6.98 3.84 12.73
1/11/2023 12:15:00 PM 4.61 40.298 0.036 6.98 3.06 12.71
1/11/2023 12:30:00 PM 4.68 40.424 0.036 6.99 3.16 12.69
1/11/2023 12:45:00 PM 4.73 40.514 0.036 6.99 3.13 12.67
1/11/2023 1:00:00 PM 4.79 40.622 0.036 6.99 3.26 12.65
1/11/2023 1:15:00 PM 4.84 40.712 0.036 7 3.2 12.63
1/11/2023 1:30:00 PM 4.91 40.838 0.036 7.01 3.26 12.61
1/11/2023 1:45:00 PM 4.93 40.874 0.036 7 3.19 12.58
1/11/2023 2:00:00 PM 4.97 40.946 0.036 7 3.1 12.57
1/11/2023 2:15:00 PM 4.99 40.982 0.036 7 3.12 12.55
1/11/2023 2:30:00 PM 5.01 41.018 0.036 7 3.26 12.52
1/11/2023 2:45:00 PM 5.03 41.054 0.036 7 3.22 12.5
1/11/2023 3:00:00 PM 5.04 41.072 0.036 7 3.11 12.49
1/11/2023 3:15:00 PM 5.05 41.09 0.036 6.99 3.25 12.46
1/11/2023 3:30:00 PM 5.05 41.09 0.036 6.99 3.2 12.44
1/11/2023 3:45:00 PM 5.05 41.09 0.036 6.98 3.2 12.42
1/11/2023 4:00:00 PM 5.05 41.09 0.036 6.98 3.22 12.41
1/11/2023 4:15:00 PM 5.04 41.072 0.036 6.98 3.31 12.4
1/11/2023 4:30:00 PM 5.04 41.072 0.036 6.97 3.24 12.39
1/11/2023 4:45:00 PM 5.03 41.054 0.036 6.96 3.16 12.38
1/11/2023 5:00:00 PM 5 41 0.036 6.97 3.29 12.35
1/11/2023 5:15:00 PM 4.96 40.928 0.036 6.96 3.29 12.32
1/11/2023 5:30:00 PM 4.91 40.838 0.036 6.94 3.56 12.31
1/11/2023 5:45:00 PM 4.86 40.748 0.036 6.93 3.62 12.3
1/11/2023 6:00:00 PM 4.81 40.658 0.036 6.92 4.31 12.3
1/11/2023 6:15:00 PM 4.77 40.586 0.036 6.91 3.02 12.29
1/11/2023 6:30:00 PM 4.74 40.532 0.037 6.91 3.1 12.3
1/11/2023 6:45:00 PM 4.72 40.496 0.037 6.91 104.8 12.3
1/11/2023 7:00:00 PM 4.71 40.478 0.037 6.91 2.97 12.31
1/11/2023 7:15:00 PM 4.7 40.46 0.036 6.91 3.07 12.31
1/11/2023 7:30:00 PM 4.68 40.424 0.037 6.91 3.01 12.31
1/11/2023 7:45:00 PM 4.67 40.406 0.037 6.9 3.01 12.32
1/11/2023 8:00:00 PM 4.65 40.37 0.037 6.9 2.94 12.33
1/11/2023 8:15:00 PM 4.62 40.316 0.037 6.89 3.1 12.33
1/11/2023 8:30:00 PM 4.6 40.28 0.037 6.9 3.05 12.34
1/11/2023 8:45:00 PM 4.57 40.226 0.037 6.88 3.05 12.34
1/11/2023 9:00:00 PM 4.55 40.19 0.037 6.89 3 12.35
1/11/2023 9:15:00 PM 4.53 40.154 0.037 6.89 2.98 12.36
1/11/2023 9:30:00 PM 4.51 40.118 0.037 6.89 3.07 12.37
1/11/2023 9:45:00 PM 4.49 40.082 0.037 6.88 3.1 12.38
1/11/2023 10:00:00 PM 4.47 40.046 0.037 6.88 8.09 12.38
1/11/2023 10:15:00 PM 4.45 40.01 0.037 6.89 3.05 12.39
1/11/2023 10:30:00 PM 4.43 39.974 0.037 6.89 3.17 12.39
1/11/2023 10:45:00 PM 4.41 39.938 0.037 6.89 3.13 12.4
1/11/2023 11:00:00 PM 4.4 39.92 0.037 6.88 3.03 12.4
1/11/2023 11:15:00 PM 4.39 39.902 0.037 6.89 2.99 12.41
1/11/2023 11:30:00 PM 4.39 39.902 0.037 6.89 3.05 12.41
1/11/2023 11:45:00 PM 4.39 39.902 0.037 6.89 3.13 12.41
1/12/2023 12:00:00 AM 4.39 39.902 0.037 6.88 3.09 12.41
1/12/2023 12:15:00 AM 4.4 39.92 0.037 6.88 3.04 12.41
1/12/2023 12:30:00 AM 4.4 39.92 0.037 6.88 2.98 12.41
1/12/2023 12:45:00 AM 4.41 39.938 0.037 6.88 2.97 12.4
1/12/2023 1:00:00 AM 4.41 39.938 0.037 6.88 3.08 12.4
1/12/2023 1:15:00 AM 4.42 39.956 0.037 6.88 3.04 12.4
1/12/2023 1:30:00 AM 4.42 39.956 0.037 6.88 2.96 12.4
1/12/2023 1:45:00 AM 4.42 39.956 0.037 6.88 3.07 12.4
1/12/2023 2:00:00 AM 4.42 39.956 0.037 6.88 2.96 12.4
1/12/2023 2:15:00 AM 4.42 39.956 0.037 6.89 2.89 12.4
1/12/2023 2:30:00 AM 4.42 39.956 0.037 6.88 3.02 12.4
1/12/2023 2:45:00 AM 4.42 39.956 0.037 6.88 2.97 12.4
1/12/2023 3:00:00 AM 4.42 39.956 0.037 6.88 3.03 12.39
1/12/2023 3:15:00 AM 4.42 39.956 0.037 6.88 2.98 12.39
1/12/2023 3:30:00 AM 4.42 39.956 0.037 6.88 3.15 12.39
1/12/2023 3:45:00 AM 4.42 39.956 0.037 6.89 3.07 12.39
1/12/2023 4:00:00 AM 4.42 39.956 0.037 6.88 3.01 12.39
1/12/2023 4:15:00 AM 4.42 39.956 0.037 6.88 3.04 12.39
1/12/2023 4:30:00 AM 4.43 39.974 0.037 6.88 3.11 12.38
1/12/2023 4:45:00 AM 4.43 39.974 0.037 6.88 3.03 12.38
1/12/2023 5:00:00 AM 4.43 39.974 0.037 6.88 3.02 12.38
1/12/2023 5:15:00 AM 4.44 39.992 0.037 6.88 3.01 12.38
1/12/2023 5:30:00 AM 4.45 40.01 0.037 6.88 3.06 12.37
1/12/2023 5:45:00 AM 4.46 40.028 0.037 6.89 2.94 12.37
1/12/2023 6:00:00 AM 4.46 40.028 0.037 6.88 2.92 12.37
1/12/2023 6:15:00 AM 4.47 40.046 0.037 6.89 3.06 12.37
1/12/2023 6:30:00 AM 4.48 40.064 0.037 6.87 3.05 12.37
1/12/2023 6:45:00 AM 4.48 40.064 0.037 6.88 3.07 12.37
1/12/2023 7:00:00 AM 4.48 40.064 0.037 6.88 3.05 12.36
1/12/2023 7:15:00 AM 4.49 40.082 0.037 6.89 2.95 12.36
1/12/2023 7:30:00 AM 4.49 40.082 0.037 6.88 2.99 12.37
1/12/2023 7:45:00 AM 4.5 40.1 0.037 6.89 2.9 12.36
1/12/2023 8:00:00 AM 4.5 40.1 0.037 6.9 2.91 12.36
1/12/2023 8:15:00 AM 4.51 40.118 0.037 6.87 2.87 12.37
1/12/2023 8:30:00 AM 4.52 40.136 0.037 6.9 202.94 12.37
1/12/2023 8:45:00 AM 4.53 40.154 0.037 6.89 2.87 12.37
1/12/2023 9:00:00 AM 4.54 40.172 0.037 6.88 2.84 12.39
1/12/2023 9:15:00 AM 4.55 40.19 0.037 6.9 2.97 12.4
1/12/2023 9:30:00 AM 4.56 40.208 0.037 6.9 2.82 12.4
1/12/2023 9:45:00 AM 4.58 40.244 0.037 6.9 3.01 12.42
1/12/2023 10:00:00 AM 4.59 40.262 0.037 6.89 2.85 12.43
1/12/2023 10:15:00 AM 4.61 40.298 0.037 6.92 2.85 12.43
1/12/2023 10:30:00 AM 4.63 40.334 0.037 6.9 2.8 12.43
1/12/2023 10:45:00 AM 4.64 40.352 0.037 6.91 2.86 12.44
1/12/2023 11:00:00 AM 4.66 40.388 0.037 6.94 2.79 12.45
1/12/2023 11:15:00 AM 4.68 40.424 0.037 6.93 2.85 12.45
1/12/2023 11:30:00 AM 4.69 40.442 0.037 6.94 2.77 12.46
1/12/2023 11:45:00 AM 4.71 40.478 0.037 6.94 2.86 12.46
1/12/2023 12:00:00 PM 4.73 40.514 0.037 6.94 2.84 12.47
1/12/2023 12:15:00 PM 4.74 40.532 0.037 6.96 2.72 12.44
1/12/2023 12:30:00 PM 4.77 40.586 0.037 6.96 2.77 12.44
1/12/2023 12:45:00 PM 4.8 40.64 0.037 6.97 2.78 12.44
1/12/2023 1:00:00 PM 4.82 40.676 0.037 6.97 2.83 12.44
1/12/2023 1:15:00 PM 4.84 40.712 0.037 6.98 2.73 12.43
1/12/2023 1:30:00 PM 4.86 40.748 0.037 6.98 2.87 12.41
1/12/2023 1:45:00 PM 4.88 40.784 0.037 6.98 3.46 12.4
1/12/2023 2:00:00 PM 4.89 40.802 0.037 6.97 3.27 12.37
1/12/2023 2:15:00 PM 4.9 40.82 0.037 6.95 2.87 12.35
1/12/2023 2:30:00 PM 4.91 40.838 0.037 6.96 2.91 12.33
1/12/2023 2:45:00 PM 4.92 40.856 0.037 6.95 2.86 12.32
1/12/2023 3:00:00 PM 4.92 40.856 0.037 6.95 2.85 12.3
1/12/2023 3:15:00 PM 4.92 40.856 0.037 6.95 2.99 12.29
1/12/2023 3:30:00 PM 4.93 40.874 0.036 6.93 2.97 12.27
1/12/2023 3:45:00 PM 4.93 40.874 0.036 6.94 2.95 12.25
1/12/2023 4:00:00 PM 4.93 40.874 0.036 6.95 3.28 12.23
1/12/2023 4:15:00 PM 4.94 40.892 0.037 6.94 3.22 12.21
1/12/2023 4:30:00 PM 4.94 40.892 0.037 6.91 3.24 12.2
1/12/2023 4:45:00 PM 4.95 40.91 0.037 6.9 3.19 12.18
1/12/2023 5:00:00 PM 4.96 40.928 0.037 6.93 3.08 12.15
1/12/2023 5:15:00 PM 4.96 40.928 0.037 6.91 3.31 12.14
1/12/2023 5:30:00 PM 4.97 40.946 0.037 6.91 3.35 12.12
1/12/2023 5:45:00 PM 4.97 40.946 0.036 6.9 4.2 12.11
1/12/2023 6:00:00 PM 4.98 40.964 0.037 6.89 4.31 12.1
1/12/2023 6:15:00 PM 4.98 40.964 0.037 6.9 3.52 12.1
1/12/2023 6:30:00 PM 4.99 40.982 0.037 6.9 3.7 12.1
1/12/2023 6:45:00 PM 5 41 0.037 6.9 3.6 12.09
1/12/2023 7:00:00 PM 5.01 41.018 0.037 6.89 3.65 12.09
1/12/2023 7:15:00 PM 5.02 41.036 0.036 6.89 3.78 12.08
1/12/2023 7:30:00 PM 5.03 41.054 0.037 6.89 3.94 12.08
1/12/2023 7:45:00 PM 5.04 41.072 0.037 6.9 3.88 12.07
1/12/2023 8:00:00 PM 5.05 41.09 0.037 6.9 3.8 12.06
1/12/2023 8:15:00 PM 5.06 41.108 0.037 6.89 8.76 12.05
1/12/2023 8:30:00 PM 5.08 41.144 0.037 6.9 3.68 12.05
1/12/2023 8:45:00 PM 5.09 41.162 0.037 6.9 3.8 12.04
1/12/2023 9:00:00 PM 5.11 41.198 0.037 6.9 3.66 12.03
1/12/2023 9:15:00 PM 5.12 41.216 0.037 6.9 3.77 12.02
1/12/2023 9:30:00 PM 5.13 41.234 0.037 6.89 3.57 12.02
1/12/2023 9:45:00 PM 5.15 41.27 0.037 6.89 3.77 12.01
1/12/2023 10:00:00 PM 5.16 41.288 0.037 6.9 3.69 12.01
1/12/2023 10:15:00 PM 5.18 41.324 0.037 6.89 3.68 12
1/12/2023 10:30:00 PM 5.19 41.342 0.038 6.9 3.71 11.99
1/12/2023 10:45:00 PM 5.21 41.378 0.038 6.89 3.74 11.98
1/12/2023 11:00:00 PM 5.22 41.396 0.038 6.89 3.92 11.98
1/12/2023 11:15:00 PM 5.23 41.414 0.038 6.9 3.74 11.97
1/12/2023 11:30:00 PM 5.25 41.45 0.038 6.9 3.81 11.96
1/12/2023 11:45:00 PM 5.26 41.468 0.038 6.89 3.84 11.96
1/13/2023 12:00:00 AM 5.27 41.486 0.039 6.9 3.85 11.95
1/13/2023 12:15:00 AM 5.28 41.504 0.039 6.89 3.85 11.95
1/13/2023 12:30:00 AM 5.29 41.522 0.039 6.9 3.8 11.94
1/13/2023 12:45:00 AM 5.3 41.54 0.039 6.9 3.79 11.93
1/13/2023 1:00:00 AM 5.31 41.558 0.038 6.9 3.84 11.93
1/13/2023 1:15:00 AM 5.32 41.576 0.038 6.9 3.71 11.92
1/13/2023 1:30:00 AM 5.33 41.594 0.038 6.9 3.84 11.91
1/13/2023 1:45:00 AM 5.34 41.612 0.038 6.9 3.65 11.91
1/13/2023 2:00:00 AM 5.34 41.612 0.038 6.9 3.68 11.91
1/13/2023 2:15:00 AM 5.35 41.63 0.038 6.9 3.77 11.9
1/13/2023 2:30:00 AM 5.36 41.648 0.038 6.89 3.8 11.9
1/13/2023 2:45:00 AM 5.37 41.666 0.038 6.9 3.83 11.9
1/13/2023 3:00:00 AM 5.38 41.684 0.038 6.89 3.82 11.89
1/13/2023 3:15:00 AM 5.39 41.702 0.038 6.89 3.96 11.89
1/13/2023 3:30:00 AM 5.4 41.72 0.038 6.87 4.77 11.89
1/13/2023 3:45:00 AM 5.41 41.738 0.038 6.88 4.06 11.88
1/13/2023 4:00:00 AM 5.41 41.738 0.038 6.88 4.22 11.87
1/13/2023 4:15:00 AM 5.42 41.756 0.039 6.87 11.1 11.88
1/13/2023 4:30:00 AM 5.42 41.756 0.039 6.88 5.89 11.88
1/13/2023 4:45:00 AM 5.41 41.738 0.039 6.89 4.09 11.88
1/13/2023 5:00:00 AM 5.41 41.738 0.039 6.89 4.42 11.89
1/13/2023 5:15:00 AM 5.4 41.72 0.039 6.91 5.31 11.89
1/13/2023 5:30:00 AM 5.39 41.702 0.039 6.9 5.33 11.91
1/13/2023 5:45:00 AM 5.38 41.684 0.039 6.88 5.61 11.91
1/13/2023 6:00:00 AM 5.36 41.648 0.039 6.9 5.07 11.92
1/13/2023 6:15:00 AM 5.34 41.612 0.039 6.9 8.67 11.93
1/13/2023 6:30:00 AM 5.32 41.576 0.039 6.91 4.63 11.94
1/13/2023 6:45:00 AM 5.3 41.54 0.039 6.91 4.5 11.95
1/13/2023 7:00:00 AM 5.28 41.504 0.039 6.91 4.15 11.97
1/13/2023 7:15:00 AM 5.26 41.468 0.039 6.9 17.26 11.97
1/13/2023 7:30:00 AM 5.24 41.432 0.039 6.89 7.44 11.98
1/13/2023 7:45:00 AM 5.22 41.396 0.039 6.91 4.42 11.99
1/13/2023 8:00:00 AM 5.2 41.36 0.039 6.9 4.61 12.01
1/13/2023 8:15:00 AM 5.18 41.324 0.039 6.92 4.37 12.05
1/13/2023 8:30:00 AM 5.17 41.306 0.039 6.93 3.79 12.07
1/13/2023 8:45:00 AM 5.16 41.288 0.039 6.92 3.93 12.12
1/13/2023 9:00:00 AM 5.15 41.27 0.039 6.93 6.46 12.15
1/13/2023 9:15:00 AM 5.13 41.234 0.039 6.94 6.31 12.18
1/13/2023 9:30:00 AM 5.1 41.18 0.039 6.95 3.82 12.19
1/13/2023 9:45:00 AM 5.09 41.162 0.039 6.95 3.72 12.21
1/13/2023 10:00:00 AM 5.08 41.144 0.039 6.96 82.18 12.23
1/13/2023 10:15:00 AM 5.06 41.108 0.039 6.97 7.82 12.25
1/13/2023 10:30:00 AM 5.05 41.09 0.039 6.97 3.6 12.27
1/13/2023 10:45:00 AM 5.06 41.108 0.039 6.97 3.7 12.3
1/13/2023 11:00:00 AM 5.07 41.126 0.038 6.98 3.6 12.33
1/13/2023 11:15:00 AM 5.08 41.144 0.038 6.98 3.83 12.34
1/13/2023 11:30:00 AM 5.06 41.108 0.038 6.98 3.72 12.34
1/13/2023 11:45:00 AM 5.05 41.09 0.038 6.98 3.67 12.34
1/13/2023 12:00:00 PM 5.02 41.036 0.038 6.98 3.75 12.34
1/13/2023 12:15:00 PM 5 41 0.038 6.98 3.66 12.34
1/13/2023 12:30:00 PM 4.97 40.946 0.038 6.98 3.63 12.34
1/13/2023 12:45:00 PM 4.93 40.874 0.038 6.98 3.46 12.35
1/13/2023 1:00:00 PM 4.92 40.856 0.038 6.97 3.54 12.34
1/13/2023 1:15:00 PM 4.9 40.82 0.038 6.97 3.46 12.36
1/13/2023 1:30:00 PM 4.87 40.766 0.038 6.98 3.63 12.37
1/13/2023 1:45:00 PM 4.85 40.73 0.038 6.96 6.36 12.36
1/13/2023 2:00:00 PM 4.84 40.712 0.038 6.97 3.5 12.37
1/13/2023 2:15:00 PM 4.8 40.64 0.038 6.98 3.54 12.37
1/13/2023 2:30:00 PM 4.78 40.604 0.038 6.97 3.52 12.37
1/13/2023 2:45:00 PM 4.76 40.568 0.038 6.98 3.58 12.37
1/13/2023 3:00:00 PM 4.75 40.55 0.038 6.98 4.24 12.38
1/13/2023 3:15:00 PM 4.72 40.496 0.038 6.97 3.67 12.37
1/13/2023 3:30:00 PM 4.7 40.46 0.038 6.96 3.85 12.36
1/13/2023 3:45:00 PM 4.69 40.442 0.038 6.95 6.1 12.36
1/13/2023 4:00:00 PM 4.66 40.388 0.038 6.94 5.96 12.35
1/13/2023 4:15:00 PM 4.63 40.334 0.038 6.94 3.75 12.35
1/13/2023 4:30:00 PM 4.6 40.28 0.038 6.94 3.66 12.34
1/13/2023 4:45:00 PM 4.56 40.208 0.038 6.93 3.53 12.35
1/13/2023 5:00:00 PM 4.53 40.154 0.038 6.91 4.07 12.34
1/13/2023 5:15:00 PM 4.5 40.1 0.038 6.9 7.02 12.34
1/13/2023 5:30:00 PM 4.48 40.064 0.038 6.89 5.51 12.34
1/13/2023 5:45:00 PM 4.47 40.046 0.038 6.9 3.77 12.34
1/13/2023 6:00:00 PM 4.41 39.938 0.038 6.88 272.51 12.34
1/13/2023 6:15:00 PM 4.38 39.884 0.038 6.89 3.68 12.35
1/13/2023 6:30:00 PM 4.38 39.884 0.038 6.88 3.73 12.36
1/13/2023 6:45:00 PM 4.35 39.83 0.038 6.87 5.59 12.36
1/13/2023 7:00:00 PM 4.32 39.776 0.038 6.88 3.63 12.38
1/13/2023 7:15:00 PM 4.29 39.722 0.038 6.89 3.65 12.39
1/13/2023 7:30:00 PM 4.27 39.686 0.038 6.88 3.69 12.4
1/13/2023 7:45:00 PM 4.23 39.614 0.038 6.88 3.63 12.41
1/13/2023 8:00:00 PM 4.2 39.56 0.038 6.85 14.7 12.42
1/13/2023 8:15:00 PM 4.18 39.524 0.038 6.86 849.1 12.43
1/13/2023 8:30:00 PM 4.16 39.488 0.038 6.87 8.71 12.44
1/13/2023 8:45:00 PM 4.15 39.47 0.038 6.87 6.61 12.45
1/13/2023 9:00:00 PM 4.12 39.416 0.038 6.87 3.86 12.45
1/13/2023 9:15:00 PM 4.09 39.362 0.038 6.87 4.95 12.47
1/13/2023 9:30:00 PM 4.06 39.308 0.038 6.87 4.58 12.48
1/13/2023 9:45:00 PM 4.04 39.272 0.038 6.87 4.52 12.49
1/13/2023 10:00:00 PM 4.01 39.218 0.038 6.87 4.33 12.51
1/13/2023 10:15:00 PM 4 39.2 0.038 6.88 4.18 12.51
1/13/2023 10:30:00 PM 3.98 39.164 0.038 6.87 4.64 12.51
1/13/2023 10:45:00 PM 3.96 39.128 0.038 6.86 20.4 12.52
1/13/2023 11:00:00 PM 3.95 39.11 0.038 6.86 6.47 12.52
1/13/2023 11:15:00 PM 3.93 39.074 0.038 6.85 5.05 12.53
1/13/2023 11:30:00 PM 3.9 39.02 0.038 6.85 5.75 12.55
1/13/2023 11:45:00 PM 3.88 38.984 0.038 6.85 5.51 12.55
1/14/2023 12:00:00 AM 3.87 38.966 0.038 6.87 3.69 12.55
1/14/2023 12:15:00 AM 3.84 38.912 0.038 6.87 3.74 12.56
1/14/2023 12:30:00 AM 3.82 38.876 0.038 6.87 3.76 12.57
1/14/2023 12:45:00 AM 3.8 38.84 0.037 6.87 3.78 12.57
1/14/2023 1:00:00 AM 3.78 38.804 0.037 6.87 3.91 12.58
1/14/2023 1:15:00 AM 3.77 38.786 0.037 6.87 4.48 12.59
1/14/2023 1:30:00 AM 3.76 38.768 0.037 6.88 4.28 12.59
1/14/2023 1:45:00 AM 3.75 38.75 0.037 6.87 4.03 12.59
1/14/2023 2:00:00 AM 3.73 38.714 0.037 6.86 4.25 12.6
1/14/2023 2:15:00 AM 3.72 38.696 0.037 6.88 3.97 12.61
1/14/2023 2:30:00 AM 3.69 38.642 0.037 6.87 4.13 12.62
1/14/2023 2:45:00 AM 3.69 38.642 0.037 6.88 3.85 12.62
1/14/2023 3:00:00 AM 3.67 38.606 0.037 6.86 3.94 12.63
1/14/2023 3:15:00 AM 3.67 38.606 0.037 6.88 4.03 12.63
1/14/2023 3:30:00 AM 3.65 38.57 0.037 6.87 3.95 12.64
1/14/2023 3:45:00 AM 3.64 38.552 0.037 6.87 3.96 12.64
1/14/2023 4:00:00 AM 3.62 38.516 0.037 6.86 4.16 12.65
1/14/2023 4:15:00 AM 3.61 38.498 0.037 6.86 4.19 12.66
1/14/2023 4:30:00 AM 3.59 38.462 0.037 6.87 4.57 12.67
1/14/2023 4:45:00 AM 3.57 38.426 0.037 6.87 3.97 12.67
1/14/2023 5:00:00 AM 3.55 38.39 0.037 6.87 3.94 12.68
1/14/2023 5:15:00 AM 3.55 38.39 0.037 6.88 4.08 12.68
1/14/2023 5:30:00 AM 3.53 38.354 0.037 6.87 4.03 12.69
1/14/2023 5:45:00 AM 3.52 38.336 0.037 6.87 7.28 12.7
1/14/2023 6:00:00 AM 3.51 38.318 0.037 6.86 5.24 12.71
1/14/2023 6:15:00 AM 3.49 38.282 0.037 6.87 4.12 12.71
1/14/2023 6:30:00 AM 3.48 38.264 0.037 6.87 4.03 12.72
1/14/2023 6:45:00 AM 3.46 38.228 0.037 6.86 4.09 12.72
1/14/2023 7:00:00 AM 3.44 38.192 0.037 6.87 4.56 12.72
1/14/2023 7:15:00 AM 3.43 38.174 0.037 6.86 12.59 12.73
1/14/2023 7:30:00 AM 3.42 38.156 0.037 6.86 4.05 12.74
1/14/2023 7:45:00 AM 3.42 38.156 0.037 6.86 4.33 12.75
1/14/2023 8:00:00 AM 3.4 38.12 0.037 6.87 4.08 12.76
1/14/2023 8:15:00 AM 3.39 38.102 0.037 6.86 4.06 12.77
1/14/2023 8:30:00 AM 3.39 38.102 0.037 6.89 4.03 12.79
1/14/2023 8:45:00 AM 3.38 38.084 0.037 6.87 4.15 12.81
1/14/2023 9:00:00 AM 3.38 38.084 0.037 6.88 4.07 12.83
1/14/2023 9:15:00 AM 3.38 38.084 0.037 6.88 3.97 12.86
1/14/2023 9:30:00 AM 3.38 38.084 0.036 6.9 3.95 12.89
1/14/2023 9:45:00 AM 3.38 38.084 0.036 6.9 4.06 12.92
1/14/2023 10:00:00 AM 3.39 38.102 0.036 6.92 3.97 12.94
1/14/2023 10:15:00 AM 3.41 38.138 0.036 6.93 3.97 12.96
1/14/2023 10:30:00 AM 3.42 38.156 0.036 6.93 3.85 12.97
1/14/2023 10:45:00 AM 3.45 38.21 0.036 6.93 4.08 12.98
1/14/2023 11:00:00 AM 3.45 38.21 0.036 6.93 4.06 12.99
1/14/2023 11:15:00 AM 3.46 38.228 0.036 6.95 3.95 12.99
1/14/2023 11:30:00 AM 3.49 38.282 0.036 6.95 3.97 12.99
1/14/2023 11:45:00 AM 3.52 38.336 0.036 6.95 4.02 12.99
1/14/2023 12:00:00 PM 3.53 38.354 0.036 6.95 4.22 12.98
1/14/2023 12:15:00 PM 3.54 38.372 0.036 6.94 4.1 12.98
1/14/2023 12:30:00 PM 3.56 38.408 0.036 6.96 4.02 12.97
1/14/2023 12:45:00 PM 3.58 38.444 0.036 6.96 4.02 12.96
1/14/2023 1:00:00 PM 3.63 38.534 0.036 6.95 4.04 12.95
1/14/2023 1:15:00 PM 3.65 38.57 0.036 6.96 4.02 12.95
1/14/2023 1:30:00 PM 3.66 38.588 0.036 6.96 4.06 12.95
1/14/2023 1:45:00 PM 3.67 38.606 0.036 6.97 4.09 12.94
1/14/2023 2:00:00 PM 3.7 38.66 0.036 6.96 4.18 12.93
1/14/2023 2:15:00 PM 3.72 38.696 0.036 6.95 4.23 12.92
1/14/2023 2:30:00 PM 3.73 38.714 0.036 6.94 4.6 12.91
1/14/2023 2:45:00 PM 3.72 38.696 0.036 6.97 4.2 12.9
1/14/2023 3:00:00 PM 3.72 38.696 0.036 6.96 4.06 12.9
1/14/2023 3:15:00 PM 3.72 38.696 0.035 6.95 5.96 12.89
1/14/2023 3:30:00 PM 3.73 38.714 0.035 6.93 9.31 12.88
1/14/2023 3:45:00 PM 3.72 38.696 0.035 6.93 8.86 12.88
1/14/2023 4:00:00 PM 3.71 38.678 0.035 6.93 4.3 12.87
1/14/2023 4:15:00 PM 3.7 38.66 0.035 6.94 14.47 12.86
1/14/2023 4:30:00 PM 3.68 38.624 0.035 6.86 347.83 12.85
1/14/2023 4:45:00 PM 3.66 38.588 0.035 6.91 3.62 12.83
1/14/2023 5:00:00 PM 3.66 38.588 0.036 6.9 3.64 12.8
1/14/2023 5:15:00 PM 3.64 38.552 0.036 6.89 3.58 12.78
1/14/2023 5:30:00 PM 3.61 38.498 0.036 6.86 3.75 12.77
1/14/2023 5:45:00 PM 3.6 38.48 0.036 6.88 3.63 12.76
1/14/2023 6:00:00 PM 3.57 38.426 0.036 6.87 3.76 12.75
1/14/2023 6:15:00 PM 3.55 38.39 0.036 6.87 3.61 12.76
1/14/2023 6:30:00 PM 3.53 38.354 0.036 6.86 10.14 12.76
1/14/2023 6:45:00 PM 3.51 38.318 0.036 6.86 11.11 12.76
1/14/2023 7:00:00 PM 3.5 38.3 0.036 6.85 3.82 12.77
1/14/2023 7:15:00 PM 3.47 38.246 0.036 6.85 8.31 12.78
1/14/2023 7:30:00 PM 3.45 38.21 0.036 6.84 3.92 12.78
1/14/2023 7:45:00 PM 3.43 38.174 0.036 6.85 4.07 12.8
1/14/2023 8:00:00 PM 3.41 38.138 0.036 6.85 4.05 12.8
1/14/2023 8:15:00 PM 3.4 38.12 0.036 6.84 4.07 12.81
1/14/2023 8:30:00 PM 3.39 38.102 0.036 6.84 4.13 12.81
1/14/2023 8:45:00 PM 3.37 38.066 0.036 6.85 4.33 12.82
1/14/2023 9:00:00 PM 3.35 38.03 0.036 6.84 7.04 12.82
1/14/2023 9:15:00 PM 3.34 38.012 0.036 6.84 5.21 12.82
1/14/2023 9:30:00 PM 3.33 37.994 0.036 6.84 5.13 12.84
1/14/2023 9:45:00 PM 3.32 37.976 0.036 6.85 5.31 12.84
1/14/2023 10:00:00 PM 3.3 37.94 0.036 6.84 4.8 12.85
1/14/2023 10:15:00 PM 3.3 37.94 0.036 6.83 12.91 12.85
1/14/2023 10:30:00 PM 3.3 37.94 0.036 6.84 4.14 12.85
1/14/2023 10:45:00 PM 3.29 37.922 0.036 6.84 3.96 12.86
1/14/2023 11:00:00 PM 3.29 37.922 0.036 6.85 58.17 12.85
1/14/2023 11:15:00 PM 3.29 37.922 0.036 6.84 6.32 12.86
1/14/2023 11:30:00 PM 3.28 37.904 0.036 6.84 4 12.86
1/14/2023 11:45:00 PM 3.27 37.886 0.036 6.84 4.12 12.86
1/15/2023 12:00:00 AM 3.26 37.868 0.036 6.85 4 12.86
1/15/2023 12:15:00 AM 3.25 37.85 0.036 6.85 4.13 12.86
1/15/2023 12:30:00 AM 3.24 37.832 0.036 6.85 4.52 12.87
1/15/2023 12:45:00 AM 3.23 37.814 0.036 6.85 4.02 12.87
1/15/2023 1:00:00 AM 3.22 37.796 0.036 6.85 4.03 12.88
1/15/2023 1:15:00 AM 3.23 37.814 0.036 6.85 3.98 12.88
1/15/2023 1:30:00 AM 3.23 37.814 0.035 6.85 4.29 12.88
1/15/2023 1:45:00 AM 3.22 37.796 0.035 6.84 4.16 12.88
1/15/2023 2:00:00 AM 3.23 37.814 0.035 6.85 4.22 12.88
1/15/2023 2:15:00 AM 3.23 37.814 0.035 6.85 4.01 12.88
1/15/2023 2:30:00 AM 3.23 37.814 0.035 6.84 4.93 12.88
1/15/2023 2:45:00 AM 3.24 37.832 0.035 6.84 4.22 12.89
1/15/2023 3:00:00 AM 3.24 37.832 0.035 6.84 4.32 12.89
1/15/2023 3:15:00 AM 3.23 37.814 0.035 6.84 4.22 12.9
1/15/2023 3:30:00 AM 3.22 37.796 0.035 6.84 8.53 12.9
1/15/2023 3:45:00 AM 3.21 37.778 0.035 6.84 3.97 12.9
1/15/2023 4:00:00 AM 3.2 37.76 0.035 6.85 4.14 12.91
1/15/2023 4:15:00 AM 3.19 37.742 0.035 6.84 4 12.92
1/15/2023 4:30:00 AM 3.18 37.724 0.035 6.84 4.05 12.92
1/15/2023 4:45:00 AM 3.18 37.724 0.035 6.84 3.92 12.92
1/15/2023 5:00:00 AM 3.17 37.706 0.035 6.84 4.01 12.92
1/15/2023 5:15:00 AM 3.16 37.688 0.035 6.84 5.31 12.92
1/15/2023 5:30:00 AM 3.15 37.67 0.035 6.84 6.2 12.93
1/15/2023 5:45:00 AM 3.14 37.652 0.035 6.84 7.29 12.93
1/15/2023 6:00:00 AM 3.13 37.634 0.035 6.84 4.31 12.94
1/15/2023 6:15:00 AM 3.11 37.598 0.035 6.84 5.12 12.94
1/15/2023 6:30:00 AM 3.09 37.562 0.035 6.83 7.19 12.95
1/15/2023 6:45:00 AM 3.08 37.544 0.035 6.83 4.3 12.95
1/15/2023 7:00:00 AM 3.08 37.544 0.035 6.82 4.14 12.95
1/15/2023 7:15:00 AM 3.08 37.544 0.035 6.82 6.21 12.96
1/15/2023 7:30:00 AM 3.07 37.526 0.035 6.83 4.08 12.97
1/15/2023 7:45:00 AM 3.07 37.526 0.035 6.84 95.55 12.98
1/15/2023 8:00:00 AM 3.07 37.526 0.035 6.83 4.01 12.99
1/15/2023 8:15:00 AM 3.07 37.526 0.035 6.85 3.97 13.02
1/15/2023 8:30:00 AM 3.08 37.544 0.035 6.85 4.01 13.04
1/15/2023 8:45:00 AM 3.09 37.562 0.035 6.86 3.95 13.07
1/15/2023 9:00:00 AM 3.11 37.598 0.035 6.86 4.05 13.1
1/15/2023 9:15:00 AM 3.13 37.634 0.035 6.87 4 13.12
1/15/2023 9:30:00 AM 3.14 37.652 0.035 6.88 3.91 13.13
1/15/2023 9:45:00 AM 3.16 37.688 0.035 6.88 3.99 13.14
1/15/2023 10:00:00 AM 3.19 37.742 0.035 6.89 4.1 13.13
1/15/2023 10:15:00 AM 3.22 37.796 0.035 6.89 3.95 13.14
1/15/2023 10:30:00 AM 3.24 37.832 0.035 6.88 4 13.12
1/15/2023 10:45:00 AM 3.29 37.922 0.035 6.89 3.93 13.12
1/15/2023 11:00:00 AM 3.35 38.03 0.035 6.89 4.03 13.1
1/15/2023 11:15:00 AM 3.4 38.12 0.035 6.89 3.99 13.09
1/15/2023 11:30:00 AM 3.44 38.192 0.035 6.9 4.02 13.07
1/15/2023 11:45:00 AM 3.5 38.3 0.035 6.9 4.01 13.06
1/15/2023 12:00:00 PM 3.57 38.426 0.035 6.89 4.18 13.04
1/15/2023 12:15:00 PM 3.64 38.552 0.035 6.91 4.06 13.01
1/15/2023 12:30:00 PM 3.71 38.678 0.035 6.91 4.01 12.99
1/15/2023 12:45:00 PM 3.78 38.804 0.035 6.92 4.05 12.96
1/15/2023 1:00:00 PM 3.85 38.93 0.035 6.92 4 12.94
1/15/2023 1:15:00 PM 3.92 39.056 0.035 6.92 4 12.92
1/15/2023 1:30:00 PM 3.98 39.164 0.035 6.92 3.98 12.9
1/15/2023 1:45:00 PM 4.05 39.29 0.035 6.92 4.05 12.87
1/15/2023 2:00:00 PM 4.09 39.362 0.035 6.92 4.01 12.86
1/15/2023 2:15:00 PM 4.13 39.434 0.034 6.93 4.15 12.83
1/15/2023 2:30:00 PM 4.15 39.47 0.034 6.93 4.19 12.83
1/15/2023 2:45:00 PM 4.17 39.506 0.034 6.93 4.24 12.8
1/15/2023 3:00:00 PM 4.18 39.524 0.034 6.93 4.29 12.79
1/15/2023 3:15:00 PM 4.18 39.524 0.034 6.93 4.04 12.78
1/15/2023 3:30:00 PM 4.17 39.506 0.034 6.93 4.13 12.77
1/15/2023 3:45:00 PM 4.15 39.47 0.035 6.92 4.23 12.77
1/15/2023 4:00:00 PM 4.12 39.416 0.035 6.9 4.4 12.76
1/15/2023 4:15:00 PM 4.1 39.38 0.035 6.9 4.49 12.75
1/15/2023 4:30:00 PM 4.06 39.308 0.035 6.9 4.2 12.74
1/15/2023 4:45:00 PM 4.03 39.254 0.035 6.9 4.21 12.73
1/15/2023 5:00:00 PM 3.98 39.164 0.035 6.89 4.46 12.72
1/15/2023 5:15:00 PM 3.94 39.092 0.035 6.86 6.01 12.71
1/15/2023 5:30:00 PM 3.91 39.038 0.035 6.87 4.22 12.7
1/15/2023 5:45:00 PM 3.88 38.984 0.035 6.87 5.18 12.69
1/15/2023 6:00:00 PM 3.86 38.948 0.035 6.85 30.18 12.68
1/15/2023 6:15:00 PM 3.83 38.894 0.035 6.83 6.7 12.69
1/15/2023 6:30:00 PM 3.8 38.84 0.035 6.84 4.33 12.69
1/15/2023 6:45:00 PM 3.78 38.804 0.035 6.83 4.41 12.7
1/15/2023 7:00:00 PM 3.75 38.75 0.035 6.85 4.42 12.71
1/15/2023 7:15:00 PM 3.72 38.696 0.035 6.83 164.88 12.71
1/15/2023 7:30:00 PM 3.69 38.642 0.035 6.82 48.13 12.72
1/15/2023 7:45:00 PM 3.67 38.606 0.035 6.82 15.31 12.73
1/15/2023 8:00:00 PM 3.64 38.552 0.035 6.8 9.53 12.75
1/15/2023 8:15:00 PM 3.61 38.498 0.035 6.81 5.87 12.75
1/15/2023 8:30:00 PM 3.58 38.444 0.035 6.81 168.21 12.77
1/15/2023 8:45:00 PM 3.55 38.39 0.035 6.81 226.2 12.77
1/15/2023 9:00:00 PM 3.52 38.336 0.035 6.81 15.47 12.78
1/15/2023 9:15:00 PM 3.48 38.264 0.035 6.83 4.51 12.79
1/15/2023 9:30:00 PM 3.45 38.21 0.035 6.83 4.63 12.81
1/15/2023 9:45:00 PM 3.42 38.156 0.035 6.84 4.56 12.81
1/15/2023 10:00:00 PM 3.38 38.084 0.035 6.82 4.61 12.83
1/15/2023 10:15:00 PM 3.34 38.012 0.035 6.82 4.6 12.84
1/15/2023 10:30:00 PM 3.31 37.958 0.035 6.82 4.61 12.86
1/15/2023 10:45:00 PM 3.27 37.886 0.035 6.81 9.64 12.87
1/15/2023 11:00:00 PM 3.24 37.832 0.035 6.81 22.94 12.88
1/15/2023 11:15:00 PM 3.2 37.76 0.035 6.81 5.62 12.9
1/15/2023 11:30:00 PM 3.16 37.688 0.035 6.81 6.53 12.91
1/15/2023 11:45:00 PM 3.13 37.634 0.035 6.8 7.5 12.92
1/16/2023 12:00:00 AM 3.09 37.562 0.035 6.8 16.37 12.93
1/16/2023 12:15:00 AM 3.06 37.508 0.035 6.79 15.67 12.95
1/16/2023 12:30:00 AM 3.02 37.436 0.035 6.78 17.36 12.95
1/16/2023 12:45:00 AM 2.99 37.382 0.035 6.79 12.11 12.97
1/16/2023 1:00:00 AM 2.95 37.31 0.035 6.79 7.39 12.98
1/16/2023 1:15:00 AM 2.92 37.256 0.035 6.8 4.74 12.99
1/16/2023 1:30:00 AM 2.89 37.202 0.035 6.79 5.22 13
1/16/2023 1:45:00 AM 2.85 37.13 0.035 6.79 5.22 13.01
1/16/2023 2:00:00 AM 2.82 37.076 0.035 6.79 5.25 13.01
1/16/2023 2:15:00 AM 2.79 37.022 0.035 6.78 5.2 13.02
1/16/2023 2:30:00 AM 2.76 36.968 0.035 6.8 7.58 13.04
1/16/2023 2:45:00 AM 2.72 36.896 0.035 6.79 7.43 13.06
1/16/2023 3:00:00 AM 2.69 36.842 0.035 6.8 4.87 13.06
1/16/2023 3:15:00 AM 2.66 36.788 0.035 6.8 5.3 13.08
1/16/2023 3:30:00 AM 2.63 36.734 0.035 6.8 4.83 13.08
1/16/2023 3:45:00 AM 2.61 36.698 0.035 6.78 5.66 13.1
1/16/2023 4:00:00 AM 2.58 36.644 0.035 6.79 5.52 13.12
1/16/2023 4:15:00 AM 2.55 36.59 0.035 6.8 4.79 13.12
1/16/2023 4:30:00 AM 2.52 36.536 0.035 6.79 4.79 13.13
1/16/2023 4:45:00 AM 2.5 36.5 0.035 6.81 4.72 13.14
1/16/2023 5:00:00 AM 2.47 36.446 0.035 6.8 4.94 13.16
1/16/2023 5:15:00 AM 2.44 36.392 0.035 6.81 5.08 13.17
1/16/2023 5:30:00 AM 2.41 36.338 0.035 6.8 5.37 13.18
1/16/2023 5:45:00 AM 2.38 36.284 0.035 6.79 5.22 13.19
1/16/2023 6:00:00 AM 2.36 36.248 0.035 6.8 5.21 13.2
1/16/2023 6:15:00 AM 2.33 36.194 0.035 6.8 5.13 13.21
1/16/2023 6:30:00 AM 2.31 36.158 0.035 6.81 4.96 13.22
1/16/2023 6:45:00 AM 2.29 36.122 0.035 6.81 4.89 13.23
1/16/2023 7:00:00 AM 2.27 36.086 0.035 6.81 4.84 13.24
1/16/2023 7:15:00 AM 2.24 36.032 0.035 6.81 5.23 13.24
1/16/2023 7:30:00 AM 2.22 35.996 0.035 6.8 4.87 13.25
1/16/2023 7:45:00 AM 2.2 35.96 0.035 6.8 4.9 13.27
1/16/2023 8:00:00 AM 2.18 35.924 0.035 6.8 4.86 13.29
1/16/2023 8:15:00 AM 2.16 35.888 0.035 6.8 4.84 13.31
1/16/2023 8:30:00 AM 2.15 35.87 0.035 6.82 4.77 13.33
1/16/2023 8:45:00 AM 2.13 35.834 0.035 6.82 4.98 13.36
1/16/2023 9:00:00 AM